Provisional Data: South Branch Codorus Creek near Leader Heights, PA


Please select a monitoring station.
Please select start date.
Please select start date.

Toggle Unit: C/F Toggle Unit: C/F
Sample Time Temperature (C) Temperature (F) Specific Conductivity (mS/cm) pH   Turbidity (NTU+) DO (mg/L)
11/5/2020 12:00:00 AM 9.64 49.352 0.251 7.81 8.46 10.34
11/5/2020 12:15:00 AM 9.63 49.334 0.25 7.81 6.21 10.34
11/5/2020 12:30:00 AM 9.61 49.298 0.249 7.79 6.11 10.33
11/5/2020 12:45:00 AM 9.64 49.352 0.249 7.75 6.88 10.31
11/5/2020 1:00:00 AM 9.65 49.37 0.249 7.75 8.45 10.29
11/5/2020 1:15:00 AM 9.63 49.334 0.251 7.75 7.76 10.29
11/5/2020 1:30:00 AM 9.61 49.298 0.252 7.75 6.51 10.3
11/5/2020 1:45:00 AM 9.6 49.28 0.252 7.74 6.31 10.3
11/5/2020 2:00:00 AM 9.59 49.262 0.252 7.76 6.74 10.3
11/5/2020 2:15:00 AM 9.58 49.244 0.25 7.75 6.8 10.29
11/5/2020 2:30:00 AM 9.59 49.262 0.242 7.75 6.76 10.27
11/5/2020 2:45:00 AM 9.59 49.262 0.25 7.75 7.31 10.27
11/5/2020 3:00:00 AM 9.56 49.208 0.25 7.76 8.48 10.26
11/5/2020 3:15:00 AM 9.57 49.226 0.241 7.75 6.76 10.24
11/5/2020 3:30:00 AM 9.59 49.262 0.247 7.75 7.55 10.24
11/5/2020 3:45:00 AM 9.59 49.262 0.252 7.73 6.97 10.25
11/5/2020 4:00:00 AM 9.55 49.19 0.252 7.74 6.93 10.25
11/5/2020 4:15:00 AM 9.51 49.118 0.252 7.73 8.84 10.26
11/5/2020 4:30:00 AM 9.49 49.082 0.252 7.72 7.42 10.26
11/5/2020 4:45:00 AM 9.46 49.028 0.252 7.72 8.17 10.27
11/5/2020 5:00:00 AM 9.45 49.01 0.252 7.72 7.67 10.26
11/5/2020 5:15:00 AM 9.43 48.974 0.251 7.71 7.93 10.25
11/5/2020 5:30:00 AM 9.45 49.01 0.251 7.71 6.99 10.24
11/5/2020 5:45:00 AM 9.46 49.028 0.251 7.73 7.5 10.22
11/5/2020 6:00:00 AM 9.45 49.01 0.252 7.74 7.55 10.24
11/5/2020 6:15:00 AM 9.37 48.866 0.253 7.73 7.66 10.25
11/5/2020 6:30:00 AM 9.33 48.794 0.253 7.73 35.25 10.26
11/5/2020 6:45:00 AM 9.34 48.812 0.253 7.74 7.39 10.25
11/5/2020 7:00:00 AM 9.3 48.74 0.253 7.75 6.79 10.29
11/5/2020 7:15:00 AM 9.29 48.722 0.253 7.72 6.69 10.33
11/5/2020 7:30:00 AM 9.3 48.74 0.252 7.75 5.49 10.36
11/5/2020 7:45:00 AM 9.29 48.722 0.252 7.75 5.93 10.44
11/5/2020 8:00:00 AM 9.34 48.812 0.251 7.75 6.21 10.52
11/5/2020 8:15:00 AM 9.38 48.884 0.251 7.78 8.54 10.62
11/5/2020 8:30:00 AM 9.42 48.956 0.253 7.78 7.12 10.77
11/5/2020 8:45:00 AM 9.46 49.028 0.253 7.79 5.24 10.92
11/5/2020 9:00:00 AM 9.54 49.172 0.253 7.79 4.86 11.06
11/5/2020 9:15:00 AM 9.68 49.424 0.252 7.81 5.17 11.2
11/5/2020 9:30:00 AM 9.78 49.604 0.252 7.84 4.84 11.32
11/5/2020 9:45:00 AM 9.92 49.856 0.251 7.85 4.44 11.41
11/5/2020 10:00:00 AM 10.03 50.054 0.251 7.86 4.94 11.5
11/5/2020 10:15:00 AM 10.16 50.288 0.25 7.87 4.96 11.59
11/5/2020 10:30:00 AM 10.35 50.63 0.25 7.87 5.23 11.64
11/5/2020 10:45:00 AM 10.45 50.81 0.251 7.88 5.7 11.74
11/5/2020 11:00:00 AM 10.58 51.044 0.252 7.9 5.06 11.81
11/5/2020 11:15:00 AM 10.72 51.296 0.252 7.92 5.17 11.88
11/5/2020 11:30:00 AM 10.86 51.548 0.252 7.93 4.83 11.96
11/5/2020 11:45:00 AM 10.99 51.782 0.252 7.95 5.19 12.04
11/5/2020 12:00:00 PM 11.2 52.16 0.251 7.97 5.35 12.07
11/5/2020 12:15:00 PM 11.35 52.43 0.25 7.98 5.49 12.09
11/5/2020 12:30:00 PM 11.47 52.646 0.25 8.02 5.4 12.12
11/5/2020 12:45:00 PM 11.55 52.79 0.25 8.01 4.98 12.13
11/5/2020 1:00:00 PM 11.65 52.97 0.25 8.04 4.83 12.12
11/5/2020 1:15:00 PM 11.74 53.132 0.251 8.05 6.51 12.17
11/5/2020 1:30:00 PM 11.8 53.24 0.252 8.07 5.74 12.19
11/5/2020 1:45:00 PM 11.82 53.276 0.252 8.09 5.48 12.21
11/5/2020 2:00:00 PM 11.88 53.384 0.251 8.11 5.05 12.2
11/5/2020 2:15:00 PM 11.93 53.474 0.251 8.13 4.95 12.16
11/5/2020 2:30:00 PM 11.94 53.492 0.25 8.14 4.99 12.11
11/5/2020 2:45:00 PM 11.92 53.456 0.25 8.16 5.78 12.06
11/5/2020 3:00:00 PM 11.93 53.474 0.249 8.16 5.18 11.98
11/5/2020 3:15:00 PM 11.88 53.384 0.249 8.16 6.91 11.88
11/5/2020 3:30:00 PM 11.86 53.348 0.25 8.16 5.12 11.81
11/5/2020 3:45:00 PM 11.81 53.258 0.251 8.15 5.45 11.71
11/5/2020 4:00:00 PM 11.74 53.132 0.252 8.15 5.3 11.65
11/5/2020 4:15:00 PM 11.71 53.078 0.252 8.13 5.27 11.5
11/5/2020 4:30:00 PM 11.64 52.952 0.252 8.13 5.69 11.36
11/5/2020 4:45:00 PM 11.6 52.88 0.252 8.11 5.24 11.23
11/5/2020 5:00:00 PM 11.53 52.754 0.251 8.1 6.1 11.09
11/5/2020 5:15:00 PM 11.5 52.7 0.251 8.07 6.06 10.93
11/5/2020 5:30:00 PM 11.43 52.574 0.25 8.06 13.8 10.8
11/5/2020 5:45:00 PM 11.38 52.484 0.251 8.05 7.83 10.67
11/5/2020 6:00:00 PM 11.34 52.412 0.252 8.01 6.59 10.57
11/5/2020 6:15:00 PM 11.3 52.34 0.253 7.99 6.57 10.49
11/5/2020 6:30:00 PM 11.25 52.25 0.253 7.97 7.01 10.42
11/5/2020 6:45:00 PM 11.2 52.16 0.253 7.95 7.63 10.37
11/5/2020 7:00:00 PM 11.12 52.016 0.252 7.93 7.26 10.32
11/5/2020 7:15:00 PM 11.08 51.944 0.252 7.91 7.37 10.24
11/5/2020 7:30:00 PM 11.03 51.854 0.251 7.87 6.84 10.23
11/5/2020 7:45:00 PM 10.98 51.764 0.251 7.87 7.55 10.17
11/5/2020 8:00:00 PM 10.91 51.638 0.251 7.86 6.6 10.12
11/5/2020 8:15:00 PM 10.89 51.602 0.251 7.86 6.54 10.1
11/5/2020 8:30:00 PM 10.84 51.512 0.252 7.85 7.59 10.08
11/5/2020 8:45:00 PM 10.8 51.44 0.253 7.83 6.64 10.08
11/5/2020 9:00:00 PM 10.77 51.386 0.253 7.82 7.06 10.08
11/5/2020 9:15:00 PM 10.69 51.242 0.253 7.81 11.42 10.05
11/5/2020 9:30:00 PM 10.66 51.188 0.252 7.81 6.6 10.06
11/5/2020 9:45:00 PM 10.6 51.08 0.251 7.81 7.24 10.05
11/5/2020 10:00:00 PM 10.53 50.954 0.251 7.79 7.4 10.05
11/5/2020 10:15:00 PM 10.55 50.99 0.25 7.79 7.43 10.03
11/5/2020 10:30:00 PM 10.52 50.936 0.25 7.78 8.91 10.02
11/5/2020 10:45:00 PM 10.47 50.846 0.251 7.77 7.7 10
11/5/2020 11:00:00 PM 10.43 50.774 0.252 7.78 8.35 10.02
11/5/2020 11:15:00 PM 10.42 50.756 0.252 7.76 9.97 10.02
11/5/2020 11:30:00 PM 10.39 50.702 0.252 7.78 7.98 10.03
11/5/2020 11:45:00 PM 10.36 50.648 0.252 7.76 7.3 10.02
11/6/2020 12:00:00 AM 10.32 50.576 0.251 7.76 8.3 10.01
11/6/2020 12:15:00 AM 10.32 50.576 0.25 7.77 7.16 10.01
11/6/2020 12:30:00 AM 10.33 50.594 0.249 7.77 7.17 9.98
11/6/2020 12:45:00 AM 10.32 50.576 0.249 7.76 7.58 9.97
11/6/2020 1:00:00 AM 10.31 50.558 0.249 7.76 6.42 9.96
11/6/2020 1:15:00 AM 10.3 50.54 0.25 7.76 7.72 9.97
11/6/2020 1:30:00 AM 10.29 50.522 0.251 7.75 7.07 9.98
11/6/2020 1:45:00 AM 10.31 50.558 0.252 7.74 6.85 9.97
11/6/2020 2:00:00 AM 10.3 50.54 0.251 7.74 6.57 9.98
11/6/2020 2:15:00 AM 10.29 50.522 0.251 7.75 7.95 9.96
11/6/2020 2:30:00 AM 10.32 50.576 0.25 7.75 9.22 9.96
11/6/2020 2:45:00 AM 10.32 50.576 0.25 7.75 6.67 9.94
11/6/2020 3:00:00 AM 10.35 50.63 0.249 7.75 7.02 9.92
11/6/2020 3:15:00 AM 10.37 50.666 0.249 7.75 7.22 9.9
11/6/2020 3:30:00 AM 10.35 50.63 0.25 7.75 7.72 9.9
11/6/2020 3:45:00 AM 10.35 50.63 0.251 7.74 8.53 9.9
11/6/2020 4:00:00 AM 10.34 50.612 0.251 7.75 6.67 9.9
11/6/2020 4:15:00 AM 10.35 50.63 0.252 7.75 7.28 9.9
11/6/2020 4:30:00 AM 10.34 50.612 0.251 7.58 7.17 9.91
11/6/2020 4:45:00 AM 10.32 50.576 0.251 7.38 7.43 9.89
11/6/2020 5:00:00 AM 10.32 50.576 0.25 7.38 6.29 9.9
11/6/2020 5:15:00 AM 10.32 50.576 0.25 7.45 8.2 9.89
11/6/2020 5:30:00 AM 10.32 50.576 0.249 7.45 8.02 9.89
11/6/2020 5:45:00 AM 10.31 50.558 0.249 7.45 7.26 9.88
11/6/2020 6:00:00 AM 10.3 50.54 0.25 7.46 7.91 9.87
11/6/2020 6:15:00 AM 10.27 50.486 0.251 7.49 7.87 9.9
11/6/2020 6:30:00 AM 10.23 50.414 0.251 7.49 7.53 9.9
11/6/2020 6:45:00 AM 10.2 50.36 0.251 7.51 6.56 9.92
11/6/2020 7:00:00 AM 10.2 50.36 0.251 7.51 6.83 9.92
11/6/2020 7:15:00 AM 10.18 50.324 0.251 7.51 7.62 9.94
11/6/2020 7:30:00 AM 10.2 50.36 0.25 7.53 6.83 10
11/6/2020 7:45:00 AM 10.2 50.36 0.25 7.56 5.79 10.1
11/6/2020 8:00:00 AM 10.23 50.414 0.249 7.57 5.56 10.19
11/6/2020 8:15:00 AM 10.23 50.414 0.249 7.58 5.26 10.29
11/6/2020 8:30:00 AM 10.21 50.378 0.251 7.59 5.41 10.36
11/6/2020 8:45:00 AM 10.22 50.396 0.251 7.63 5.44 10.48
11/6/2020 9:00:00 AM 10.26 50.468 0.251 7.67 5.73 10.65
11/6/2020 9:15:00 AM 10.36 50.648 0.251 7.67 4.54 10.83
11/6/2020 9:30:00 AM 10.47 50.846 0.25 7.68 4.76 11.02
11/6/2020 9:45:00 AM 10.6 51.08 0.249 7.26 5.23 11.17
11/6/2020 10:00:00 AM 10.73 51.314 0.249 7.63 4.37 11.3
11/6/2020 10:15:00 AM 10.84 51.512 0.249 7.63 4.97 11.41
11/6/2020 10:30:00 AM 11 51.8 0.249 7.08 4.44 11.51
11/6/2020 10:45:00 AM 11.13 52.034 0.249 7.4 4.72 11.59
11/6/2020 11:00:00 AM 11.26 52.268 0.249 6.62 6.56 11.68
11/6/2020 11:15:00 AM 11.38 52.484 0.25 7.47 5.8 11.79
11/6/2020 11:30:00 AM 11.54 52.772 0.25 7.55 4.9 11.85
11/6/2020 11:45:00 AM 11.68 53.024 0.25 7.58 4.62 11.94
11/6/2020 12:00:00 PM 11.82 53.276 0.249 7.65 6.15 12
11/6/2020 12:15:00 PM 11.95 53.51 0.249 7.68 4.14 12.05
11/6/2020 12:30:00 PM 12.1 53.78 0.249 7.7 4.73 12.07
11/6/2020 12:45:00 PM 12.23 54.014 0.248 7.77 5.08 12.05
11/6/2020 1:00:00 PM 12.32 54.176 0.248 7.82 5.38 12.05
11/6/2020 1:15:00 PM 12.4 54.32 0.249 7.85 4.92 12.09
11/6/2020 1:30:00 PM 12.47 54.446 0.25 7.87 5.58 12.07
11/6/2020 1:45:00 PM 12.52 54.536 0.251 7.91 5.4 12.07
11/6/2020 2:00:00 PM 12.57 54.626 0.251 7.96 5.56 11.99
11/6/2020 2:15:00 PM 12.59 54.662 0.251 8.01 6 11.97
11/6/2020 2:30:00 PM 12.61 54.698 0.251 8.04 5.39 11.88
11/6/2020 2:45:00 PM 12.59 54.662 0.252 8.06 4.98 11.86
11/6/2020 3:00:00 PM 12.58 54.644 0.252 8.06 4.96 11.78
11/6/2020 3:15:00 PM 12.54 54.572 0.252 8.08 5.77 11.68
11/6/2020 3:30:00 PM 12.49 54.482 0.251 8.08 4.91 11.58
11/6/2020 3:45:00 PM 12.42 54.356 0.251 8.02 5.16 11.45
11/6/2020 4:00:00 PM 12.37 54.266 0.251 7.9 4.64 11.3
11/6/2020 4:15:00 PM 12.31 54.158 0.25 7.98 5.46 11.14
11/6/2020 4:30:00 PM 12.24 54.032 0.249 7.97 4.93 11.01
11/6/2020 4:45:00 PM 12.19 53.942 0.249 7.97 5.19 10.86
11/6/2020 5:00:00 PM 12.11 53.798 0.249 7.94 4.81 10.73
11/6/2020 5:15:00 PM 12.06 53.708 0.249 7.91 5.1 10.57
11/6/2020 5:30:00 PM 12.01 53.618 0.249 7.9 6.67 10.43
11/6/2020 5:45:00 PM 11.95 53.51 0.249 7.88 6.58 10.3
11/6/2020 6:00:00 PM 11.89 53.402 0.251 7.86 6.96 10.21
11/6/2020 6:15:00 PM 11.84 53.312 0.252 7.84 7.57 10.14
11/6/2020 6:30:00 PM 11.78 53.204 0.253 7.83 6.14 10.08
11/6/2020 6:45:00 PM 11.72 53.096 0.253 7.81 6.3 10.03
11/6/2020 7:00:00 PM 11.66 52.988 0.253 7.79 6.55 9.98
11/6/2020 7:15:00 PM 11.6 52.88 0.253 7.78 6.88 9.94
11/6/2020 7:30:00 PM 11.52 52.736 0.252 7.76 5.66 9.91
11/6/2020 7:45:00 PM 11.47 52.646 0.251 7.76 9.34 9.87
11/6/2020 8:00:00 PM 11.41 52.538 0.251 7.74 6.12 9.84
11/6/2020 8:15:00 PM 11.35 52.43 0.251 7.75 7.34 9.81
11/6/2020 8:30:00 PM 11.29 52.322 0.252 7.74 5.74 9.79
11/6/2020 8:45:00 PM 11.23 52.214 0.252 7.73 7.42 9.79
11/6/2020 9:00:00 PM 11.16 52.088 0.252 7.73 7.59 9.8
11/6/2020 9:15:00 PM 11.11 51.998 0.252 7.66 7.07 9.79
11/6/2020 9:30:00 PM 11.05 51.89 0.251 7.68 6.02 9.8
11/6/2020 9:45:00 PM 10.99 51.782 0.251 7.68 6.7 9.82
11/6/2020 10:00:00 PM 10.95 51.71 0.25 7.67 6.35 9.81
11/6/2020 10:15:00 PM 10.9 51.62 0.249 7.65 7.31 9.81
11/6/2020 10:30:00 PM 10.87 51.566 0.249 7.65 7.49 9.78
11/6/2020 10:45:00 PM 10.83 51.494 0.25 7.65 7.98 9.8
11/6/2020 11:00:00 PM 10.78 51.404 0.251 7.66 7.12 9.8
11/6/2020 11:15:00 PM 10.73 51.314 0.252 7.66 6.84 9.8
11/6/2020 11:30:00 PM 10.68 51.224 0.252 7.64 6.36 9.82
11/6/2020 11:45:00 PM 10.65 51.17 0.251 7.63 6.73 9.82
11/7/2020 12:00:00 AM 10.62 51.116 0.25 7.65 7.87 9.82
11/7/2020 12:15:00 AM 10.6 51.08 0.25 7.65 6.43 9.81
11/7/2020 12:30:00 AM 10.57 51.026 0.249 7.67 6.68 9.79
11/7/2020 12:45:00 AM 10.55 50.99 0.249 7.66 7.55 9.76
11/7/2020 1:00:00 AM 10.53 50.954 0.249 7.68 7.25 9.74
11/7/2020 1:15:00 AM 10.52 50.936 0.25 7.67 7.42 9.71
11/7/2020 1:30:00 AM 10.47 50.846 0.252 7.63 8.32 9.7
11/7/2020 1:45:00 AM 10.45 50.81 0.252 7.66 8.93 9.7
11/7/2020 2:00:00 AM 10.43 50.774 0.252 7.65 9.82 9.71
11/7/2020 2:15:00 AM 10.41 50.738 0.251 7.64 7.89 9.69
11/7/2020 2:30:00 AM 10.4 50.72 0.251 7.6 8.21 9.69
11/7/2020 2:45:00 AM 10.38 50.684 0.25 7.63 6.89 9.68
11/7/2020 3:00:00 AM 10.37 50.666 0.25 7.63 6.76 9.67
11/7/2020 3:15:00 AM 10.37 50.666 0.25 7.63 7.35 9.66
11/7/2020 3:30:00 AM 10.35 50.63 0.249 7.62 9.19 9.65
11/7/2020 3:45:00 AM 10.33 50.594 0.251 7.57 9.91 9.67
11/7/2020 4:00:00 AM 10.29 50.522 0.252 7.56 7.17 9.68
11/7/2020 4:15:00 AM 10.27 50.486 0.252 7.54 6.83 9.71
11/7/2020 4:30:00 AM 10.23 50.414 0.251 7.56 9.16 9.71
11/7/2020 4:45:00 AM 10.23 50.414 0.251 7.52 7.01 9.71
11/7/2020 5:00:00 AM 10.21 50.378 0.25 7.54 7.4 9.72
11/7/2020 5:15:00 AM 10.19 50.342 0.25 7.54 7.06 9.72
11/7/2020 5:30:00 AM 10.18 50.324 0.25 7.52 7.54 9.7
11/7/2020 5:45:00 AM 10.17 50.306 0.249 7.52 8.17 9.69
11/7/2020 6:00:00 AM 10.14 50.252 0.25 7.4 7.35 9.7
11/7/2020 6:15:00 AM 10.09 50.162 0.251 7.42 7.69 9.72
11/7/2020 6:30:00 AM 10.05 50.09 0.244 7.49 7.47 9.74
11/7/2020 6:45:00 AM 10.01 50.018 0.24 7.55 7.24 9.76
11/7/2020 7:00:00 AM 9.98 49.964 0.241 7.56 7.47 9.78
11/7/2020 7:15:00 AM 9.97 49.946 0.24 7.58 6.86 9.79
11/7/2020 7:30:00 AM 9.94 49.892 0.238 7.61 6.96 9.85
11/7/2020 7:45:00 AM 9.94 49.892 0.238 7.62 6.89 9.93
11/7/2020 8:00:00 AM 9.99 49.982 0.238 7.62 6.71 10.03
11/7/2020 8:15:00 AM 10.01 50.018 0.238 7.63 6.16 10.15
11/7/2020 8:30:00 AM 10.03 50.054 0.239 7.63 5.32 10.32
11/7/2020 8:45:00 AM 10.07 50.126 0.24 7.59 5.42 10.52
11/7/2020 9:00:00 AM 10.15 50.27 0.24 7.6 6.23 10.69
11/7/2020 9:15:00 AM 10.26 50.468 0.24 7.6 6.65 10.88
11/7/2020 9:30:00 AM 10.36 50.648 0.239 7.67 4.89 11.04
11/7/2020 9:45:00 AM 10.48 50.864 0.237 7.72 5.35 11.18
11/7/2020 10:00:00 AM 10.61 51.098 0.237 7.76 5.34 11.3
11/7/2020 10:15:00 AM 10.77 51.386 0.236 7.78 6.05 11.43
11/7/2020 10:30:00 AM 10.93 51.674 0.236 7.8 4.81 11.51
11/7/2020 10:45:00 AM 11.06 51.908 0.241 7.84 5.04 11.63
11/7/2020 11:00:00 AM 11.21 52.178 0.247 7.85 4.95 11.73
11/7/2020 11:15:00 AM 11.34 52.412 0.25 7.87 4.5 11.83
11/7/2020 11:30:00 AM 11.51 52.718 0.251 7.9 5.94 11.93
11/7/2020 11:45:00 AM 11.67 53.006 0.251 7.93 4.31 12.04
11/7/2020 12:00:00 PM 11.82 53.276 0.25 7.96 4.51 12.11
11/7/2020 12:15:00 PM 11.99 53.582 0.249 7.97 4.58 12.17
11/7/2020 12:30:00 PM 12.11 53.798 0.244 8 4.01 12.19
11/7/2020 12:45:00 PM 12.24 54.032 0.248 8.02 4.75 12.22
11/7/2020 1:00:00 PM 12.37 54.266 0.248 8.05 4.18 12.2
11/7/2020 1:15:00 PM 12.45 54.41 0.249 8.09 4.63 12.22
11/7/2020 1:30:00 PM 12.52 54.536 0.25 8.1 4.65 12.25
11/7/2020 1:45:00 PM 12.59 54.662 0.25 8.14 4.35 12.24
11/7/2020 2:00:00 PM 12.63 54.734 0.25 8.17 4.21 12.22
11/7/2020 2:15:00 PM 12.65 54.77 0.25 8.18 4.83 12.17
11/7/2020 2:30:00 PM 12.68 54.824 0.249 8.2 4.51 12.11
11/7/2020 2:45:00 PM 12.67 54.806 0.249 8.21 4.44 12.05
11/7/2020 3:00:00 PM 12.67 54.806 0.248 8.21 5.93 11.93
11/7/2020 3:15:00 PM 12.62 54.716 0.248 8.21 4.43 11.78
11/7/2020 3:30:00 PM 12.57 54.626 0.246 8.2 4.47 11.61
11/7/2020 3:45:00 PM 12.52 54.536 0.25 8.19 4.45 11.49
11/7/2020 4:00:00 PM 12.43 54.374 0.251 8.17 7.1 11.35
11/7/2020 4:15:00 PM 12.38 54.284 0.251 8.15 4.99 11.2
11/7/2020 4:30:00 PM 12.3 54.14 0.251 8.12 4.97 11.02
11/7/2020 4:45:00 PM 12.23 54.014 0.251 8.1 5.53 10.85
11/7/2020 5:00:00 PM 12.17 53.906 0.25 8.08 5.7 10.71
11/7/2020 5:15:00 PM 12.11 53.798 0.25 8.05 6.41 10.52
11/7/2020 5:30:00 PM 12.04 53.672 0.25 8.02 9.21 10.36
11/7/2020 5:45:00 PM 11.99 53.582 0.25 7.99 5.81 10.2
11/7/2020 6:00:00 PM 11.93 53.474 0.251 7.95 7.01 10.1
11/7/2020 6:15:00 PM 11.88 53.384 0.253 7.93 6.29 10.02
11/7/2020 6:30:00 PM 11.82 53.276 0.253 7.91 6.56 9.95
11/7/2020 6:45:00 PM 11.76 53.168 0.253 7.88 6.58 9.89
11/7/2020 7:00:00 PM 11.69 53.042 0.253 7.87 5.87 9.87
11/7/2020 7:15:00 PM 11.63 52.934 0.253 7.85 6.87 9.83
11/7/2020 7:30:00 PM 11.56 52.808 0.252 7.84 7.92 9.78
11/7/2020 7:45:00 PM 11.49 52.682 0.252 7.81 11.91 9.76
11/7/2020 8:00:00 PM 11.43 52.574 0.251 7.81 7.11 9.73
11/7/2020 8:15:00 PM 11.36 52.448 0.251 7.79 7.63 9.7
11/7/2020 8:30:00 PM 11.29 52.322 0.252 7.78 8.45 9.71
11/7/2020 8:45:00 PM 11.22 52.196 0.253 7.77 7.33 9.7
11/7/2020 9:00:00 PM 11.16 52.088 0.253 7.77 8.99 9.7
11/7/2020 9:15:00 PM 11.1 51.98 0.253 7.77 7.51 9.72
11/7/2020 9:30:00 PM 11.04 51.872 0.253 7.77 6.44 9.73
11/7/2020 9:45:00 PM 10.99 51.782 0.252 7.77 7.96 9.74
11/7/2020 10:00:00 PM 10.92 51.656 0.251 7.77 7.77 9.75
11/7/2020 10:15:00 PM 10.88 51.584 0.251 7.17 7.67 9.74
11/7/2020 10:30:00 PM 10.84 51.512 0.25 7.73 7.44 9.73
11/7/2020 10:45:00 PM 10.77 51.386 0.251 7.74 8.85 9.75
11/7/2020 11:00:00 PM 10.73 51.314 0.252 7.72 7.01 9.75
11/7/2020 11:15:00 PM 10.67 51.206 0.252 7.74 7.67 9.78
11/7/2020 11:30:00 PM 10.63 51.134 0.253 7.74 7.39 9.78
11/7/2020 11:45:00 PM 10.59 51.062 0.252 7.74 6.15 9.79
11/8/2020 12:00:00 AM 10.54 50.972 0.252 7.72 6.86 9.78
11/8/2020 12:15:00 AM 10.53 50.954 0.251 7.74 4.5 9.78
11/8/2020 12:30:00 AM 10.5 50.9 0.251 7.74 6.87 9.74
11/8/2020 12:45:00 AM 10.48 50.864 0.25 7.72 10.02 9.72
11/8/2020 1:00:00 AM 10.46 50.828 0.25 7.72 8.37 9.69
11/8/2020 1:15:00 AM 10.44 50.792 0.251 7.72 7.11 9.68
11/8/2020 1:30:00 AM 10.4 50.72 0.252 7.7 7.21 9.68
11/8/2020 1:45:00 AM 10.38 50.684 0.253 7.7 8.56 9.67
11/8/2020 2:00:00 AM 10.35 50.63 0.252 7.7 7.12 9.65
11/8/2020 2:15:00 AM 10.34 50.612 0.252 7.7 7.68 9.67
11/8/2020 2:30:00 AM 10.32 50.576 0.251 7.71 6.25 9.65
11/8/2020 2:45:00 AM 10.31 50.558 0.251 7.7 6.67 9.67
11/8/2020 3:00:00 AM 10.3 50.54 0.25 7.68 9.06 9.64
11/8/2020 3:15:00 AM 10.3 50.54 0.249 7.68 6.7 9.63
11/8/2020 3:30:00 AM 10.29 50.522 0.249 7.69 8.54 9.62
11/8/2020 3:45:00 AM 10.27 50.486 0.251 7.68 7.67 9.62
11/8/2020 4:00:00 AM 10.24 50.432 0.251 7.68 7.7 9.64
11/8/2020 4:15:00 AM 10.21 50.378 0.252 7.29 7.66 9.66
11/8/2020 4:30:00 AM 10.18 50.324 0.251 7.56 6.87 9.69
11/8/2020 4:45:00 AM 10.17 50.306 0.251 7.63 11.46 9.69
11/8/2020 5:00:00 AM 10.14 50.252 0.25 7.63 6.24 9.7
11/8/2020 5:15:00 AM 10.12 50.216 0.25 7.66 10.87 9.72
11/8/2020 5:30:00 AM 10.11 50.198 0.249 7.67 6.7 9.7
11/8/2020 5:45:00 AM 10.11 50.198 0.248 7.67 6.86 9.69
11/8/2020 6:00:00 AM 10.09 50.162 0.249 7.68 5.46 9.71
11/8/2020 6:15:00 AM 10.05 50.09 0.25 7.68 6.2 9.73
11/8/2020 6:30:00 AM 10.01 50.018 0.251 7.69 6.79 9.73
11/8/2020 6:45:00 AM 9.97 49.946 0.251 7.69 6.17 9.78
11/8/2020 7:00:00 AM 9.95 49.91 0.251 7.7 5.9 9.79
11/8/2020 7:15:00 AM 9.93 49.874 0.25 7.7 6.05 9.84
11/8/2020 7:30:00 AM 9.92 49.856 0.249 7.7 6.46 9.91
11/8/2020 7:45:00 AM 9.93 49.874 0.249 7.71 5.35 10.01
11/8/2020 8:00:00 AM 9.95 49.91 0.248 7.7 6.25 10.09
11/8/2020 8:15:00 AM 9.98 49.964 0.248 7.7 4.76 10.2
11/8/2020 8:30:00 AM 10 50 0.249 7.71 5.11 10.38
11/8/2020 8:45:00 AM 10.06 50.108 0.25 7.72 4.84 10.58
11/8/2020 9:00:00 AM 10.12 50.216 0.25 7.74 6.53 10.75
11/8/2020 9:15:00 AM 10.2 50.36 0.25 7.76 4.24 10.96
11/8/2020 9:30:00 AM 10.32 50.576 0.25 7.78 5.25 11.12
11/8/2020 9:45:00 AM 10.44 50.792 0.249 7.8 4.72 11.27
11/8/2020 10:00:00 AM 10.58 51.044 0.249 7.81 5.97 11.41
11/8/2020 10:15:00 AM 10.72 51.296 0.248 7.84 5.2 11.52
11/8/2020 10:30:00 AM 10.88 51.584 0.248 7.85 5.42 11.62
11/8/2020 10:45:00 AM 11.03 51.854 0.248 7.88 7.34 11.7
11/8/2020 11:00:00 AM 11.18 52.124 0.248 7.9 5.06 11.81
11/8/2020 11:15:00 AM 11.32 52.376 0.248 7.92 4.67 11.92
11/8/2020 11:30:00 AM 11.48 52.664 0.249 7.93 5.22 12.02
11/8/2020 11:45:00 AM 11.62 52.916 0.248 7.97 6.38 12.13
11/8/2020 12:00:00 PM 11.8 53.24 0.248 8 4.54 12.18
11/8/2020 12:15:00 PM 11.94 53.492 0.248 8.03 3.68 12.24
11/8/2020 12:30:00 PM 12.11 53.798 0.247 8.06 4.47 12.28
11/8/2020 12:45:00 PM 12.24 54.032 0.247 8.09 5.32 12.27
11/8/2020 1:00:00 PM 12.36 54.248 0.247 8.09 4.57 12.29
11/8/2020 1:15:00 PM 12.42 54.356 0.247 8.13 4.51 12.29
11/8/2020 1:30:00 PM 12.52 54.536 0.248 8.16 4.13 12.32
11/8/2020 1:45:00 PM 12.57 54.626 0.248 8.19 4.53 12.3
11/8/2020 2:00:00 PM 12.62 54.716 0.248 8.2 4.83 12.28
11/8/2020 2:15:00 PM 12.64 54.752 0.248 8.23 4.84 12.22
11/8/2020 2:30:00 PM 12.66 54.788 0.248 8.24 3.99 12.17
11/8/2020 2:45:00 PM 12.65 54.77 0.248 8.25 4.3 12.1
11/8/2020 3:00:00 PM 12.63 54.734 0.248 8.25 6.78 11.99
11/8/2020 3:15:00 PM 12.6 54.68 0.247 8.23 5.29 11.83
11/8/2020 3:30:00 PM 12.56 54.608 0.248 8.22 4.64 11.66
11/8/2020 3:45:00 PM 12.5 54.5 0.249 8.22 4.26 11.5
11/8/2020 4:00:00 PM 12.44 54.392 0.25 8.19 4.55 11.36
11/8/2020 4:15:00 PM 12.38 54.284 0.25 8.15 5.83 11.2
11/8/2020 4:30:00 PM 12.31 54.158 0.25 8.12 5.3 11
11/8/2020 4:45:00 PM 12.26 54.068 0.25 8.12 4.25 10.86
11/8/2020 5:00:00 PM 12.19 53.942 0.25 8.08 4.77 10.71
11/8/2020 5:15:00 PM 12.15 53.87 0.249 8.06 5.32 10.52
11/8/2020 5:30:00 PM 12.09 53.762 0.249 8.02 5.57 10.38
11/8/2020 5:45:00 PM 12.03 53.654 0.249 7.99 5.92 10.23
11/8/2020 6:00:00 PM 12 53.6 0.25 7.96 6.19 10.12
11/8/2020 6:15:00 PM 11.95 53.51 0.251 7.95 5.49 10.06
11/8/2020 6:30:00 PM 11.9 53.42 0.252 7.91 5 9.99
11/8/2020 6:45:00 PM 11.85 53.33 0.252 7.89 5.87 9.94
11/8/2020 7:00:00 PM 11.79 53.222 0.252 7.88 5.87 9.9
11/8/2020 7:15:00 PM 11.73 53.114 0.252 7.86 5.67 9.86
11/8/2020 7:30:00 PM 11.67 53.006 0.252 7.86 6.44 9.82
11/8/2020 7:45:00 PM 11.6 52.88 0.251 7.83 5.53 9.79
11/8/2020 8:00:00 PM 11.54 52.772 0.251 7.81 6.36 9.76
11/8/2020 8:15:00 PM 11.48 52.664 0.251 7.81 6.51 9.72
11/8/2020 8:30:00 PM 11.42 52.556 0.252 7.79 6.67 9.72
11/8/2020 8:45:00 PM 11.37 52.466 0.252 7.79 8.28 9.71
11/8/2020 9:00:00 PM 11.3 52.34 0.253 7.79 6.41 9.7
11/8/2020 9:15:00 PM 11.24 52.232 0.252 7.77 6.08 9.73
11/8/2020 9:30:00 PM 11.19 52.142 0.252 7.77 7.06 9.74
11/8/2020 9:45:00 PM 11.13 52.034 0.252 7.77 7.52 9.71
11/8/2020 10:00:00 PM 11.07 51.926 0.251 7.76 5.87 9.72
11/8/2020 10:15:00 PM 11.03 51.854 0.25 7.74 6.88 9.72
11/8/2020 10:30:00 PM 10.99 51.782 0.25 7.75 6.14 9.7
11/8/2020 10:45:00 PM 10.94 51.692 0.25 7.75 6.93 9.7
11/8/2020 11:00:00 PM 10.91 51.638 0.251 7.74 7.51 9.73
11/8/2020 11:15:00 PM 10.84 51.512 0.252 7.72 6.33 9.73
11/8/2020 11:30:00 PM 10.8 51.44 0.252 7.73 6.38 9.76
11/8/2020 11:45:00 PM 10.78 51.404 0.252 7.73 7.54 9.75
11/9/2020 12:00:00 AM 10.74 51.332 0.251 7.73 6.18 9.76
11/9/2020 12:15:00 AM 10.72 51.296 0.251 7.73 7.75 9.75
11/9/2020 12:30:00 AM 10.7 51.26 0.25 7.71 9.5 9.75
11/9/2020 12:45:00 AM 10.71 51.278 0.249 7.73 6.79 9.71
11/9/2020 1:00:00 AM 10.69 51.242 0.249 7.71 6.73 9.69
11/9/2020 1:15:00 AM 10.67 51.206 0.25 7.71 6.87 9.67
11/9/2020 1:30:00 AM 10.64 51.152 0.251 7.7 7.12 9.65
11/9/2020 1:45:00 AM 10.64 51.152 0.252 7.7 8.33 9.65
11/9/2020 2:00:00 AM 10.61 51.098 0.252 7.68 7.96 9.63
11/9/2020 2:15:00 AM 10.59 51.062 0.252 7.7 7.23 9.62
11/9/2020 2:30:00 AM 10.59 51.062 0.252 7.69 7.77 9.61
11/9/2020 2:45:00 AM 10.59 51.062 0.251 7.7 8.24 9.61
11/9/2020 3:00:00 AM 10.59 51.062 0.25 7.7 6.82 9.58
11/9/2020 3:15:00 AM 10.6 51.08 0.249 7.7 7.98 9.57
11/9/2020 3:30:00 AM 10.6 51.08 0.25 7.68 6.69 9.56
11/9/2020 3:45:00 AM 10.58 51.044 0.251 7.68 11.13 9.57
11/9/2020 4:00:00 AM 10.58 51.044 0.251 7.68 6.92 9.56
11/9/2020 4:15:00 AM 10.55 50.99 0.252 7.69 6.49 9.58
11/9/2020 4:30:00 AM 10.53 50.954 0.251 7.7 7.5 9.59
11/9/2020 4:45:00 AM 10.53 50.954 0.251 7.69 6.13 9.6
11/9/2020 5:00:00 AM 10.52 50.936 0.251 7.99 6.48 9.61
11/9/2020 5:15:00 AM 10.54 50.972 0.25 7.82 6.39 9.59
11/9/2020 5:30:00 AM 10.55 50.99 0.249 7.81 6.17 9.59
11/9/2020 5:45:00 AM 10.56 51.008 0.249 7.77 7.65 9.56
11/9/2020 6:00:00 AM 10.57 51.026 0.249 7.76 6.06 9.58
11/9/2020 6:15:00 AM 10.55 50.99 0.25 7.77 7.36 9.6
11/9/2020 6:30:00 AM 10.55 50.99 0.251 7.75 6.59 9.6
11/9/2020 6:45:00 AM 10.53 50.954 0.251 7.76 7.8 9.6
11/9/2020 7:00:00 AM 10.53 50.954 0.25 7.76 6.5 9.62
11/9/2020 7:15:00 AM 10.54 50.972 0.249 7.73 5.58 9.64
11/9/2020 7:30:00 AM 10.55 50.99 0.249 7.72 5.7 9.71
11/9/2020 7:45:00 AM 10.57 51.026 0.248 7.76 5.58 9.77
11/9/2020 8:00:00 AM 10.62 51.116 0.248 7.7 6.4 9.89
11/9/2020 8:15:00 AM 10.67 51.206 0.248 7.94 4.77 10.04
11/9/2020 8:30:00 AM 10.7 51.26 0.248 7.82 5.67 10.27
11/9/2020 8:45:00 AM 10.75 51.35 0.249 9.33 4.79 10.49
11/9/2020 9:00:00 AM 10.81 51.458 0.249 8.06 4.89 10.71
11/9/2020 9:15:00 AM 10.89 51.602 0.249 8.04 4.78 10.94
11/9/2020 9:30:00 AM 10.97 51.746 0.248 8.03 5.12 11.15
11/9/2020 9:45:00 AM 11.08 51.944 0.248 8.03 4.4 11.32
11/9/2020 10:00:00 AM 11.23 52.214 0.247 8.08 4.02 11.5
11/9/2020 10:15:00 AM 11.39 52.502 0.247 8.16 4.68 11.64
11/9/2020 10:30:00 AM 11.56 52.808 0.246 8.43 5.85 11.74
11/9/2020 10:45:00 AM 11.73 53.114 0.246 8.77 4.64 11.85
11/9/2020 11:00:00 AM 11.87 53.366 0.247 9.01 3.99 11.94
11/9/2020 11:15:00 AM 11.99 53.582 0.248 8.61 4.34 12.04
11/9/2020 11:30:00 AM 12.14 53.852 0.249 8.33 4.48 12.12
11/9/2020 11:45:00 AM 12.29 54.122 0.248 8.31 4.59 12.19
11/9/2020 12:00:00 PM 12.44 54.392 0.248 8.33 4 12.27
11/9/2020 12:15:00 PM 12.58 54.644 0.248 8.34 3.88 12.32
11/9/2020 12:30:00 PM 12.72 54.896 0.247 8.35 4.33 12.36
11/9/2020 12:45:00 PM 12.85 55.13 0.247 8.38 4.13 12.33
11/9/2020 1:00:00 PM 12.94 55.292 0.247 8.4 4.13 12.32
11/9/2020 1:15:00 PM 13.06 55.508 0.247 8.43 4.05 12.29
11/9/2020 1:30:00 PM 13.12 55.616 0.248 8.43 5.33 12.31
11/9/2020 1:45:00 PM 13.18 55.724 0.249 8.47 4.72 12.27
11/9/2020 2:00:00 PM 13.23 55.814 0.249 8.71 4.2 12.21
11/9/2020 2:15:00 PM 13.26 55.868 0.249 8.57 4.49 12.16
11/9/2020 2:30:00 PM 13.29 55.922 0.248 8.79 4.73 12.09
11/9/2020 2:45:00 PM 13.3 55.94 0.248 8.58 4.91 11.97
11/9/2020 3:00:00 PM 13.29 55.922 0.247 8.54 4.41 11.83
11/9/2020 3:15:00 PM 13.26 55.868 0.247 8.59 4.05 11.66
11/9/2020 3:30:00 PM 13.23 55.814 0.247 8.54 4.71 11.47
11/9/2020 3:45:00 PM 13.18 55.724 0.249 8.47 4.6 11.3
11/9/2020 4:00:00 PM 13.12 55.616 0.25 8.49 11.63 11.09
11/9/2020 4:15:00 PM 13.07 55.526 0.251 8.38 4.92 10.97
11/9/2020 4:30:00 PM 13.01 55.418 0.251 8.33 4.03 10.78
11/9/2020 4:45:00 PM 12.95 55.31 0.251 8.42 5.1 10.62
11/9/2020 5:00:00 PM 12.89 55.202 0.251 8.27 4.16 10.46
11/9/2020 5:15:00 PM 12.84 55.112 0.25 8.22 5.54 10.27
11/9/2020 5:30:00 PM 12.78 55.004 0.25 8.18 4.54 10.11
11/9/2020 5:45:00 PM 12.73 54.914 0.249 8.14 5.83 9.98
11/9/2020 6:00:00 PM 12.69 54.842 0.25 8.1 6.38 9.88
11/9/2020 6:15:00 PM 12.65 54.77 0.251 8.27 5.13 9.8
11/9/2020 6:30:00 PM 12.6 54.68 0.252 8.21 5.91 9.73
11/9/2020 6:45:00 PM 12.56 54.608 0.252 8.09 4.94 9.69
11/9/2020 7:00:00 PM 12.51 54.518 0.251 9.3 5.54 9.64
11/9/2020 7:15:00 PM 12.46 54.428 0.251 8.47 6.57 9.6
11/9/2020 7:30:00 PM 12.41 54.338 0.251 8.27 7.5 9.54
11/9/2020 7:45:00 PM 12.35 54.23 0.25 8.24 5.58 9.51
11/9/2020 8:00:00 PM 12.3 54.14 0.25 8.15 5.76 9.47
11/9/2020 8:15:00 PM 12.25 54.05 0.25 8.09 6.36 9.45
11/9/2020 8:30:00 PM 12.2 53.96 0.25 8.09 5.53 9.42
11/9/2020 8:45:00 PM 12.15 53.87 0.252 8.07 6.66 9.42
11/9/2020 9:00:00 PM 12.1 53.78 0.252 8.04 5.37 9.42
11/9/2020 9:15:00 PM 12.05 53.69 0.252 8.01 5.84 9.41
11/9/2020 9:30:00 PM 12 53.6 0.252 8.04 6.42 9.41
11/9/2020 9:45:00 PM 11.94 53.492 0.251 8.04 5.45 9.41
11/9/2020 10:00:00 PM 11.89 53.402 0.25 8.13 7.03 9.4
11/9/2020 10:15:00 PM 11.85 53.33 0.25 8.02 6.96 9.39
11/9/2020 10:30:00 PM 11.8 53.24 0.249 7.98 6.39 9.36
11/9/2020 10:45:00 PM 11.77 53.186 0.249 7.99 6.35 9.37
11/9/2020 11:00:00 PM 11.73 53.114 0.25 8.12 5.89 9.37
11/9/2020 11:15:00 PM 11.69 53.042 0.251 8.02 7.7 9.36
11/9/2020 11:30:00 PM 11.64 52.952 0.251 7.99 6.29 9.38
11/9/2020 11:45:00 PM 11.6 52.88 0.251 7.99 7.01 9.37
11/10/2020 12:00:00 AM 11.58 52.844 0.251 7.99 6.23 9.37
11/10/2020 12:15:00 AM 11.55 52.79 0.25 8.03 5.62 9.35
11/10/2020 12:30:00 AM 11.52 52.736 0.25 7.97 6.69 9.33
11/10/2020 12:45:00 AM 11.51 52.718 0.249 7.95 6.95 9.29
11/10/2020 1:00:00 AM 11.5 52.7 0.249 7.9 8.16 9.24
11/10/2020 1:15:00 AM 11.49 52.682 0.25 7.92 8.27 9.2
11/10/2020 1:30:00 AM 11.48 52.664 0.251 7.88 7.72 9.2
11/10/2020 1:45:00 AM 11.46 52.628 0.251 7.95 10.66 9.2
11/10/2020 2:00:00 AM 11.45 52.61 0.251 8.07 8.39 9.2
11/10/2020 2:15:00 AM 11.44 52.592 0.251 7.87 8.98 9.2
11/10/2020 2:30:00 AM 11.43 52.574 0.25 7.95 7.49 9.2
11/10/2020 2:45:00 AM 11.43 52.574 0.25 7.87 7.1 9.2
11/10/2020 3:00:00 AM 11.43 52.574 0.249 7.94 7.61 9.19
11/10/2020 3:15:00 AM 11.44 52.592 0.248 7.87 7.74 9.17
11/10/2020 3:30:00 AM 11.44 52.592 0.248 7.87 6.99 9.17
11/10/2020 3:45:00 AM 11.43 52.574 0.249 7.85 10.58 9.2
11/10/2020 4:00:00 AM 11.42 52.556 0.25 7.84 7.95 9.2
11/10/2020 4:15:00 AM 11.41 52.538 0.25 7.91 7.49 9.22
11/10/2020 4:30:00 AM 11.4 52.52 0.25 7.83 6.6 9.22
11/10/2020 4:45:00 AM 11.39 52.502 0.25 7.83 7.06 9.24
11/10/2020 5:00:00 AM 11.37 52.466 0.249 8.03 6.49 9.25
11/10/2020 5:15:00 AM 11.36 52.448 0.249 8 6.88 9.26
11/10/2020 5:30:00 AM 11.36 52.448 0.248 7.88 6.73 9.26
11/10/2020 5:45:00 AM 11.36 52.448 0.248 7.83 8.11 9.26
11/10/2020 6:00:00 AM 11.35 52.43 0.248 7.82 7.55 9.26
11/10/2020 6:15:00 AM 11.33 52.394 0.249 7.84 5.5 9.28
11/10/2020 6:30:00 AM 11.31 52.358 0.25 7.85 6.84 9.3
11/10/2020 6:45:00 AM 11.29 52.322 0.25 7.88 6.83 9.31
11/10/2020 7:00:00 AM 11.27 52.286 0.25 7.83 6.14 9.32
11/10/2020 7:15:00 AM 11.26 52.268 0.249 7.83 6.2 9.36
11/10/2020 7:30:00 AM 11.26 52.268 0.249 7.82 5.77 9.4
11/10/2020 7:45:00 AM 11.27 52.286 0.248 7.82 5.01 9.48
11/10/2020 8:00:00 AM 11.28 52.304 0.247 7.84 5.97 9.57
11/10/2020 8:15:00 AM 11.32 52.376 0.247 7.84 5.67 9.67
11/10/2020 8:30:00 AM 11.37 52.466 0.247 7.83 5.06 9.83
11/10/2020 8:45:00 AM 11.43 52.574 0.248 7.82 5.86 10.03
11/10/2020 9:00:00 AM 11.51 52.718 0.249 7.84 5.91 10.25
11/10/2020 9:15:00 AM 11.63 52.934 0.248 7.86 5.41 10.45
11/10/2020 9:30:00 AM 11.73 53.114 0.247 7.88 4.31 10.65
11/10/2020 9:45:00 AM 11.86 53.348 0.247 7.89 4.61 10.82
11/10/2020 10:00:00 AM 11.99 53.582 0.247 7.92 4.98 11
11/10/2020 10:15:00 AM 12.14 53.852 0.246 7.95 5.21 11.12
11/10/2020 10:30:00 AM 12.31 54.158 0.246 7.97 5.13 11.21
11/10/2020 10:45:00 AM 12.44 54.392 0.246 7.99 4.67 11.32
11/10/2020 11:00:00 AM 12.6 54.68 0.247 8 4.16 11.4
11/10/2020 11:15:00 AM 12.77 54.986 0.247 8.03 4.49 11.54
11/10/2020 11:30:00 AM 12.95 55.31 0.248 8.06 5.66 11.65
11/10/2020 11:45:00 AM 13.13 55.634 0.248 8.1 4.1 11.77
11/10/2020 12:00:00 PM 13.25 55.85 0.247 8.14 4.47 11.81
11/10/2020 12:15:00 PM 13.42 56.156 0.247 8.18 4.02 11.88
11/10/2020 12:30:00 PM 13.53 56.354 0.247 8.21 5.62 11.93
11/10/2020 12:45:00 PM 13.57 56.426 0.246 8.22 5.99 11.9
11/10/2020 1:00:00 PM 13.61 56.498 0.246 8.25 5.27 11.87
11/10/2020 1:15:00 PM 13.7 56.66 0.246 8.26 7.17 11.86
11/10/2020 1:30:00 PM 13.78 56.804 0.247 8.3 6.37 11.93
11/10/2020 1:45:00 PM 13.86 56.948 0.248 8.32 4.76 11.96
11/10/2020 2:00:00 PM 13.92 57.056 0.248 8.35 4.44 11.96
11/10/2020 2:15:00 PM 13.98 57.164 0.248 8.36 4.91 11.92
11/10/2020 2:30:00 PM 13.99 57.182 0.247 8.38 4.28 11.83
11/10/2020 2:45:00 PM 14.01 57.218 0.247 8.39 4.32 11.7
11/10/2020 3:00:00 PM 14.01 57.218 0.247 8.39 4.57 11.61
11/10/2020 3:15:00 PM 14 57.2 0.246 8.39 4.85 11.45
11/10/2020 3:30:00 PM 13.96 57.128 0.247 8.39 4.71 11.26
11/10/2020 3:45:00 PM 13.93 57.074 0.248 8.36 5.23 11.04
11/10/2020 4:00:00 PM 13.9 57.02 0.249 8.33 4.52 10.87
11/10/2020 4:15:00 PM 13.86 56.948 0.25 8.3 5.32 10.68
11/10/2020 4:30:00 PM 13.82 56.876 0.25 8.26 5.96 10.5
11/10/2020 4:45:00 PM 13.77 56.786 0.25 8.24 4.09 10.34
11/10/2020 5:00:00 PM 13.71 56.678 0.25 8.18 7.89 10.15
11/10/2020 5:15:00 PM 13.66 56.588 0.25 8.16 5.31 9.97
11/10/2020 5:30:00 PM 13.59 56.462 0.249 8.13 5.85 9.8
11/10/2020 5:45:00 PM 13.52 56.336 0.249 8.08 5.75 9.64
11/10/2020 6:00:00 PM 13.46 56.228 0.249 8.02 5.61 9.52
11/10/2020 6:15:00 PM 13.4 56.12 0.25 8.01 6.18 9.43
11/10/2020 6:30:00 PM 13.35 56.03 0.251 7.86 6.5 9.34
11/10/2020 6:45:00 PM 13.31 55.958 0.252 7.97 6.82 9.28
11/10/2020 7:00:00 PM 13.25 55.85 0.252 7.95 4.78 9.22
11/10/2020 7:15:00 PM 13.2 55.76 0.251 7.93 5.77 9.18
11/10/2020 7:30:00 PM 13.14 55.652 0.251 7.94 5.84 9.13
11/10/2020 7:45:00 PM 13.08 55.544 0.25 7.9 7.43 9.1
11/10/2020 8:00:00 PM 13.02 55.436 0.25 7.89 6.14 9.06
11/10/2020 8:15:00 PM 12.97 55.346 0.249 7.91 6.3 9.02
11/10/2020 8:30:00 PM 12.93 55.274 0.25 7.88 6.95 8.99
11/10/2020 8:45:00 PM 12.89 55.202 0.251 7.87 6.58 8.97
11/10/2020 9:00:00 PM 12.85 55.13 0.252 7.86 7.59 8.94
11/10/2020 9:15:00 PM 12.81 55.058 0.252 7.84 7.64 8.96
11/10/2020 9:30:00 PM 12.77 54.986 0.251 7.84 6.99 8.96
11/10/2020 9:45:00 PM 12.73 54.914 0.251 7.83 7.52 8.97
11/10/2020 10:00:00 PM 12.7 54.86 0.25 7.82 7.73 8.97
11/10/2020 10:15:00 PM 12.68 54.824 0.249 7.78 6.84 8.98
11/10/2020 10:30:00 PM 12.67 54.806 0.249 7.78 9.86 8.99
11/10/2020 10:45:00 PM 12.65 54.77 0.248 7.79 6.69 8.98
11/10/2020 11:00:00 PM 12.65 54.77 0.249 7.78 7.76 8.98
11/10/2020 11:15:00 PM 12.65 54.77 0.25 7.79 9.63 8.97
11/10/2020 11:30:00 PM 12.65 54.77 0.251 7.77 7.83 8.95
11/10/2020 11:45:00 PM 12.65 54.77 0.251 7.77 7.12 8.94
11/11/2020 12:00:00 AM 12.64 54.752 0.25 7.77 7.32 8.93
11/11/2020 12:15:00 AM 12.63 54.734 0.249 7.78 7.55 8.9
11/11/2020 12:30:00 AM 12.62 54.716 0.249 7.76 9.81 8.9
11/11/2020 12:45:00 AM 12.62 54.716 0.248 7.75 7.16 8.86
11/11/2020 1:00:00 AM 12.62 54.716 0.248 7.75 8.25 8.82
11/11/2020 1:15:00 AM 12.63 54.734 0.248 7.74 10.65 8.8
11/11/2020 1:30:00 AM 12.64 54.752 0.249 7.74 7.46 8.79
11/11/2020 1:45:00 AM 12.65 54.77 0.25 7.74 7.76 8.79
11/11/2020 2:00:00 AM 12.65 54.77 0.251 7.7 8.35 8.79
11/11/2020 2:15:00 AM 12.66 54.788 0.25 7.75 7.69 8.79
11/11/2020 2:30:00 AM 12.68 54.824 0.25 7.75 10.57 8.78
11/11/2020 2:45:00 AM 12.69 54.842 0.249 7.74 7.95 8.79
11/11/2020 3:00:00 AM 12.7 54.86 0.248 7.75 9.34 8.79
11/11/2020 3:15:00 AM 12.71 54.878 0.248 7.74 7 8.79
11/11/2020 3:30:00 AM 12.75 54.95 0.247 7.74 8.09 8.77
11/11/2020 3:45:00 AM 12.78 55.004 0.248 7.74 7.08 8.77
11/11/2020 4:00:00 AM 12.83 55.094 0.249 7.74 9.65 8.76
11/11/2020 4:15:00 AM 12.88 55.184 0.25 7.74 7.08 8.75
11/11/2020 4:30:00 AM 12.94 55.292 0.25 7.73 7.57 8.74
11/11/2020 4:45:00 AM 12.99 55.382 0.25 7.72 6.01 8.73
11/11/2020 5:00:00 AM 13.05 55.49 0.25 7.7 8.7 8.73
11/11/2020 5:15:00 AM 13.1 55.58 0.249 7.71 12.94 8.72
11/11/2020 5:30:00 AM 13.14 55.652 0.248 7.71 7.29 8.71
11/11/2020 5:45:00 AM 13.18 55.724 0.247 7.71 7.52 8.7
11/11/2020 6:00:00 AM 13.23 55.814 0.247 7.71 7.23 8.69
11/11/2020 6:15:00 AM 13.27 55.886 0.248 7.7 7.83 8.7
11/11/2020 6:30:00 AM 13.29 55.922 0.249 7.67 9.95 8.69
11/11/2020 6:45:00 AM 13.32 55.976 0.249 7.7 8.92 8.69
11/11/2020 7:00:00 AM 13.35 56.03 0.249 7.71 6.21 8.68
11/11/2020 7:15:00 AM 13.39 56.102 0.248 7.68 6.23 8.69
11/11/2020 7:30:00 AM 13.42 56.156 0.248 7.71 7.02 8.74
11/11/2020 7:45:00 AM 13.45 56.21 0.247 7.72 5.34 8.78
11/11/2020 8:00:00 AM 13.48 56.264 0.247 7.73 6.11 8.82
11/11/2020 8:15:00 AM 13.51 56.318 0.246 7.74 5.18 8.85
11/11/2020 8:30:00 AM 13.54 56.372 0.247 7.73 6.36 8.89
11/11/2020 8:45:00 AM 13.58 56.444 0.247 7.73 5 8.91
11/11/2020 9:00:00 AM 13.62 56.516 0.248 7.73 5.27 8.99
11/11/2020 9:15:00 AM 13.65 56.57 0.248 7.74 6.08 9.07
11/11/2020 9:30:00 AM 13.68 56.624 0.248 7.76 4.29 9.16
11/11/2020 9:45:00 AM 13.72 56.696 0.247 7.72 4.62 9.22
11/11/2020 10:00:00 AM 13.75 56.75 0.247 7.66 5.5 9.27
11/11/2020 10:15:00 AM 13.79 56.822 0.246 7.75 5.43 9.33
11/11/2020 10:30:00 AM 13.82 56.876 0.246 7.78 4.89 9.4
11/11/2020 10:45:00 AM 13.84 56.912 0.245 7.79 4.09 9.45
11/11/2020 11:00:00 AM 13.88 56.984 0.246 7.79 4.77 9.55
11/11/2020 11:15:00 AM 13.92 57.056 0.247 7.81 5.51 9.63
11/11/2020 11:30:00 AM 13.96 57.128 0.247 7.83 3.97 9.69
11/11/2020 11:45:00 AM 13.99 57.182 0.246 7.85 3.66 9.7
11/11/2020 12:00:00 PM 14.02 57.236 0.246 7.84 4.04 9.73
11/11/2020 12:15:00 PM 14.04 57.272 0.245 7.86 4.53 9.71
11/11/2020 12:30:00 PM 14.07 57.326 0.245 7.86 4.96 9.72
11/11/2020 12:45:00 PM 14.09 57.362 0.244 7.88 4.94 9.72
11/11/2020 1:00:00 PM 14.11 57.398 0.244 7.87 5.28 9.68
11/11/2020 1:15:00 PM 14.14 57.452 0.245 7.87 5.98 9.68
11/11/2020 1:30:00 PM 14.16 57.488 0.245 7.88 5.01 9.64
11/11/2020 1:45:00 PM 14.19 57.542 0.246 7.89 4.65 9.62
11/11/2020 2:00:00 PM 14.2 57.56 0.246 7.89 5.24 9.58
11/11/2020 2:15:00 PM 14.21 57.578 0.246 7.88 4.59 9.55
11/11/2020 2:30:00 PM 14.24 57.632 0.245 7.88 4.15 9.54
11/11/2020 2:45:00 PM 14.27 57.686 0.244 7.89 4.51 9.52
11/11/2020 3:00:00 PM 14.28 57.704 0.243 7.88 5.08 9.48
11/11/2020 3:15:00 PM 14.28 57.704 0.242 7.89 5.29 9.42
11/11/2020 3:30:00 PM 14.3 57.74 0.242 7.87 4.66 9.34
11/11/2020 3:45:00 PM 14.35 57.83 0.242 7.87 4.95 9.3
11/11/2020 4:00:00 PM 14.37 57.866 0.242 7.87 5.82 9.24
11/11/2020 4:15:00 PM 14.38 57.884 0.242 7.86 5.7 9.18
11/11/2020 4:30:00 PM 14.37 57.866 0.242 7.85 6.39 9.12
11/11/2020 4:45:00 PM 14.37 57.866 0.241 7.84 6.92 9.05
11/11/2020 5:00:00 PM 14.38 57.884 0.239 7.84 8.02 8.98
11/11/2020 5:15:00 PM 14.36 57.848 0.238 7.83 12.08 8.9
11/11/2020 5:30:00 PM 14.36 57.848 0.241 7.8 11.06 8.79
11/11/2020 5:45:00 PM 14.4 57.92 0.245 7.79 23.51 8.68
11/11/2020 6:00:00 PM 14.48 58.064 0.252 7.78 35.6 8.61
11/11/2020 6:15:00 PM 14.59 58.262 0.257 7.77 47.56 8.58
11/11/2020 6:30:00 PM 14.64 58.352 0.255 7.76 45.4 8.56
11/11/2020 6:45:00 PM 14.65 58.37 0.251 7.75 36.69 8.53
11/11/2020 7:00:00 PM 14.65 58.37 0.249 7.47 36.9 8.51
11/11/2020 7:15:00 PM 14.64 58.352 0.247 7.71 41.69 8.52
11/11/2020 7:30:00 PM 14.62 58.316 0.246 7.71 31.1 8.52
11/11/2020 7:45:00 PM 14.6 58.28 0.244 7.72 26.82 8.53
11/11/2020 8:00:00 PM 14.56 58.208 0.242 7.7 29.09 8.52
11/11/2020 8:15:00 PM 14.54 58.172 0.24 7.71 22.18 8.5
11/11/2020 8:30:00 PM 14.52 58.136 0.239 7.71 21.57 8.48
11/11/2020 8:45:00 PM 14.52 58.136 0.238 7.7 21.14 8.49
11/11/2020 9:00:00 PM 14.51 58.118 0.238 7.7 18.33 8.49
11/11/2020 9:15:00 PM 14.5 58.1 0.237 7.69 20.78 8.49
11/11/2020 9:30:00 PM 14.48 58.064 0.237 7.69 18.96 8.48
11/11/2020 9:45:00 PM 14.48 58.064 0.229 7.69 23.19 8.48
11/11/2020 10:00:00 PM 14.47 58.046 0.232 7.69 17.6 8.49
11/11/2020 10:15:00 PM 14.47 58.046 0.233 7.68 21.45 8.48
11/11/2020 10:30:00 PM 14.47 58.046 0.234 7.69 39.06 8.5
11/11/2020 10:45:00 PM 14.48 58.064 0.238 7.69 22.85 8.5
11/11/2020 11:00:00 PM 14.49 58.082 0.239 7.69 26.58 8.54
11/11/2020 11:15:00 PM 14.5 58.1 0.24 7.69 29.73 8.55
11/11/2020 11:30:00 PM 14.52 58.136 0.24 7.68 31.37 8.57
11/11/2020 11:45:00 PM 14.56 58.208 0.233 7.66 31.61 8.6
11/12/2020 12:00:00 AM 14.59 58.262 0.241 7.68 39.79 8.63
11/12/2020 12:15:00 AM 14.62 58.316 0.242 7.69 41.89 8.65
11/12/2020 12:30:00 AM 14.64 58.352 0.242 7.7 41.47 8.66
11/12/2020 12:45:00 AM 14.66 58.388 0.241 7.7 48.87 8.7
11/12/2020 1:00:00 AM 14.69 58.442 0.24 7.7 46.5 8.72
11/12/2020 1:15:00 AM 14.71 58.478 0.24 7.68 52.56 8.72
11/12/2020 1:30:00 AM 14.73 58.514 0.239 7.71 60.74 8.73
11/12/2020 1:45:00 AM 14.72 58.496 0.239 7.69 46.84 8.74
11/12/2020 2:00:00 AM 14.72 58.496 0.239 7.71 60.29 8.75
11/12/2020 2:15:00 AM 14.71 58.478 0.239 7.71 51.93 8.75
11/12/2020 2:30:00 AM 14.7 58.46 0.239 7.71 61.09 8.77
11/12/2020 2:45:00 AM 14.68 58.424 0.239 7.72 55.82 8.78
11/12/2020 3:00:00 AM 14.68 58.424 0.239 7.73 59.56 8.77
11/12/2020 3:15:00 AM 14.68 58.424 0.239 7.72 59.1 8.77
11/12/2020 3:30:00 AM 14.68 58.424 0.239 7.72 48.24 8.77
11/12/2020 3:45:00 AM 14.68 58.424 0.239 7.72 48.51 8.77
11/12/2020 4:00:00 AM 14.68 58.424 0.239 7.72 44.22 8.75
11/12/2020 4:15:00 AM 14.68 58.424 0.238 7.7 50.24 8.74
11/12/2020 4:30:00 AM 14.7 58.46 0.238 7.72 44.26 8.74
11/12/2020 4:45:00 AM 14.72 58.496 0.237 7.71 42.13 8.72
11/12/2020 5:00:00 AM 14.73 58.514 0.237 7.72 42.96 8.72
11/12/2020 5:15:00 AM 14.75 58.55 0.236 7.73 39.19 8.72
11/12/2020 5:30:00 AM 14.76 58.568 0.234 7.72 44.53 8.72
11/12/2020 5:45:00 AM 14.78 58.604 0.232 7.71 39.45 8.73
11/12/2020 6:00:00 AM 14.8 58.64 0.23 7.72 38.5 8.73
11/12/2020 6:15:00 AM 14.78 58.604 0.229 7.7 34.64 8.73
11/12/2020 6:30:00 AM 14.77 58.586 0.228 7.69 42.44 8.71
11/12/2020 6:45:00 AM 14.76 58.568 0.226 7.71 33.3 8.72
11/12/2020 7:00:00 AM 14.76 58.568 0.225 7.7 34.22 8.72
11/12/2020 7:15:00 AM 14.75 58.55 0.225 7.7 31.96 8.72
11/12/2020 7:30:00 AM 14.74 58.532 0.225 7.72 34.33 8.71
11/12/2020 7:45:00 AM 14.71 58.478 0.225 7.72 28.16 8.72
11/12/2020 8:00:00 AM 14.67 58.406 0.226 7.72 30.45 8.72
11/12/2020 8:15:00 AM 14.66 58.388 0.226 7.73 30.97 8.72
11/12/2020 8:30:00 AM 14.64 58.352 0.227 7.73 27.01 8.74
11/12/2020 8:45:00 AM 14.63 58.334 0.227 7.73 33.8 8.77
11/12/2020 9:00:00 AM 14.61 58.298 0.228 7.73 31.31 8.79
11/12/2020 9:15:00 AM 14.59 58.262 0.228 7.72 27.99 8.79
11/12/2020 9:30:00 AM 14.58 58.244 0.228 7.72 25.11 8.81
11/12/2020 9:45:00 AM 14.56 58.208 0.228 7.72 25.9 8.84
11/12/2020 10:00:00 AM 14.52 58.136 0.227 7.72 29.02 8.84
11/12/2020 10:15:00 AM 14.49 58.082 0.227 7.73 25.89 8.84
11/12/2020 10:30:00 AM 14.46 58.028 0.227 7.74 25.94 8.85
11/12/2020 10:45:00 AM 14.42 57.956 0.226 7.74 24.4 8.87
11/12/2020 11:00:00 AM 14.39 57.902 0.226 7.48 24.52 8.89
11/12/2020 11:15:00 AM 14.37 57.866 0.226 7.29 25.19 8.92
11/12/2020 11:30:00 AM 14.35 57.83 0.227 7.54 25.86 8.95
11/12/2020 11:45:00 AM 14.33 57.794 0.226 7.54 27.27 8.96
11/12/2020 12:00:00 PM 14.32 57.776 0.226 7.25 30.21 8.98
11/12/2020 12:15:00 PM 14.3 57.74 0.226 7.1 28.32 9
11/12/2020 12:30:00 PM 14.29 57.722 0.225 6.66 31.36 9.04
11/12/2020 12:45:00 PM 14.26 57.668 0.224 6.1 25.89 9.05
11/12/2020 1:00:00 PM 14.23 57.614 0.222 6.49 30.85 9.08
11/12/2020 1:15:00 PM 14.18 57.524 0.221 6.4 31.94 9.08
11/12/2020 1:30:00 PM 14.17 57.506 0.22 6.41 28.24 9.11
11/12/2020 1:45:00 PM 14.13 57.434 0.22 7.27 31.71 9.13
11/12/2020 2:00:00 PM 14.1 57.38 0.219 7.65 27.5 9.15
11/12/2020 2:15:00 PM 14.09 57.362 0.218 7.7 28.01 9.2
11/12/2020 2:30:00 PM 14.05 57.29 0.219 7.73 27.26 9.19
11/12/2020 2:45:00 PM 14.02 57.236 0.218 7.74 30.21 9.19
11/12/2020 3:00:00 PM 13.99 57.182 0.218 7.74 25.58 9.18
11/12/2020 3:15:00 PM 13.94 57.092 0.219 7.74 38.34 9.15
11/12/2020 3:30:00 PM 13.92 57.056 0.219 7.74 29.77 9.11
11/12/2020 3:45:00 PM 13.87 56.966 0.219 7.74 29.92 9.1
11/12/2020 4:00:00 PM 13.82 56.876 0.219 7.74 26.32 9.08
11/12/2020 4:15:00 PM 13.77 56.786 0.219 7.73 29.08 9.06
11/12/2020 4:30:00 PM 13.72 56.696 0.219 7.73 27.31 9.04
11/12/2020 4:45:00 PM 13.68 56.624 0.22 7.71 26.7 9.02
11/12/2020 5:00:00 PM 13.64 56.552 0.221 7.7 28.61 9.03
11/12/2020 5:15:00 PM 13.59 56.462 0.221 7.72 31.99 9.03
11/12/2020 5:30:00 PM 13.55 56.39 0.222 7.72 30.92 9.01
11/12/2020 5:45:00 PM 13.5 56.3 0.223 7.72 25.3 9.02
11/12/2020 6:00:00 PM 13.46 56.228 0.224 7.72 26.14 9.02
11/12/2020 6:15:00 PM 13.42 56.156 0.224 7.71 25.54 9.03
11/12/2020 6:30:00 PM 13.39 56.102 0.225 7.72 25.23 9.05
11/12/2020 6:45:00 PM 13.35 56.03 0.225 7.72 26.58 9.04
11/12/2020 7:00:00 PM 13.3 55.94 0.226 7.73 25.58 9.04
11/12/2020 7:15:00 PM 13.27 55.886 0.227 7.7 25.32 9.06
11/12/2020 7:30:00 PM 13.22 55.796 0.228 7.72 28.33 9.05
11/12/2020 7:45:00 PM 13.18 55.724 0.229 7.72 26.57 9.06
11/12/2020 8:00:00 PM 13.13 55.634 0.23 7.72 28.39 9.06
11/12/2020 8:15:00 PM 13.09 55.562 0.231 7.72 30.78 9.07
11/12/2020 8:30:00 PM 13.05 55.49 0.232 7.72 24.3 9.07
11/12/2020 8:45:00 PM 13.01 55.418 0.232 7.71 26.98 9.08
11/12/2020 9:00:00 PM 12.98 55.364 0.232 7.71 26.59 9.08
11/12/2020 9:15:00 PM 12.92 55.256 0.233 7.72 30.26 9.07
11/12/2020 9:30:00 PM 12.85 55.13 0.233 7.73 24.1 9.07
11/12/2020 9:45:00 PM 12.79 55.022 0.234 7.7 24.73 9.08
11/12/2020 10:00:00 PM 12.74 54.932 0.234 7.7 22.97 9.09
11/12/2020 10:15:00 PM 12.67 54.806 0.235 7.72 23.87 9.1
11/12/2020 10:30:00 PM 12.61 54.698 0.235 7.72 24.72 9.12
11/12/2020 10:45:00 PM 12.57 54.626 0.235 7.71 26.46 9.11
11/12/2020 11:00:00 PM 12.54 54.572 0.235 7.72 26.2 9.14
11/12/2020 11:15:00 PM 12.52 54.536 0.235 7.71 25.58 9.13
11/12/2020 11:30:00 PM 12.48 54.464 0.235 7.72 25.76 9.13
11/12/2020 11:45:00 PM 12.45 54.41 0.235 7.7 24.24 9.13
11/13/2020 12:00:00 AM 12.43 54.374 0.234 7.72 22.3 9.13
11/13/2020 12:15:00 AM 12.4 54.32 0.235 7.73 21.15 9.15
11/13/2020 12:30:00 AM 12.38 54.284 0.235 7.71 24.27 9.17
11/13/2020 12:45:00 AM 12.36 54.248 0.235 7.72 21.21 9.19
11/13/2020 1:00:00 AM 12.34 54.212 0.235 7.73 25 9.21
11/13/2020 1:15:00 AM 12.32 54.176 0.235 7.62 22.72 9.22
11/13/2020 1:30:00 AM 12.3 54.14 0.235 7.69 20.25 9.23
11/13/2020 1:45:00 AM 12.28 54.104 0.235 7.71 20.77 9.24
11/13/2020 2:00:00 AM 12.25 54.05 0.235 7.72 32.91 9.25
11/13/2020 2:15:00 AM 12.22 53.996 0.234 7.72 26.36 9.23
11/13/2020 2:30:00 AM 12.2 53.96 0.235 7.73 24.25 9.23
11/13/2020 2:45:00 AM 12.17 53.906 0.235 7.74 24.15 9.24
11/13/2020 3:00:00 AM 12.15 53.87 0.236 7.73 35.69 9.24
11/13/2020 3:15:00 AM 12.13 53.834 0.235 7.73 21.63 9.25
11/13/2020 3:30:00 AM 12.11 53.798 0.236 7.71 19.66 9.27
11/13/2020 3:45:00 AM 12.08 53.744 0.235 7.73 20.47 9.28
11/13/2020 4:00:00 AM 12.06 53.708 0.235 7.73 19.74 9.29
11/13/2020 4:15:00 AM 12.04 53.672 0.235 7.73 22.87 9.3
11/13/2020 4:30:00 AM 12.02 53.636 0.235 7.73 21.31 9.29
11/13/2020 4:45:00 AM 12 53.6 0.234 7.74 21.54 9.29
11/13/2020 5:00:00 AM 11.98 53.564 0.234 7.72 22.28 9.29
11/13/2020 5:15:00 AM 11.96 53.528 0.235 7.73 18.17 9.3
11/13/2020 5:30:00 AM 11.93 53.474 0.235 7.73 21.33 9.32
11/13/2020 5:45:00 AM 11.91 53.438 0.235 7.73 19.15 9.33
11/13/2020 6:00:00 AM 11.88 53.384 0.235 7.74 18.65 9.34
11/13/2020 6:15:00 AM 11.86 53.348 0.235 7.74 19.93 9.35
11/13/2020 6:30:00 AM 11.83 53.294 0.234 7.75 15.66 9.36
11/13/2020 6:45:00 AM 11.82 53.276 0.235 7.72 18.24 9.35
11/13/2020 7:00:00 AM 11.8 53.24 0.234 7.73 21.74 9.33
11/13/2020 7:15:00 AM 11.78 53.204 0.235 7.73 21.31 9.34
11/13/2020 7:30:00 AM 11.77 53.186 0.235 7.74 16.73 9.35
11/13/2020 7:45:00 AM 11.75 53.15 0.228 7.73 13.95 9.38
11/13/2020 8:00:00 AM 11.74 53.132 0.236 7.73 12.25 9.43
11/13/2020 8:15:00 AM 11.74 53.132 0.236 7.74 13.83 9.49
11/13/2020 8:30:00 AM 11.73 53.114 0.235 7.74 13.58 9.53
11/13/2020 8:45:00 AM 11.72 53.096 0.234 7.74 12.66 9.55
11/13/2020 9:00:00 AM 11.72 53.096 0.235 7.75 10.53 9.59
11/13/2020 9:15:00 AM 11.76 53.168 0.235 7.75 9.95 9.67
11/13/2020 9:30:00 AM 11.79 53.222 0.235 7.75 9.83 9.74
11/13/2020 9:45:00 AM 11.84 53.312 0.235 7.75 7.99 9.85
11/13/2020 10:00:00 AM 11.89 53.402 0.236 7.74 7.89 9.98
11/13/2020 10:15:00 AM 11.95 53.51 0.236 7.72 7.84 10.12
11/13/2020 10:30:00 AM 12 53.6 0.236 7.64 8.28 10.24
11/13/2020 10:45:00 AM 12.07 53.726 0.236 7.45 7.79 10.35
11/13/2020 11:00:00 AM 12.19 53.942 0.236 7.37 8.81 10.42
11/13/2020 11:15:00 AM 12.3 54.14 0.236 7.63 7.26 10.52
11/13/2020 11:30:00 AM 12.38 54.284 0.235 7.71 6.85 10.57
11/13/2020 11:45:00 AM 12.48 54.464 0.235 7.73 6.19 10.63
11/13/2020 12:00:00 PM 12.58 54.644 0.236 7.77 7.44 10.67
11/13/2020 12:15:00 PM 12.65 54.77 0.236 7.78 6.89 10.69
11/13/2020 12:30:00 PM 12.69 54.842 0.237 7.81 7.45 10.74
11/13/2020 12:45:00 PM 12.74 54.932 0.237 7.82 6.63 10.76
11/13/2020 1:00:00 PM 12.8 55.04 0.237 7.84 7.85 10.78
11/13/2020 1:15:00 PM 12.81 55.058 0.238 7.85 6.66 10.77
11/13/2020 1:30:00 PM 12.85 55.13 0.237 7.86 9.11 10.78
11/13/2020 1:45:00 PM 12.9 55.22 0.238 7.86 6.67 10.79
11/13/2020 2:00:00 PM 12.91 55.238 0.237 7.88 6.74 10.78
11/13/2020 2:15:00 PM 12.92 55.256 0.238 7.89 6.45 10.73
11/13/2020 2:30:00 PM 12.92 55.256 0.238 7.9 6.37 10.7
11/13/2020 2:45:00 PM 12.92 55.256 0.238 7.9 5.95 10.64
11/13/2020 3:00:00 PM 12.88 55.184 0.237 7.91 6.25 10.58
11/13/2020 3:15:00 PM 12.84 55.112 0.238 7.89 6.87 10.5
11/13/2020 3:30:00 PM 12.79 55.022 0.238 7.89 6.73 10.39
11/13/2020 3:45:00 PM 12.74 54.932 0.239 7.9 7.72 10.28
11/13/2020 4:00:00 PM 12.69 54.842 0.239 7.87 6.09 10.18
11/13/2020 4:15:00 PM 12.64 54.752 0.24 7.87 7.93 10.09
11/13/2020 4:30:00 PM 12.59 54.662 0.242 7.86 6.43 10
11/13/2020 4:45:00 PM 12.54 54.572 0.241 7.85 7.49 9.93
11/13/2020 5:00:00 PM 12.48 54.464 0.241 7.85 11.14 9.86
11/13/2020 5:15:00 PM 12.41 54.338 0.242 7.84 8.15 9.8
11/13/2020 5:30:00 PM 12.35 54.23 0.243 7.83 7.45 9.75
11/13/2020 5:45:00 PM 12.27 54.086 0.242 7.83 7.05 9.71
11/13/2020 6:00:00 PM 12.2 53.96 0.243 7.82 7.48 9.65
11/13/2020 6:15:00 PM 12.12 53.816 0.24 7.81 8.06 9.59
11/13/2020 6:30:00 PM 12.05 53.69 0.235 7.8 8.09 9.56
11/13/2020 6:45:00 PM 11.98 53.564 0.244 7.8 8.55 9.53
11/13/2020 7:00:00 PM 11.91 53.438 0.244 7.79 9.13 9.53
11/13/2020 7:15:00 PM 11.85 53.33 0.245 7.78 12.99 9.52
11/13/2020 7:30:00 PM 11.78 53.204 0.245 7.78 7.68 9.53
11/13/2020 7:45:00 PM 11.73 53.114 0.246 7.78 9.47 9.53
11/13/2020 8:00:00 PM 11.68 53.024 0.244 7.79 11.71 9.55
11/13/2020 8:15:00 PM 11.63 52.934 0.234 7.78 12.79 9.56
11/13/2020 8:30:00 PM 11.59 52.862 0.246 7.77 9.52 9.57
11/13/2020 8:45:00 PM 11.56 52.808 0.244 7.78 8.06 9.56
11/13/2020 9:00:00 PM 11.52 52.736 0.246 7.78 8.41 9.56
11/13/2020 9:15:00 PM 11.48 52.664 0.246 7.77 9.55 9.57
11/13/2020 9:30:00 PM 11.44 52.592 0.246 7.78 8.46 9.54
11/13/2020 9:45:00 PM 11.4 52.52 0.246 7.75 12.41 9.54
11/13/2020 10:00:00 PM 11.38 52.484 0.246 7.76 13.09 9.49
11/13/2020 10:15:00 PM 11.35 52.43 0.246 7.77 11.78 9.49
11/13/2020 10:30:00 PM 11.32 52.376 0.245 7.76 11.59 9.49
11/13/2020 10:45:00 PM 11.29 52.322 0.245 7.74 15.33 9.49
11/13/2020 11:00:00 PM 11.26 52.268 0.245 7.74 8.87 9.5
11/13/2020 11:15:00 PM 11.23 52.214 0.243 7.75 10.52 9.49
11/13/2020 11:30:00 PM 11.2 52.16 0.246 7.75 10.29 9.5
11/13/2020 11:45:00 PM 11.16 52.088 0.247 7.75 10.15 9.52
11/14/2020 12:00:00 AM 11.12 52.016 0.247 7.74 11.75 9.53
11/14/2020 12:15:00 AM 11.07 51.926 0.247 7.74 10.5 9.54
11/14/2020 12:30:00 AM 11.04 51.872 0.247 7.75 13.03 9.55
11/14/2020 12:45:00 AM 11.01 51.818 0.246 7.75 11.75 9.56
11/14/2020 1:00:00 AM 10.98 51.764 0.246 7.73 11.26 9.56
11/14/2020 1:15:00 AM 10.94 51.692 0.245 7.7 11.46 9.58
11/14/2020 1:30:00 AM 10.91 51.638 0.244 7.74 16.06 9.56
11/14/2020 1:45:00 AM 10.87 51.566 0.245 7.74 14.12 9.59
11/14/2020 2:00:00 AM 10.82 51.476 0.246 7.73 12.07 9.62
11/14/2020 2:15:00 AM 10.76 51.368 0.245 7.73 11.86 9.64
11/14/2020 2:30:00 AM 10.71 51.278 0.247 7.73 11.48 9.66
11/14/2020 2:45:00 AM 10.65 51.17 0.247 7.74 12.05 9.7
11/14/2020 3:00:00 AM 10.61 51.098 0.247 7.74 11.01 9.72
11/14/2020 3:15:00 AM 10.57 51.026 0.247 7.75 10.2 9.72
11/14/2020 3:30:00 AM 10.52 50.936 0.247 7.75 10.43 9.73
11/14/2020 3:45:00 AM 10.49 50.882 0.246 7.73 11.16 9.74
11/14/2020 4:00:00 AM 10.45 50.81 0.246 7.74 10.77 9.75
11/14/2020 4:15:00 AM 10.4 50.72 0.246 7.74 10.87 9.76
11/14/2020 4:30:00 AM 10.35 50.63 0.247 7.73 11.97 9.77
11/14/2020 4:45:00 AM 10.29 50.522 0.248 7.74 10.14 9.8
11/14/2020 5:00:00 AM 10.23 50.414 0.248 7.73 11.65 9.82
11/14/2020 5:15:00 AM 10.17 50.306 0.248 7.73 10.75 9.84
11/14/2020 5:30:00 AM 10.12 50.216 0.247 7.72 10.67 9.85
11/14/2020 5:45:00 AM 10.08 50.144 0.247 7.73 11.7 9.86
11/14/2020 6:00:00 AM 10.05 50.09 0.247 7.73 9.38 9.86
11/14/2020 6:15:00 AM 9.99 49.982 0.247 7.73 11 9.84
11/14/2020 6:30:00 AM 9.99 49.982 0.246 7.73 9.89 9.82
11/14/2020 6:45:00 AM 9.93 49.874 0.247 7.73 9.4 9.85
11/14/2020 7:00:00 AM 9.85 49.73 0.248 7.72 11.03 9.86
11/14/2020 7:15:00 AM 9.81 49.658 0.248 7.72 10.3 9.89
11/14/2020 7:30:00 AM 9.74 49.532 0.248 7.73 8.11 9.95
11/14/2020 7:45:00 AM 9.71 49.478 0.248 7.74 8.52 10.02
11/14/2020 8:00:00 AM 9.72 49.496 0.247 7.73 6.17 10.08
11/14/2020 8:15:00 AM 9.75 49.55 0.247 7.74 7.78 10.16
11/14/2020 8:30:00 AM 9.74 49.532 0.247 7.73 6.52 10.25
11/14/2020 8:45:00 AM 9.8 49.64 0.247 7.74 7.2 10.35
11/14/2020 9:00:00 AM 9.84 49.712 0.247 7.74 6.77 10.46
11/14/2020 9:15:00 AM 9.91 49.838 0.247 7.75 5.54 10.58
11/14/2020 9:30:00 AM 9.98 49.964 0.248 7.76 6.3 10.69
11/14/2020 9:45:00 AM 10.02 50.036 0.247 7.76 5.88 10.79
11/14/2020 10:00:00 AM 10.16 50.288 0.247 7.78 5.48 10.9
11/14/2020 10:15:00 AM 10.24 50.432 0.246 7.77 5.31 11
11/14/2020 10:30:00 AM 10.29 50.522 0.246 7.8 5.71 11.11
11/14/2020 10:45:00 AM 10.41 50.738 0.246 7.81 4.89 11.17
11/14/2020 11:00:00 AM 10.51 50.918 0.246 7.81 5.08 11.26
11/14/2020 11:15:00 AM 10.64 51.152 0.246 7.83 5.12 11.29
11/14/2020 11:30:00 AM 10.74 51.332 0.246 7.83 5.28 11.36
11/14/2020 11:45:00 AM 10.83 51.494 0.247 7.81 4.24 11.43
11/14/2020 12:00:00 PM 10.95 51.71 0.247 7.85 5.36 11.47
11/14/2020 12:15:00 PM 11.03 51.854 0.246 7.88 5.27 11.51
11/14/2020 12:30:00 PM 11.11 51.998 0.246 7.9 6.58 11.53
11/14/2020 12:45:00 PM 11.19 52.142 0.245 7.88 4.22 11.55
11/14/2020 1:00:00 PM 11.26 52.268 0.245 7.91 5.48 11.54
11/14/2020 1:15:00 PM 11.3 52.34 0.245 7.9 4.38 11.49
11/14/2020 1:30:00 PM 11.35 52.43 0.245 7.92 5.41 11.49
11/14/2020 1:45:00 PM 11.37 52.466 0.245 7.92 4.93 11.45
11/14/2020 2:00:00 PM 11.33 52.394 0.246 7.96 4.94 11.41
11/14/2020 2:15:00 PM 11.36 52.448 0.246 7.99 5.12 11.43
11/14/2020 2:30:00 PM 11.32 52.376 0.246 7.95 4.83 11.4
11/14/2020 2:45:00 PM 11.31 52.358 0.246 7.93 4.64 11.35
11/14/2020 3:00:00 PM 11.26 52.268 0.246 7.94 5 11.28
11/14/2020 3:15:00 PM 11.23 52.214 0.246 7.92 4.71 11.22
11/14/2020 3:30:00 PM 11.18 52.124 0.245 7.92 5.09 11.14
11/14/2020 3:45:00 PM 11.14 52.052 0.245 7.91 5.86 11.03
11/14/2020 4:00:00 PM 11.11 51.998 0.245 7.89 4.98 10.91
11/14/2020 4:15:00 PM 11.05 51.89 0.245 7.88 6.23 10.78
11/14/2020 4:30:00 PM 10.96 51.728 0.247 7.83 4.96 10.69
11/14/2020 4:45:00 PM 10.91 51.638 0.247 7.84 5.44 10.61
11/14/2020 5:00:00 PM 10.84 51.512 0.248 7.81 4.86 10.53
11/14/2020 5:15:00 PM 10.78 51.404 0.248 7.78 5.14 10.43
11/14/2020 5:30:00 PM 10.72 51.296 0.248 7.73 5.31 10.38
11/14/2020 5:45:00 PM 10.64 51.152 0.247 7.68 5.17 10.3
11/14/2020 6:00:00 PM 10.57 51.026 0.247 7.62 5.14 10.25
11/14/2020 6:15:00 PM 10.49 50.882 0.246 7.51 6.04 10.21
11/14/2020 6:30:00 PM 10.44 50.792 0.246 7.46 6.79 10.17
11/14/2020 6:45:00 PM 10.38 50.684 0.247 7.4 6 10.13
11/14/2020 7:00:00 PM 10.3 50.54 0.248 7.37 5.88 10.13
11/14/2020 7:15:00 PM 10.21 50.378 0.248 7.19 10.22 10.11
11/14/2020 7:30:00 PM 10.14 50.252 0.248 7.07 6.51 10.11
11/14/2020 7:45:00 PM 10.07 50.126 0.249 6.97 7.8 10.1
11/14/2020 8:00:00 PM 10 50 0.249 6.74 7.63 10.12
11/14/2020 8:15:00 PM 9.94 49.892 0.248 6.68 12.82 10.12
11/14/2020 8:30:00 PM 9.9 49.82 0.248 5.95 5.64 10.11
11/14/2020 8:45:00 PM 9.85 49.73 0.248 6.93 6.74 10.1
11/14/2020 9:00:00 PM 9.81 49.658 0.247 7 9.24 10.1
11/14/2020 9:15:00 PM 9.74 49.532 0.248 7.02 6.3 10.11
11/14/2020 9:30:00 PM 9.68 49.424 0.249 7.08 8.58 10.12
11/14/2020 9:45:00 PM 9.64 49.352 0.249 7.24 6.51 10.15
11/14/2020 10:00:00 PM 9.61 49.298 0.249 7.34 8.63 10.16
11/14/2020 10:15:00 PM 9.56 49.208 0.249 7.36 8.17 10.19
11/14/2020 10:30:00 PM 9.53 49.154 0.249 7.37 6.57 10.19
11/14/2020 10:45:00 PM 9.5 49.1 0.248 7.36 6.87 10.21
11/14/2020 11:00:00 PM 9.51 49.118 0.248 7.39 6.26 10.2
11/14/2020 11:15:00 PM 9.52 49.136 0.247 7.38 6.03 10.23
11/14/2020 11:30:00 PM 9.48 49.064 0.248 7.35 6.9 10.24
11/14/2020 11:45:00 PM 9.46 49.028 0.248 7.36 6.88 10.28
11/15/2020 12:00:00 AM 9.44 48.992 0.249 7.47 6.9 10.31
11/15/2020 12:15:00 AM 9.4 48.92 0.249 7.56 6.34 10.34
11/15/2020 12:30:00 AM 9.37 48.866 0.249 7.63 6.76 10.37
11/15/2020 12:45:00 AM 9.37 48.866 0.249 7.6 6.32 10.36
11/15/2020 1:00:00 AM 9.35 48.83 0.248 7.6 5.73 10.38
11/15/2020 1:15:00 AM 9.39 48.902 0.248 7.51 6.68 10.38
11/15/2020 1:30:00 AM 9.41 48.938 0.247 7.4 7.86 10.37
11/15/2020 1:45:00 AM 9.42 48.956 0.247 7.43 7.23 10.36
11/15/2020 2:00:00 AM 9.41 48.938 0.248 7.47 7.83 10.36
11/15/2020 2:15:00 AM 9.43 48.974 0.249 7.48 6.16 10.38
11/15/2020 2:30:00 AM 9.36 48.848 0.25 7.49 6.92 10.41
11/15/2020 2:45:00 AM 9.37 48.866 0.25 7.51 7.83 10.41
11/15/2020 3:00:00 AM 9.37 48.866 0.25 7.54 7.32 10.41
11/15/2020 3:15:00 AM 9.34 48.812 0.248 7.57 6.64 10.42
11/15/2020 3:30:00 AM 9.39 48.902 0.249 7.61 6.92 10.41
11/15/2020 3:45:00 AM 9.38 48.884 0.248 7.61 6.53 10.41
11/15/2020 4:00:00 AM 9.43 48.974 0.248 7.5 6.38 10.39
11/15/2020 4:15:00 AM 9.45 49.01 0.248 7.39 7.19 10.38
11/15/2020 4:30:00 AM 9.44 48.992 0.249 7.41 7.63 10.41
11/15/2020 4:45:00 AM 9.45 49.01 0.25 7.42 11.54 10.4
11/15/2020 5:00:00 AM 9.45 49.01 0.25 7.44 6.36 10.41
11/15/2020 5:15:00 AM 9.43 48.974 0.25 7.44 6.31 10.4
11/15/2020 5:30:00 AM 9.46 49.028 0.249 7.44 6.06 10.41
11/15/2020 5:45:00 AM 9.43 48.974 0.249 7.46 7.43 10.4
11/15/2020 6:00:00 AM 9.48 49.064 0.248 7.46 6.43 10.41
11/15/2020 6:15:00 AM 9.49 49.082 0.248 7.46 6.25 10.38
11/15/2020 6:30:00 AM 9.5 49.1 0.248 7.72 6.39 10.38
11/15/2020 6:45:00 AM 9.52 49.136 0.248 7.74 6.78 10.36
11/15/2020 7:00:00 AM 9.44 48.992 0.249 7.74 7.37 10.39
11/15/2020 7:15:00 AM 9.4 48.92 0.25 7.76 6.37 10.42
11/15/2020 7:30:00 AM 9.42 48.956 0.25 7.77 5.93 10.46
11/15/2020 7:45:00 AM 9.45 49.01 0.249 7.77 5.55 10.51
11/15/2020 8:00:00 AM 9.44 48.992 0.249 7.78 7.9 10.61
11/15/2020 8:15:00 AM 9.48 49.064 0.248 7.79 5.11 10.68
11/15/2020 8:30:00 AM 9.52 49.136 0.248 7.81 4.72 10.76
11/15/2020 8:45:00 AM 9.6 49.28 0.247 7.79 4.5 10.91
11/15/2020 9:00:00 AM 9.71 49.478 0.247 7.84 4.21 11.05
11/15/2020 9:15:00 AM 9.66 49.388 0.248 7.87 4.21 11.25
11/15/2020 9:30:00 AM 9.72 49.496 0.248 7.87 4.18 11.32
11/15/2020 9:45:00 AM 9.78 49.604 0.248 7.88 4.06 11.37
11/15/2020 10:00:00 AM 9.78 49.604 0.248 7.88 3.62 11.39
11/15/2020 10:15:00 AM 9.86 49.748 0.247 7.89 3.79 11.37
11/15/2020 10:30:00 AM 9.88 49.784 0.247 7.92 3.72 11.41
11/15/2020 10:45:00 AM 9.9 49.82 0.247 7.92 3.29 11.43
11/15/2020 11:00:00 AM 10 50 0.246 7.94 3.4 11.54
11/15/2020 11:15:00 AM 10.07 50.126 0.246 7.96 3.49 11.58
11/15/2020 11:30:00 AM 10.16 50.288 0.246 7.97 3.43 11.67
11/15/2020 11:45:00 AM 10.24 50.432 0.247 7.96 3.94 11.7
11/15/2020 12:00:00 PM 10.27 50.486 0.247 7.99 3.49 11.77
11/15/2020 12:15:00 PM 10.3 50.54 0.247 8 3.85 11.84
11/15/2020 12:30:00 PM 10.39 50.702 0.247 8.01 3.63 11.84
11/15/2020 12:45:00 PM 10.48 50.864 0.247 8.03 3.56 11.95
11/15/2020 1:00:00 PM 10.56 51.008 0.246 8.04 3.96 11.95
11/15/2020 1:15:00 PM 10.66 51.188 0.246 8.06 3.46 11.97
11/15/2020 1:30:00 PM 10.69 51.242 0.246 8.07 3.85 11.91
11/15/2020 1:45:00 PM 10.77 51.386 0.246 8.1 3.75 11.78
11/15/2020 2:00:00 PM 10.75 51.35 0.246 8.09 3.75 11.64
11/15/2020 2:15:00 PM 10.8 51.44 0.247 8.07 3.4 11.51
11/15/2020 2:30:00 PM 10.79 51.422 0.248 8.08 4.1 11.45
11/15/2020 2:45:00 PM 10.8 51.44 0.248 8.06 4.36 11.36
11/15/2020 3:00:00 PM 10.8 51.44 0.248 8.06 4.51 11.25
11/15/2020 3:15:00 PM 10.86 51.548 0.247 8.04 4.28 11.11
11/15/2020 3:30:00 PM 10.89 51.602 0.247 8.02 4.19 11.02
11/15/2020 3:45:00 PM 10.95 51.71 0.247 8.02 4.48 10.91
11/15/2020 4:00:00 PM 10.98 51.764 0.247 8.02 5.37 10.8
11/15/2020 4:15:00 PM 11.01 51.818 0.247 8 4.24 10.69
11/15/2020 4:30:00 PM 11.02 51.836 0.248 7.98 3.58 10.59
11/15/2020 4:45:00 PM 11.02 51.836 0.249 7.96 6.03 10.51
11/15/2020 5:00:00 PM 11.06 51.908 0.249 7.96 3.93 10.43
11/15/2020 5:15:00 PM 11.04 51.872 0.249 7.93 4.59 10.35
11/15/2020 5:30:00 PM 11.06 51.908 0.249 7.95 4.83 10.28
11/15/2020 5:45:00 PM 11.1 51.98 0.249 7.94 5.65 10.22
11/15/2020 6:00:00 PM 11.14 52.052 0.249 7.92 4.69 10.15
11/15/2020 6:15:00 PM 11.17 52.106 0.248 7.92 6.7 10.12
11/15/2020 6:30:00 PM 11.18 52.124 0.246 7.91 6.41 10.1
11/15/2020 6:45:00 PM 11.21 52.178 0.245 7.92 5.21 10.06
11/15/2020 7:00:00 PM 11.19 52.142 0.246 7.9 6.23 10.04
11/15/2020 7:15:00 PM 11.19 52.142 0.247 7.62 7.2 9.99
11/15/2020 7:30:00 PM 11.13 52.034 0.247 7.73 6.29 9.99
11/15/2020 7:45:00 PM 11.09 51.962 0.248 7.74 6.34 9.98
11/15/2020 8:00:00 PM 11.08 51.944 0.248 7.76 5.84 9.96
11/15/2020 8:15:00 PM 11.08 51.944 0.248 7.74 6.39 9.95
11/15/2020 8:30:00 PM 11.06 51.908 0.248 7.75 6.19 9.91
11/15/2020 8:45:00 PM 11.09 51.962 0.248 7.8 5.68 9.87
11/15/2020 9:00:00 PM 11.1 51.98 0.251 7.76 7.39 9.86
11/15/2020 9:15:00 PM 11.03 51.854 0.255 7.77 9.35 9.88
11/15/2020 9:30:00 PM 10.98 51.764 0.258 7.79 7.44 9.89
11/15/2020 9:45:00 PM 10.88 51.584 0.259 7.78 9.56 9.91
11/15/2020 10:00:00 PM 10.83 51.494 0.258 7.77 9.22 9.93
11/15/2020 10:15:00 PM 10.77 51.386 0.257 7.78 9.33 9.94
11/15/2020 10:30:00 PM 10.7 51.26 0.255 7.77 9.92 9.94
11/15/2020 10:45:00 PM 10.62 51.116 0.253 7.79 8.77 9.95
11/15/2020 11:00:00 PM 10.59 51.062 0.253 7.79 11.9 9.96
11/15/2020 11:15:00 PM 10.52 50.936 0.252 7.8 11.28 9.98
11/15/2020 11:30:00 PM 10.47 50.846 0.251 7.78 8.02 9.99
11/15/2020 11:45:00 PM 10.45 50.81 0.249 7.78 6.97 9.99
11/16/2020 12:00:00 AM 10.4 50.72 0.247 7.8 7.11 10
11/16/2020 12:15:00 AM 10.35 50.63 0.247 7.8 10.37 10.02
11/16/2020 12:30:00 AM 10.36 50.648 0.246 7.8 8.33 10.02
11/16/2020 12:45:00 AM 10.33 50.594 0.246 7.78 6.69 10.03
11/16/2020 1:00:00 AM 10.32 50.576 0.246 7.8 6.82 10.03
11/16/2020 1:15:00 AM 10.3 50.54 0.245 7.8 10.75 10.02
11/16/2020 1:30:00 AM 10.25 50.45 0.245 7.81 6.99 10.03
11/16/2020 1:45:00 AM 10.2 50.36 0.246 7.79 9.89 10.05
11/16/2020 2:00:00 AM 10.17 50.306 0.246 7.8 7.6 10.05
11/16/2020 2:15:00 AM 10.13 50.234 0.246 7.81 10.29 10.07
11/16/2020 2:30:00 AM 10.06 50.108 0.246 7.81 10.88 10.08
11/16/2020 2:45:00 AM 10.02 50.036 0.246 7.82 8.54 10.11
11/16/2020 3:00:00 AM 9.98 49.964 0.246 7.83 8.28 10.14
11/16/2020 3:15:00 AM 9.93 49.874 0.246 7.82 8.11 10.15
11/16/2020 3:30:00 AM 9.91 49.838 0.246 7.81 7.99 10.14
11/16/2020 3:45:00 AM 9.91 49.838 0.246 7.81 8.63 10.13
11/16/2020 4:00:00 AM 9.88 49.784 0.246 7.81 8.57 10.14
11/16/2020 4:15:00 AM 9.85 49.73 0.246 7.8 9.8 10.14
11/16/2020 4:30:00 AM 9.83 49.694 0.245 7.81 10.29 10.15
11/16/2020 4:45:00 AM 9.77 49.586 0.247 7.81 9.23 10.17
11/16/2020 5:00:00 AM 9.76 49.568 0.247 7.8 8.85 10.18
11/16/2020 5:15:00 AM 9.73 49.514 0.247 7.81 9.71 10.17
11/16/2020 5:30:00 AM 9.7 49.46 0.247 7.82 9.56 10.18
11/16/2020 5:45:00 AM 9.71 49.478 0.247 7.83 12.33 10.18
11/16/2020 6:00:00 AM 9.71 49.478 0.246 7.81 13.27 10.18
11/16/2020 6:15:00 AM 9.7 49.46 0.246 7.78 15.72 10.17
11/16/2020 6:30:00 AM 9.71 49.478 0.246 7.8 13.5 10.17
11/16/2020 6:45:00 AM 9.66 49.388 0.247 7.7 14.17 10.19
11/16/2020 7:00:00 AM 9.59 49.262 0.248 7.79 12.02 10.21
11/16/2020 7:15:00 AM 9.53 49.154 0.248 7.77 11.6 10.25
11/16/2020 7:30:00 AM 9.5 49.1 0.248 7.79 11.17 10.29
11/16/2020 7:45:00 AM 9.5 49.1 0.248 7.66 13.38 10.34
11/16/2020 8:00:00 AM 9.47 49.046 0.248 7.64 11.29 10.42
11/16/2020 8:15:00 AM 9.46 49.028 0.248 7.61 9.16 10.48
11/16/2020 8:30:00 AM 9.49 49.082 0.247 7.59 9.8 10.59
11/16/2020 8:45:00 AM 9.49 49.082 0.247 7.58 8.86 10.72
11/16/2020 9:00:00 AM 9.58 49.244 0.247 7.6 8.22 10.84
11/16/2020 9:15:00 AM 9.6 49.28 0.248 7.62 8.02 10.96
11/16/2020 9:30:00 AM 9.63 49.334 0.248 7.64 6.8 11.1
11/16/2020 9:45:00 AM 9.66 49.388 0.247 7.66 7.28 11.22
11/16/2020 10:00:00 AM 9.71 49.478 0.247 7.68 6.62 11.31
11/16/2020 10:15:00 AM 9.81 49.658 0.246 7.69 6.93 11.42
11/16/2020 10:30:00 AM 9.87 49.766 0.246 7.73 5.5 11.51
11/16/2020 10:45:00 AM 9.97 49.946 0.245 7.74 5.95 11.61
11/16/2020 11:00:00 AM 10.05 50.09 0.245 7.76 5.44 11.69
11/16/2020 11:15:00 AM 10.17 50.306 0.245 7.78 5.13 11.76
11/16/2020 11:30:00 AM 10.29 50.522 0.245 7.81 8.72 11.8
11/16/2020 11:45:00 AM 10.37 50.666 0.246 7.83 5.54 11.89
11/16/2020 12:00:00 PM 10.49 50.882 0.246 7.84 5.04 11.94
11/16/2020 12:15:00 PM 10.56 51.008 0.246 7.86 5.13 11.98
11/16/2020 12:30:00 PM 10.65 51.17 0.245 7.87 5.35 12
11/16/2020 12:45:00 PM 10.72 51.296 0.245 7.88 7.2 12.03
11/16/2020 1:00:00 PM 10.75 51.35 0.245 7.89 6.02 12.02
11/16/2020 1:15:00 PM 10.8 51.44 0.244 7.91 5.13 12.04
11/16/2020 1:30:00 PM 10.85 51.53 0.244 7.92 5.85 12.01
11/16/2020 1:45:00 PM 10.9 51.62 0.244 7.91 5.21 12
11/16/2020 2:00:00 PM 10.89 51.602 0.245 7.93 6.2 11.97
11/16/2020 2:15:00 PM 10.89 51.602 0.245 7.95 5.67 11.94
11/16/2020 2:30:00 PM 10.88 51.584 0.245 7.94 6.18 11.93
11/16/2020 2:45:00 PM 10.85 51.53 0.245 7.93 5.57 11.89
11/16/2020 3:00:00 PM 10.8 51.44 0.244 7.93 7.61 11.83
11/16/2020 3:15:00 PM 10.78 51.404 0.244 7.93 4.93 11.72
11/16/2020 3:30:00 PM 10.73 51.314 0.244 7.89 5.85 11.63
11/16/2020 3:45:00 PM 10.67 51.206 0.243 7.92 5.65 11.52
11/16/2020 4:00:00 PM 10.61 51.098 0.243 7.91 5.27 11.39
11/16/2020 4:15:00 PM 10.57 51.026 0.242 7.88 5.42 11.28
11/16/2020 4:30:00 PM 10.51 50.918 0.242 7.87 6.21 11.15
11/16/2020 4:45:00 PM 10.47 50.846 0.242 7.87 5.35 11.03
11/16/2020 5:00:00 PM 10.39 50.702 0.242 7.85 9.12 10.95
11/16/2020 5:15:00 PM 10.35 50.63 0.242 7.83 6.19 10.85
11/16/2020 5:30:00 PM 10.29 50.522 0.241 7.8 5.55 10.76
11/16/2020 5:45:00 PM 10.26 50.468 0.241 7.8 6.08 10.67
11/16/2020 6:00:00 PM 10.2 50.36 0.237 7.77 5.61 10.59
11/16/2020 6:15:00 PM 10.14 50.252 0.238 7.77 7.13 10.55
11/16/2020 6:30:00 PM 10.1 50.18 0.242 7.74 5.74 10.49
11/16/2020 6:45:00 PM 10.04 50.072 0.233 7.72 6.64 10.47
11/16/2020 7:00:00 PM 9.98 49.964 0.233 7.73 6.51 10.43
11/16/2020 7:15:00 PM 9.93 49.874 0.241 7.72 7.22 10.41
11/16/2020 7:30:00 PM 9.87 49.766 0.239 7.71 6.5 10.39
11/16/2020 7:45:00 PM 9.82 49.676 0.238 7.71 8.15 10.39
11/16/2020 8:00:00 PM 9.77 49.586 0.235 7.7 8.29 10.38
11/16/2020 8:15:00 PM 9.72 49.496 0.235 7.7 8.91 10.34
11/16/2020 8:30:00 PM 9.7 49.46 0.235 7.69 9.47 10.34
11/16/2020 8:45:00 PM 9.69 49.442 0.234 7.69 9.18 10.32
11/16/2020 9:00:00 PM 9.64 49.352 0.235 7.67 8.98 10.31
11/16/2020 9:15:00 PM 9.59 49.262 0.236 7.66 8.59 10.32
11/16/2020 9:30:00 PM 9.5 49.1 0.24 7.66 8.29 10.34
11/16/2020 9:45:00 PM 9.45 49.01 0.243 7.66 7.75 10.34
11/16/2020 10:00:00 PM 9.43 48.974 0.243 7.65 9.32 10.34
11/16/2020 10:15:00 PM 9.41 48.938 0.244 7.65 7.59 10.34
11/16/2020 10:30:00 PM 9.35 48.83 0.245 7.65 7.73 10.34
11/16/2020 10:45:00 PM 9.31 48.758 0.245 7.65 7.87 10.35
11/16/2020 11:00:00 PM 9.26 48.668 0.245 7.65 12.01 10.34
11/16/2020 11:15:00 PM 9.27 48.686 0.245 7.63 9.44 10.33
11/16/2020 11:30:00 PM 9.25 48.65 0.246 7.64 8.35 10.34
11/16/2020 11:45:00 PM 9.18 48.524 0.246 7.64 9.33 10.36
11/17/2020 12:00:00 AM 9.15 48.47 0.247 7.63 7.46 10.34
11/17/2020 12:15:00 AM 9.13 48.434 0.247 7.63 10.14 10.34
11/17/2020 12:30:00 AM 9.09 48.362 0.246 7.63 8.49 10.36
11/17/2020 12:45:00 AM 9.09 48.362 0.246 7.63 8.82 10.36
11/17/2020 1:00:00 AM 9.08 48.344 0.246 7.59 7.9 10.35
11/17/2020 1:15:00 AM 9.03 48.254 0.246 7.58 9.07 10.37
11/17/2020 1:30:00 AM 9.04 48.272 0.246 7.62 9.11 10.35
11/17/2020 1:45:00 AM 9.02 48.236 0.246 7.61 9.05 10.35
11/17/2020 2:00:00 AM 8.96 48.128 0.248 7.62 7.79 10.37
11/17/2020 2:15:00 AM 8.89 48.002 0.248 7.62 7.47 10.38
11/17/2020 2:30:00 AM 8.86 47.948 0.249 7.63 10.38 10.4
11/17/2020 2:45:00 AM 8.82 47.876 0.249 7.64 8.83 10.4
11/17/2020 3:00:00 AM 8.77 47.786 0.249 7.63 10.25 10.41
11/17/2020 3:15:00 AM 8.71 47.678 0.249 7.61 9.96 10.43
11/17/2020 3:30:00 AM 8.7 47.66 0.248 7.61 8.02 10.42
11/17/2020 3:45:00 AM 8.67 47.606 0.248 7.63 10.15 10.42
11/17/2020 4:00:00 AM 8.64 47.552 0.247 7.63 7.98 10.42
11/17/2020 4:15:00 AM 8.6 47.48 0.249 7.63 7.69 10.44
11/17/2020 4:30:00 AM 8.54 47.372 0.249 7.62 11 10.43
11/17/2020 4:45:00 AM 8.48 47.264 0.249 7.61 8.4 10.46
11/17/2020 5:00:00 AM 8.43 47.174 0.249 7.61 6.86 10.48
11/17/2020 5:15:00 AM 8.38 47.084 0.248 7.62 7.81 10.5
11/17/2020 5:30:00 AM 8.36 47.048 0.248 7.62 8.75 10.51
11/17/2020 5:45:00 AM 8.32 46.976 0.247 7.62 9.29 10.51
11/17/2020 6:00:00 AM 8.3 46.94 0.247 7.62 9.48 10.5
11/17/2020 6:15:00 AM 8.28 46.904 0.246 7.62 9.89 10.49
11/17/2020 6:30:00 AM 8.32 46.976 0.246 7.62 6.88 10.49
11/17/2020 6:45:00 AM 8.23 46.814 0.247 7.61 9.2 10.52
11/17/2020 7:00:00 AM 8.16 46.688 0.248 7.6 7.1 10.55
11/17/2020 7:15:00 AM 8.11 46.598 0.248 7.61 6.27 10.59
11/17/2020 7:30:00 AM 8.08 46.544 0.247 7.61 7.47 10.64
11/17/2020 7:45:00 AM 8.05 46.49 0.247 7.61 6.24 10.7
11/17/2020 8:00:00 AM 8.05 46.49 0.246 7.61 5.46 10.79
11/17/2020 8:15:00 AM 8.05 46.49 0.245 7.61 6.84 10.89
11/17/2020 8:30:00 AM 8.1 46.58 0.245 7.62 5.62 10.98
11/17/2020 8:45:00 AM 8.2 46.76 0.245 7.63 6.35 11.11
11/17/2020 9:00:00 AM 8.22 46.796 0.245 7.64 6.83 11.27
11/17/2020 9:15:00 AM 8.24 46.832 0.245 7.61 5.83 11.44
11/17/2020 9:30:00 AM 8.37 47.066 0.245 7.68 5.47 11.55
11/17/2020 9:45:00 AM 8.47 47.246 0.245 7.7 5.6 11.66
11/17/2020 10:00:00 AM 8.54 47.372 0.244 7.71 5.13 11.77
11/17/2020 10:15:00 AM 8.65 47.57 0.244 7.73 4.68 11.91
11/17/2020 10:30:00 AM 8.72 47.696 0.243 7.73 4.71 12
11/17/2020 10:45:00 AM 8.8 47.84 0.243 7.75 4.79 12
11/17/2020 11:00:00 AM 8.78 47.804 0.243 7.75 5.72 12
11/17/2020 11:15:00 AM 8.79 47.822 0.243 7.75 5.1 11.94
11/17/2020 11:30:00 AM 8.77 47.786 0.243 7.76 4.16 11.94
11/17/2020 11:45:00 AM 8.8 47.84 0.244 7.77 4.64 12
11/17/2020 12:00:00 PM 8.87 47.966 0.244 7.79 6.66 12.09
11/17/2020 12:15:00 PM 8.93 48.074 0.244 7.81 4.97 12.25
11/17/2020 12:30:00 PM 8.99 48.182 0.243 7.84 4.32 12.37
11/17/2020 12:45:00 PM 9.07 48.326 0.243 7.86 4.15 12.4
11/17/2020 1:00:00 PM 9.05 48.29 0.242 7.87 4.17 12.4
11/17/2020 1:15:00 PM 9.13 48.434 0.242 7.88 4.71 12.39
11/17/2020 1:30:00 PM 9.12 48.416 0.242 7.89 6.65 12.35
11/17/2020 1:45:00 PM 9.23 48.614 0.243 7.9 6.31 12.37
11/17/2020 2:00:00 PM 9.27 48.686 0.244 7.91 5.28 12.46
11/17/2020 2:15:00 PM 9.29 48.722 0.244 7.93 5.1 12.5
11/17/2020 2:30:00 PM 9.21 48.578 0.244 7.93 4.6 12.43
11/17/2020 2:45:00 PM 9.17 48.506 0.244 7.94 4.86 12.34
11/17/2020 3:00:00 PM 9.09 48.362 0.243 7.92 6.35 12.19
11/17/2020 3:15:00 PM 9.05 48.29 0.243 7.93 6.09 12.15
11/17/2020 3:30:00 PM 9.02 48.236 0.243 7.92 5.31 12.14
11/17/2020 3:45:00 PM 8.97 48.146 0.242 7.92 9.02 12.04
11/17/2020 4:00:00 PM 8.94 48.092 0.242 7.91 5.99 11.91
11/17/2020 4:15:00 PM 8.92 48.056 0.243 7.9 5.11 11.78
11/17/2020 4:30:00 PM 8.85 47.93 0.244 7.89 5.65 11.67
11/17/2020 4:45:00 PM 8.8 47.84 0.245 7.86 5.76 11.58
11/17/2020 5:00:00 PM 8.71 47.678 0.245 7.85 5.5 11.49
11/17/2020 5:15:00 PM 8.64 47.552 0.246 7.85 6.9 11.38
11/17/2020 5:30:00 PM 8.59 47.462 0.245 7.83 5.89 11.3
11/17/2020 5:45:00 PM 8.54 47.372 0.245 7.83 6.1 11.2
11/17/2020 6:00:00 PM 8.49 47.282 0.244 7.81 6.01 11.15
11/17/2020 6:15:00 PM 8.45 47.21 0.244 7.81 5.69 11.1
11/17/2020 6:30:00 PM 8.43 47.174 0.244 7.78 6.62 11.03
11/17/2020 6:45:00 PM 8.41 47.138 0.245 7.74 9.12 11.01
11/17/2020 7:00:00 PM 8.29 46.922 0.246 7.75 7.32 11.02
11/17/2020 7:15:00 PM 8.22 46.796 0.247 7.74 6.35 11.02
11/17/2020 7:30:00 PM 8.17 46.706 0.246 7.74 5.72 11.02
11/17/2020 7:45:00 PM 8.11 46.598 0.246 7.75 7.89 11
11/17/2020 8:00:00 PM 8.09 46.562 0.246 7.75 10.59 10.99
11/17/2020 8:15:00 PM 8.1 46.58 0.245 7.75 6.87 10.98
11/17/2020 8:30:00 PM 8.04 46.472 0.245 7.76 8 10.99
11/17/2020 8:45:00 PM 8.03 46.454 0.245 7.74 11.78 10.97
11/17/2020 9:00:00 PM 8.03 46.454 0.245 7.74 6.23 10.96
11/17/2020 9:15:00 PM 7.94 46.292 0.246 7.73 8.16 10.98
11/17/2020 9:30:00 PM 7.85 46.13 0.247 7.72 7.37 10.99
11/17/2020 9:45:00 PM 7.85 46.13 0.247 7.72 6.62 10.99
11/17/2020 10:00:00 PM 7.77 45.986 0.247 7.72 9.38 11
11/17/2020 10:15:00 PM 7.77 45.986 0.247 7.7 6.17 11
11/17/2020 10:30:00 PM 7.69 45.842 0.246 7.69 5.93 11.03
11/17/2020 10:45:00 PM 7.69 45.842 0.246 7.7 6.3 10.99
11/17/2020 11:00:00 PM 7.72 45.896 0.245 7.72 5.96 10.97
11/17/2020 11:15:00 PM 7.76 45.968 0.245 7.71 6.54 10.96
11/17/2020 11:30:00 PM 7.64 45.752 0.246 7.72 8.86 11
11/17/2020 11:45:00 PM 7.67 45.806 0.247 7.73 6.57 11
11/18/2020 12:00:00 AM 7.61 45.698 0.248 7.71 6.03 11.01
11/18/2020 12:15:00 AM 7.55 45.59 0.248 7.73 6.16 11.03
11/18/2020 12:30:00 AM 7.55 45.59 0.247 7.72 5.41 11.03
11/18/2020 12:45:00 AM 7.5 45.5 0.247 7.73 7.25 11.06
11/18/2020 1:00:00 AM 7.47 45.446 0.246 7.69 6.39 11.04
11/18/2020 1:15:00 AM 7.52 45.536 0.246 7.72 6.76 11.02
11/18/2020 1:30:00 AM 7.5 45.5 0.246 7.71 6.08 11.02
11/18/2020 1:45:00 AM 7.52 45.536 0.245 7.72 6.48 11.01
11/18/2020 2:00:00 AM 7.49 45.482 0.247 7.7 9.25 11.03
11/18/2020 2:15:00 AM 7.52 45.536 0.248 7.71 5.18 11.03
11/18/2020 2:30:00 AM 7.48 45.464 0.248 7.72 6.64 11.06
11/18/2020 2:45:00 AM 7.44 45.392 0.248 7.69 5.82 11.08
11/18/2020 3:00:00 AM 7.41 45.338 0.248 7.67 5.71 11.1
11/18/2020 3:15:00 AM 7.46 45.428 0.245 7.69 6.44 11.08
11/18/2020 3:30:00 AM 7.46 45.428 0.248 7.63 7.1 11.09
11/18/2020 3:45:00 AM 7.48 45.464 0.248 7.64 8.24 11.06
11/18/2020 4:00:00 AM 7.46 45.428 0.247 7.61 7.66 11.07
11/18/2020 4:15:00 AM 7.48 45.464 0.248 7.6 8.51 11.05
11/18/2020 4:30:00 AM 7.44 45.392 0.249 7.59 8.72 11.06
11/18/2020 4:45:00 AM 7.37 45.266 0.25 7.59 10.34 11.1
11/18/2020 5:00:00 AM 7.34 45.212 0.25 7.6 6.71 11.1
11/18/2020 5:15:00 AM 7.27 45.086 0.25 7.59 7.69 11.12
11/18/2020 5:30:00 AM 7.31 45.158 0.246 7.58 7.46 11.11
11/18/2020 5:45:00 AM 7.28 45.104 0.246 7.59 7.66 11.11
11/18/2020 6:00:00 AM 7.26 45.068 0.248 7.58 7.43 11.1
11/18/2020 6:15:00 AM 7.28 45.104 0.243 7.59 7.31 11.09
11/18/2020 6:30:00 AM 7.26 45.068 0.242 7.58 6.15 11.09
11/18/2020 6:45:00 AM 7.27 45.086 0.244 7.54 6.03 11.08
11/18/2020 7:00:00 AM 7.24 45.032 0.245 7.54 5.39 11.11
11/18/2020 7:15:00 AM 7.18 44.924 0.244 7.56 5.64 11.16
11/18/2020 7:30:00 AM 7.15 44.87 0.244 7.57 5.61 11.23
11/18/2020 7:45:00 AM 7.11 44.798 0.243 7.57 5.42 11.3
11/18/2020 8:00:00 AM 7.1 44.78 0.244 7.57 4.23 11.41
11/18/2020 8:15:00 AM 7.09 44.762 0.243 7.58 35.29 11.49
11/18/2020 8:30:00 AM 7.03 44.654 0.241 7.59 3.88 11.6
11/18/2020 8:45:00 AM 7.06 44.708 0.241 7.63 4.62 11.73
11/18/2020 9:00:00 AM 7.1 44.78 0.241 7.62 4.24 11.82
11/18/2020 9:15:00 AM 7.05 44.69 0.242 7.62 4.98 12.01
11/18/2020 9:30:00 AM 7.14 44.852 0.242 7.65 4.64 12.16
11/18/2020 9:45:00 AM 7.2 44.96 0.242 7.67 6.14 12.34
11/18/2020 10:00:00 AM 7.26 45.068 0.242 7.67 4.54 12.49
11/18/2020 10:15:00 AM 7.26 45.068 0.242 7.7 4.66 12.61
11/18/2020 10:30:00 AM 7.37 45.266 0.241 7.72 5.29 12.68
11/18/2020 10:45:00 AM 7.5 45.5 0.241 7.75 4.1 12.79
11/18/2020 11:00:00 AM 7.6 45.68 0.241 7.76 4.28 12.87
11/18/2020 11:15:00 AM 7.76 45.968 0.24 7.78 4.52 12.95
11/18/2020 11:30:00 AM 7.83 46.094 0.24 7.79 4.26 12.99
11/18/2020 11:45:00 AM 7.95 46.31 0.241 7.8 4.45 13.03
11/18/2020 12:00:00 PM 7.99 46.382 0.242 7.82 4.46 13.12
11/18/2020 12:15:00 PM 8.1 46.58 0.241 7.84 4.34 13.17
11/18/2020 12:30:00 PM 8.1 46.58 0.242 7.84 4.37 13.2
11/18/2020 12:45:00 PM 8.13 46.634 0.241 7.86 4.29 13.18
11/18/2020 1:00:00 PM 8.18 46.724 0.241 7.87 3.51 13.17
11/18/2020 1:15:00 PM 8.21 46.778 0.241 7.88 3.7 13.18
11/18/2020 1:30:00 PM 8.26 46.868 0.241 7.88 4.2 13.11
11/18/2020 1:45:00 PM 8.26 46.868 0.241 7.88 4.12 13.12
11/18/2020 2:00:00 PM 8.2 46.76 0.241 7.89 4.1 13.1
11/18/2020 2:15:00 PM 8.19 46.742 0.243 7.9 4.89 13.09
11/18/2020 2:30:00 PM 8.12 46.616 0.243 7.92 4.53 13.07
11/18/2020 2:45:00 PM 8.09 46.562 0.243 7.92 3.88 13.06
11/18/2020 3:00:00 PM 8 46.4 0.242 7.89 3.45 13.01
11/18/2020 3:15:00 PM 7.98 46.364 0.242 7.89 4.56 12.89
11/18/2020 3:30:00 PM 7.87 46.166 0.241 7.87 4.96 12.84
11/18/2020 3:45:00 PM 7.82 46.076 0.247 7.85 5 12.74
11/18/2020 4:00:00 PM 7.8 46.04 0.244 7.84 4.76 12.56
11/18/2020 4:15:00 PM 7.75 45.95 0.249 7.84 5.04 12.45
11/18/2020 4:30:00 PM 7.69 45.842 0.25 7.83 5.24 12.34
11/18/2020 4:45:00 PM 7.67 45.806 0.25 7.81 4.6 12.23
11/18/2020 5:00:00 PM 7.52 45.536 0.251 7.79 5.98 12.17
11/18/2020 5:15:00 PM 7.49 45.482 0.245 7.78 4.79 12.04
11/18/2020 5:30:00 PM 7.48 45.464 0.247 7.75 4.32 11.96
11/18/2020 5:45:00 PM 7.42 45.356 0.247 7.74 4.73 11.9
11/18/2020 6:00:00 PM 7.34 45.212 0.243 7.72 4.89 11.83
11/18/2020 6:15:00 PM 7.34 45.212 0.249 7.7 4.74 11.76
11/18/2020 6:30:00 PM 7.33 45.194 0.248 7.68 4.58 11.69
11/18/2020 6:45:00 PM 7.26 45.068 0.249 7.67 5.74 11.67
11/18/2020 7:00:00 PM 7.19 44.942 0.25 7.66 5.85 11.66
11/18/2020 7:15:00 PM 7.11 44.798 0.251 7.64 4.59 11.64
11/18/2020 7:30:00 PM 7.04 44.672 0.251 7.64 4.96 11.62
11/18/2020 7:45:00 PM 6.97 44.546 0.251 7.62 5.14 11.61
11/18/2020 8:00:00 PM 6.97 44.546 0.25 7.63 4.92 11.6
11/18/2020 8:15:00 PM 6.91 44.438 0.249 7.62 5.66 11.59
11/18/2020 8:30:00 PM 6.89 44.402 0.238 7.62 5.14 11.58
11/18/2020 8:45:00 PM 6.84 44.312 0.248 7.6 6.14 11.57
11/18/2020 9:00:00 PM 6.84 44.312 0.248 7.59 5.45 11.54
11/18/2020 9:15:00 PM 6.78 44.204 0.249 7.59 5.55 11.56
11/18/2020 9:30:00 PM 6.73 44.114 0.25 7.59 5.96 11.57
11/18/2020 9:45:00 PM 6.68 44.024 0.251 7.58 5.57 11.59
11/18/2020 10:00:00 PM 6.62 43.916 0.251 7.59 5.46 11.58
11/18/2020 10:15:00 PM 6.55 43.79 0.238 7.59 5.22 11.6
11/18/2020 10:30:00 PM 6.51 43.718 0.25 7.58 10.47 11.6
11/18/2020 10:45:00 PM 6.52 43.736 0.249 7.54 5.66 11.6
11/18/2020 11:00:00 PM 6.5 43.7 0.249 7.55 7.36 11.59
11/18/2020 11:15:00 PM 6.52 43.736 0.248 7.54 6.85 11.58
11/18/2020 11:30:00 PM 6.49 43.682 0.249 7.52 7.44 11.57
11/18/2020 11:45:00 PM 6.47 43.646 0.25 7.53 6.11 11.57
11/19/2020 12:00:00 AM 6.37 43.466 0.251 7.53 4.64 11.62
11/19/2020 12:15:00 AM 6.32 43.376 0.25 7.54 4.83 11.64
11/19/2020 12:30:00 AM 6.29 43.322 0.25 7.54 5.1 11.62
11/19/2020 12:45:00 AM 6.26 43.268 0.25 7.54 4.97 11.63
11/19/2020 1:00:00 AM 6.27 43.286 0.249 7.5 5.96 11.63
11/19/2020 1:15:00 AM 6.27 43.286 0.248 7.5 5.21 11.61
11/19/2020 1:30:00 AM 6.26 43.268 0.248 7.51 5.18 11.59
11/19/2020 1:45:00 AM 6.31 43.358 0.248 7.48 5.13 11.59
11/19/2020 2:00:00 AM 6.29 43.322 0.248 7.49 5.7 11.58
11/19/2020 2:15:00 AM 6.22 43.196 0.25 7.48 6.41 11.61
11/19/2020 2:30:00 AM 6.19 43.142 0.25 7.47 5.66 11.62
11/19/2020 2:45:00 AM 6.13 43.034 0.251 7.5 5.85 11.64
11/19/2020 3:00:00 AM 6.07 42.926 0.25 7.48 5.73 11.64
11/19/2020 3:15:00 AM 6.1 42.98 0.25 7.48 6.74 11.66
11/19/2020 3:30:00 AM 6.03 42.854 0.249 7.48 5.1 11.67
11/19/2020 3:45:00 AM 6.05 42.89 0.249 7.48 7 11.65
11/19/2020 4:00:00 AM 6.1 42.98 0.248 7.49 6.69 11.62
11/19/2020 4:15:00 AM 6.08 42.944 0.248 7.47 5.61 11.62
11/19/2020 4:30:00 AM 6.07 42.926 0.25 7.48 5.73 11.64
11/19/2020 4:45:00 AM 6.02 42.836 0.251 7.46 11.41 11.65
11/19/2020 5:00:00 AM 5.93 42.674 0.251 7.46 6.43 11.69
11/19/2020 5:15:00 AM 5.89 42.602 0.251 7.45 5.66 11.71
11/19/2020 5:30:00 AM 5.9 42.62 0.251 7.44 7.23 11.7
11/19/2020 5:45:00 AM 5.87 42.566 0.251 7.44 5.14 11.71
11/19/2020 6:00:00 AM 5.9 42.62 0.25 7.46 5.43 11.7
11/19/2020 6:15:00 AM 5.88 42.584 0.25 7.47 5.56 11.69
11/19/2020 6:30:00 AM 5.87 42.566 0.249 7.45 6 11.69
11/19/2020 6:45:00 AM 5.88 42.584 0.25 7.45 5.68 11.67
11/19/2020 7:00:00 AM 5.85 42.53 0.251 7.44 5.21 11.68
11/19/2020 7:15:00 AM 5.8 42.44 0.252 7.44 5.38 11.74
11/19/2020 7:30:00 AM 5.76 42.368 0.252 7.41 5.26 11.83
11/19/2020 7:45:00 AM 5.74 42.332 0.251 7.46 5.65 11.94
11/19/2020 8:00:00 AM 5.75 42.35 0.251 7.47 5.28 12.07
11/19/2020 8:15:00 AM 5.81 42.458 0.25 7.48 4.32 12.17
11/19/2020 8:30:00 AM 5.83 42.494 0.25 7.48 5.05 12.3
11/19/2020 8:45:00 AM 5.94 42.692 0.249 7.5 8.08 12.38
11/19/2020 9:00:00 AM 5.93 42.674 0.249 7.51 4.95 12.51
11/19/2020 9:15:00 AM 5.99 42.782 0.249 7.54 6.28 12.63
11/19/2020 9:30:00 AM 6.06 42.908 0.25 7.55 4.4 12.77
11/19/2020 9:45:00 AM 6.17 43.106 0.25 7.57 5.02 12.88
11/19/2020 10:00:00 AM 6.22 43.196 0.25 7.58 4.88 12.98
11/19/2020 10:15:00 AM 6.37 43.466 0.249 7.6 5.07 13.07
11/19/2020 10:30:00 AM 6.45 43.61 0.249 7.63 4.62 13.16
11/19/2020 10:45:00 AM 6.59 43.862 0.248 7.66 3.93 13.22
11/19/2020 11:00:00 AM 6.66 43.988 0.248 7.67 4.36 13.3
11/19/2020 11:15:00 AM 6.82 44.276 0.248 7.68 4.17 13.33
11/19/2020 11:30:00 AM 6.98 44.564 0.248 7.69 4.78 13.36
11/19/2020 11:45:00 AM 7.07 44.726 0.248 7.72 4.4 13.45
11/19/2020 12:00:00 PM 7.16 44.888 0.249 7.72 4.5 13.51
11/19/2020 12:15:00 PM 7.25 45.05 0.25 7.74 4.25 13.57
11/19/2020 12:30:00 PM 7.36 45.248 0.249 7.81 4.75 13.61
11/19/2020 12:45:00 PM 7.39 45.302 0.249 7.92 4.79 13.65
11/19/2020 1:00:00 PM 7.51 45.518 0.248 7.87 5.34 13.6
11/19/2020 1:15:00 PM 7.5 45.5 0.248 7.87 6.79 13.57
11/19/2020 1:30:00 PM 7.57 45.626 0.248 7.85 7.38 13.54
11/19/2020 1:45:00 PM 7.62 45.716 0.248 7.84 8.53 13.45
11/19/2020 2:00:00 PM 7.65 45.77 0.248 7.82 7.35 13.4
11/19/2020 2:15:00 PM 7.65 45.77 0.25 7.82 7.71 13.35
11/19/2020 2:30:00 PM 7.62 45.716 0.25 7.82 8.5 13.34
11/19/2020 2:45:00 PM 7.55 45.59 0.25 7.85 7.94 13.31
11/19/2020 3:00:00 PM 7.61 45.698 0.25 7.84 6.14 13.25
11/19/2020 3:15:00 PM 7.56 45.608 0.249 7.87 7.09 13.18
11/19/2020 3:30:00 PM 7.57 45.626 0.249 7.87 7.16 13.09
11/19/2020 3:45:00 PM 7.52 45.536 0.249 7.85 6.26 12.96
11/19/2020 4:00:00 PM 7.63 45.734 0.248 7.84 6.47 12.79
11/19/2020 4:15:00 PM 7.65 45.77 0.248 7.83 8.09 12.61
11/19/2020 4:30:00 PM 7.6 45.68 0.25 7.81 8.32 12.52
11/19/2020 4:45:00 PM 7.53 45.554 0.251 7.8 6.08 12.4
11/19/2020 5:00:00 PM 7.48 45.464 0.251 7.78 10.89 12.29
11/19/2020 5:15:00 PM 7.45 45.41 0.251 7.75 7.57 12.19
11/19/2020 5:30:00 PM 7.4 45.32 0.251 7.71 6.89 12.09
11/19/2020 5:45:00 PM 7.4 45.32 0.251 7.68 7.11 11.98
11/19/2020 6:00:00 PM 7.34 45.212 0.25 7.67 7.19 11.89
11/19/2020 6:15:00 PM 7.4 45.32 0.25 7.7 10.83 11.79
11/19/2020 6:30:00 PM 7.39 45.302 0.25 7.68 7.09 11.72
11/19/2020 6:45:00 PM 7.37 45.266 0.25 7.67 6.9 11.68
11/19/2020 7:00:00 PM 7.31 45.158 0.251 7.66 6.98 11.64
11/19/2020 7:15:00 PM 7.26 45.068 0.252 7.66 6.18 11.65
11/19/2020 7:30:00 PM 7.19 44.942 0.252 7.66 11.42 11.62
11/19/2020 7:45:00 PM 7.18 44.924 0.251 7.66 8.34 11.59
11/19/2020 8:00:00 PM 7.11 44.798 0.251 7.67 6.98 11.6
11/19/2020 8:15:00 PM 7.16 44.888 0.25 7.63 7.11 11.57
11/19/2020 8:30:00 PM 7.08 44.744 0.25 7.61 6.62 11.57
11/19/2020 8:45:00 PM 7.12 44.816 0.25 7.56 6.63 11.5
11/19/2020 9:00:00 PM 7.17 44.906 0.249 7.56 6.61 11.5
11/19/2020 9:15:00 PM 7.07 44.726 0.25 7.55 5.8 11.5
11/19/2020 9:30:00 PM 7.08 44.744 0.251 7.56 5.97 11.48
11/19/2020 9:45:00 PM 7.03 44.654 0.252 7.56 6.98 11.5
11/19/2020 10:00:00 PM 6.97 44.546 0.252 7.58 5.94 11.5
11/19/2020 10:15:00 PM 6.91 44.438 0.251 7.53 6.66 11.5
11/19/2020 10:30:00 PM 6.96 44.528 0.25 7.51 6.84 11.5
11/19/2020 10:45:00 PM 6.92 44.456 0.25 7.51 7.29 11.49
11/19/2020 11:00:00 PM 6.97 44.546 0.25 7.51 6.81 11.46
11/19/2020 11:15:00 PM 7.01 44.618 0.249 7.51 5.91 11.43
11/19/2020 11:30:00 PM 6.98 44.564 0.249 7.51 7.34 11.42
11/19/2020 11:45:00 PM 6.89 44.402 0.251 7.51 6.08 11.43
11/20/2020 12:00:00 AM 6.92 44.456 0.252 7.51 6.55 11.44
11/20/2020 12:15:00 AM 6.92 44.456 0.252 7.5 6.17 11.42
11/20/2020 12:30:00 AM 6.9 44.42 0.251 7.51 4.49 11.41
11/20/2020 12:45:00 AM 6.88 44.384 0.251 7.51 6.74 11.43
11/20/2020 1:00:00 AM 6.87 44.366 0.25 7.5 5.57 11.42
11/20/2020 1:15:00 AM 6.84 44.312 0.25 7.5 5.93 11.43
11/20/2020 1:30:00 AM 6.87 44.366 0.249 7.5 7.53 11.4
11/20/2020 1:45:00 AM 6.89 44.402 0.249 7.49 5.93 11.37
11/20/2020 2:00:00 AM 6.85 44.33 0.249 7.49 6.56 11.38
11/20/2020 2:15:00 AM 6.86 44.348 0.251 7.49 6.53 11.38
11/20/2020 2:30:00 AM 6.83 44.294 0.251 7.48 10.11 11.38
11/20/2020 2:45:00 AM 6.79 44.222 0.252 7.48 6.36 11.41
11/20/2020 3:00:00 AM 6.79 44.222 0.252 7.49 5.93 11.4
11/20/2020 3:15:00 AM 6.69 44.042 0.251 7.5 5.41 11.41
11/20/2020 3:30:00 AM 6.73 44.114 0.251 7.48 6.69 11.41
11/20/2020 3:45:00 AM 6.65 43.97 0.25 7.49 6.53 11.44
11/20/2020 4:00:00 AM 6.71 44.078 0.25 7.49 7.35 11.39
11/20/2020 4:15:00 AM 6.7 44.06 0.25 7.5 7.14 11.38
11/20/2020 4:30:00 AM 6.64 43.952 0.251 7.48 10.72 11.38
11/20/2020 4:45:00 AM 6.62 43.916 0.252 7.47 8.71 11.41
11/20/2020 5:00:00 AM 6.56 43.808 0.252 7.48 8.8 11.41
11/20/2020 5:15:00 AM 6.5 43.7 0.252 7.48 9.43 11.43
11/20/2020 5:30:00 AM 6.49 43.682 0.252 7.47 7.22 11.44
11/20/2020 5:45:00 AM 6.45 43.61 0.252 7.47 8.02 11.44
11/20/2020 6:00:00 AM 6.46 43.628 0.251 7.46 7.45 11.43
11/20/2020 6:15:00 AM 6.45 43.61 0.251 7.48 6.5 11.43
11/20/2020 6:30:00 AM 6.46 43.628 0.251 7.47 8.51 11.41
11/20/2020 6:45:00 AM 6.47 43.646 0.251 7.47 6.83 11.38
11/20/2020 7:00:00 AM 6.36 43.448 0.252 7.46 7.9 11.44
11/20/2020 7:15:00 AM 6.34 43.412 0.253 7.46 5.76 11.48
11/20/2020 7:30:00 AM 6.29 43.322 0.253 7.46 5.59 11.53
11/20/2020 7:45:00 AM 6.3 43.34 0.253 7.43 5.44 11.6
11/20/2020 8:00:00 AM 6.28 43.304 0.252 7.47 5.81 11.66
11/20/2020 8:15:00 AM 6.37 43.466 0.252 7.49 7.11 11.74
11/20/2020 8:30:00 AM 6.39 43.502 0.252 7.5 5.17 11.86
11/20/2020 8:45:00 AM 6.41 43.538 0.251 7.52 4.87 12.01
11/20/2020 9:00:00 AM 6.47 43.646 0.251 7.54 4.57 12.19
11/20/2020 9:15:00 AM 6.55 43.79 0.251 7.55 4.78 12.32
11/20/2020 9:30:00 AM 6.63 43.934 0.252 7.56 4.81 12.47
11/20/2020 9:45:00 AM 6.73 44.114 0.252 7.58 5.29 12.59
11/20/2020 10:00:00 AM 6.81 44.258 0.252 7.61 5.01 12.72
11/20/2020 10:15:00 AM 6.98 44.564 0.251 7.64 7.59 12.76
11/20/2020 10:30:00 AM 7.1 44.78 0.251 7.64 11.18 12.8
11/20/2020 10:45:00 AM 7.26 45.068 0.25 7.63 20.31 12.81
11/20/2020 11:00:00 AM 7.38 45.284 0.25 7.64 22.25 12.84
11/20/2020 11:15:00 AM 7.56 45.608 0.25 7.64 22.2 12.88
11/20/2020 11:30:00 AM 7.72 45.896 0.25 7.64 19.78 12.94
11/20/2020 11:45:00 AM 7.86 46.148 0.25 7.64 17.66 13.02
11/20/2020 12:00:00 PM 7.94 46.292 0.251 7.65 17.14 13.1
11/20/2020 12:15:00 PM 8.12 46.616 0.251 7.68 15.66 13.13
11/20/2020 12:30:00 PM 8.28 46.904 0.251 7.69 14.26 13.17
11/20/2020 12:45:00 PM 8.39 47.102 0.25 7.76 13.52 13.19
11/20/2020 1:00:00 PM 8.52 47.336 0.25 7.78 10.76 13.19
11/20/2020 1:15:00 PM 8.61 47.498 0.25 7.79 10.69 13.2
11/20/2020 1:30:00 PM 8.68 47.624 0.25 7.78 9.89 13.19
11/20/2020 1:45:00 PM 8.75 47.75 0.25 7.8 8.22 13.12
11/20/2020 2:00:00 PM 8.8 47.84 0.25 7.81 8.61 13.05
11/20/2020 2:15:00 PM 8.81 47.858 0.252 7.83 6.86 13.06
11/20/2020 2:30:00 PM 8.83 47.894 0.252 7.81 5.91 12.99
11/20/2020 2:45:00 PM 8.81 47.858 0.252 7.83 7.47 12.95
11/20/2020 3:00:00 PM 8.83 47.894 0.252 7.8 6.73 12.85
11/20/2020 3:15:00 PM 8.8 47.84 0.251 7.8 6.58 12.73
11/20/2020 3:30:00 PM 8.74 47.732 0.251 7.79 5.81 12.62
11/20/2020 3:45:00 PM 8.7 47.66 0.25 7.8 5.69 12.49
11/20/2020 4:00:00 PM 8.7 47.66 0.25 7.78 6.28 12.31
11/20/2020 4:15:00 PM 8.72 47.696 0.25 7.74 6.35 12.13
11/20/2020 4:30:00 PM 8.64 47.552 0.251 7.73 5.66 12
11/20/2020 4:45:00 PM 8.61 47.498 0.252 7.7 5.85 11.9
11/20/2020 5:00:00 PM 8.59 47.462 0.253 7.69 10.58 11.77
11/20/2020 5:15:00 PM 8.51 47.318 0.253 7.65 6.37 11.66
11/20/2020 5:30:00 PM 8.47 47.246 0.252 7.59 5.75 11.58
11/20/2020 5:45:00 PM 8.43 47.174 0.252 7.56 7.25 11.49
11/20/2020 6:00:00 PM 8.4 47.12 0.252 7.52 6.42 11.4
11/20/2020 6:15:00 PM 8.31 46.958 0.251 7.5 7.05 11.35
11/20/2020 6:30:00 PM 8.33 46.994 0.251 7.5 11.24 11.25
11/20/2020 6:45:00 PM 8.31 46.958 0.251 7.5 6.97 11.22
11/20/2020 7:00:00 PM 8.26 46.868 0.253 7.49 7.03 11.18
11/20/2020 7:15:00 PM 8.18 46.724 0.254 7.48 8.23 11.19
11/20/2020 7:30:00 PM 8.15 46.67 0.254 7.47 6.74 11.12
11/20/2020 7:45:00 PM 8.09 46.562 0.253 7.46 7.84 11.11
11/20/2020 8:00:00 PM 8.04 46.472 0.253 7.45 7.73 11.11
11/20/2020 8:15:00 PM 8.01 46.418 0.252 7.43 20.39 11.07
11/20/2020 8:30:00 PM 7.94 46.292 0.252 7.43 7.13 11.07
11/20/2020 8:45:00 PM 7.97 46.346 0.251 7.44 6.35 11.05
11/20/2020 9:00:00 PM 7.91 46.238 0.251 7.43 7.41 11.05
11/20/2020 9:15:00 PM 7.91 46.238 0.252 7.44 6.32 11.03
11/20/2020 9:30:00 PM 7.84 46.112 0.253 7.42 6.03 11.04
11/20/2020 9:45:00 PM 7.82 46.076 0.253 7.42 5.9 11.03
11/20/2020 10:00:00 PM 7.76 45.968 0.253 7.41 9.32 11.06
11/20/2020 10:15:00 PM 7.78 46.004 0.253 7.41 6.55 11.06
11/20/2020 10:30:00 PM 7.77 45.986 0.252 7.41 8.47 11.04
11/20/2020 10:45:00 PM 7.78 46.004 0.252 7.4 6.26 11.03
11/20/2020 11:00:00 PM 7.79 46.022 0.251 7.4 6.09 11.02
11/20/2020 11:15:00 PM 7.82 46.076 0.251 7.39 5.81 10.98
11/20/2020 11:30:00 PM 7.86 46.148 0.236 7.39 5.52 10.98
11/20/2020 11:45:00 PM 7.89 46.202 0.252 7.38 5.74 10.97
11/21/2020 12:00:00 AM 7.89 46.202 0.253 7.37 6.77 10.95
11/21/2020 12:15:00 AM 7.9 46.22 0.253 7.37 7.62 10.95
11/21/2020 12:30:00 AM 7.9 46.22 0.252 7.39 7.3 10.95
11/21/2020 12:45:00 AM 7.9 46.22 0.252 7.39 6.53 10.94
11/21/2020 1:00:00 AM 7.9 46.22 0.251 7.38 6.77 10.93
11/21/2020 1:15:00 AM 7.93 46.274 0.25 7.38 6.2 10.9
11/21/2020 1:30:00 AM 7.91 46.238 0.25 7.4 5.56 10.87
11/21/2020 1:45:00 AM 7.94 46.292 0.25 7.38 8.69 10.87
11/21/2020 2:00:00 AM 7.95 46.31 0.25 7.38 5.98 10.85
11/21/2020 2:15:00 AM 7.96 46.328 0.251 7.36 6.41 10.84
11/21/2020 2:30:00 AM 7.93 46.274 0.252 7.38 6.52 10.84
11/21/2020 2:45:00 AM 7.93 46.274 0.252 7.36 7.49 10.85
11/21/2020 3:00:00 AM 7.92 46.256 0.252 7.37 6.85 10.84
11/21/2020 3:15:00 AM 7.89 46.202 0.251 7.37 6.91 10.83
11/21/2020 3:30:00 AM 7.89 46.202 0.251 7.37 7.6 10.83
11/21/2020 3:45:00 AM 7.87 46.166 0.25 7.39 8.26 10.83
11/21/2020 4:00:00 AM 7.87 46.166 0.25 7.37 7.06 10.82
11/21/2020 4:15:00 AM 7.88 46.184 0.25 7.37 8.15 10.82
11/21/2020 4:30:00 AM 7.86 46.148 0.251 7.38 6.38 10.81
11/21/2020 4:45:00 AM 7.82 46.076 0.252 7.38 7.41 10.83
11/21/2020 5:00:00 AM 7.81 46.058 0.252 7.39 5.99 10.83
11/21/2020 5:15:00 AM 7.77 45.986 0.252 7.38 6.42 10.82
11/21/2020 5:30:00 AM 7.75 45.95 0.251 7.31 8.95 10.85
11/21/2020 5:45:00 AM 7.74 45.932 0.251 7.37 8.52 10.83
11/21/2020 6:00:00 AM 7.71 45.878 0.251 7.37 12.63 10.83
11/21/2020 6:15:00 AM 7.71 45.878 0.25 7.36 7.91 10.83
11/21/2020 6:30:00 AM 7.71 45.878 0.25 7.39 7.99 10.83
11/21/2020 6:45:00 AM 7.7 45.86 0.25 7.4 7 10.82
11/21/2020 7:00:00 AM 7.7 45.86 0.251 7.39 7.63 10.84
11/21/2020 7:15:00 AM 7.67 45.806 0.252 7.39 6.7 10.86
11/21/2020 7:30:00 AM 7.7 45.86 0.253 7.37 6.8 10.91
11/21/2020 7:45:00 AM 7.69 45.842 0.252 7.37 5.59 11
11/21/2020 8:00:00 AM 7.71 45.878 0.252 7.37 7.95 11.13
11/21/2020 8:15:00 AM 7.74 45.932 0.251 7.37 5.04 11.27
11/21/2020 8:30:00 AM 7.78 46.004 0.25 7.39 5.86 11.41
11/21/2020 8:45:00 AM 7.85 46.13 0.25 7.38 4.82 11.58
11/21/2020 9:00:00 AM 7.9 46.22 0.25 7.39 4.59 11.68
11/21/2020 9:15:00 AM 7.98 46.364 0.25 7.42 5.1 11.88
11/21/2020 9:30:00 AM 8.06 46.508 0.251 7.43 5.11 12.06
11/21/2020 9:45:00 AM 8.12 46.616 0.251 7.45 4.53 12.24
11/21/2020 10:00:00 AM 8.2 46.76 0.251 7.46 5.96 12.33
11/21/2020 10:15:00 AM 8.3 46.94 0.25 7.48 4.77 12.41
11/21/2020 10:30:00 AM 8.33 46.994 0.25 7.49 4.7 12.43
11/21/2020 10:45:00 AM 8.35 47.03 0.249 7.49 4.79 12.5
11/21/2020 11:00:00 AM 8.45 47.21 0.249 7.52 4.59 12.52
11/21/2020 11:15:00 AM 8.51 47.318 0.249 7.55 5.9 12.5
11/21/2020 11:30:00 AM 8.56 47.408 0.248 7.57 5.25 12.55
11/21/2020 11:45:00 AM 8.64 47.552 0.249 7.58 5.22 12.6
11/21/2020 12:00:00 PM 8.72 47.696 0.249 7.6 8.77 12.77
11/21/2020 12:15:00 PM 8.84 47.912 0.25 7.63 4.77 12.9
11/21/2020 12:30:00 PM 8.95 48.11 0.249 7.66 5.9 12.95
11/21/2020 12:45:00 PM 9.02 48.236 0.249 7.67 5.69 12.97
11/21/2020 1:00:00 PM 9.08 48.344 0.248 7.7 7.06 12.93
11/21/2020 1:15:00 PM 9.11 48.398 0.248 7.71 6.3 12.91
11/21/2020 1:30:00 PM 9.18 48.524 0.248 7.73 5.25 12.8
11/21/2020 1:45:00 PM 9.2 48.56 0.248 7.73 4.71 12.69
11/21/2020 2:00:00 PM 9.2 48.56 0.248 7.7 5.78 12.62
11/21/2020 2:15:00 PM 9.21 48.578 0.249 7.71 5.3 12.63
11/21/2020 2:30:00 PM 9.24 48.632 0.25 7.71 5.42 12.63
11/21/2020 2:45:00 PM 9.27 48.686 0.249 7.72 5.26 12.59
11/21/2020 3:00:00 PM 9.28 48.704 0.249 7.73 6.54 12.54
11/21/2020 3:15:00 PM 9.31 48.758 0.249 7.73 4.55 12.5
11/21/2020 3:30:00 PM 9.31 48.758 0.248 7.7 5.65 12.46
11/21/2020 3:45:00 PM 9.25 48.65 0.248 7.73 5.16 12.37
11/21/2020 4:00:00 PM 9.33 48.794 0.248 7.73 4.91 12.27
11/21/2020 4:15:00 PM 9.32 48.776 0.248 7.73 5.02 12.11
11/21/2020 4:30:00 PM 9.34 48.812 0.249 7.71 5.36 11.93
11/21/2020 4:45:00 PM 9.3 48.74 0.25 7.67 4.6 11.79
11/21/2020 5:00:00 PM 9.28 48.704 0.251 7.68 5.52 11.61
11/21/2020 5:15:00 PM 9.25 48.65 0.251 7.64 5.11 11.48
11/21/2020 5:30:00 PM 9.21 48.578 0.251 7.61 5.02 11.38
11/21/2020 5:45:00 PM 9.2 48.56 0.25 7.59 5.5 11.27
11/21/2020 6:00:00 PM 9.19 48.542 0.25 7.58 7.09 11.17
11/21/2020 6:15:00 PM 9.17 48.506 0.247 7.55 5.97 11.09
11/21/2020 6:30:00 PM 9.17 48.506 0.242 7.53 5.21 10.99
11/21/2020 6:45:00 PM 9.14 48.452 0.25 7.54 5.87 10.93
11/21/2020 7:00:00 PM 9.12 48.416 0.251 7.52 5.57 10.89
11/21/2020 7:15:00 PM 9.1 48.38 0.241 7.5 5.73 10.85
11/21/2020 7:30:00 PM 9.09 48.362 0.246 7.5 5.28 10.8
11/21/2020 7:45:00 PM 9.06 48.308 0.241 7.48 7.21 10.78
11/21/2020 8:00:00 PM 9.05 48.29 0.235 7.49 9.28 10.75
11/21/2020 8:15:00 PM 9.04 48.272 0.251 7.49 5.49 10.73
11/21/2020 8:30:00 PM 9.03 48.254 0.251 7.47 6.99 10.7
11/21/2020 8:45:00 PM 9.03 48.254 0.251 7.46 8.1 10.67
11/21/2020 9:00:00 PM 9.02 48.236 0.25 7.45 7.31 10.65
11/21/2020 9:15:00 PM 9 48.2 0.249 7.34 6.47 10.64
11/21/2020 9:30:00 PM 9 48.2 0.252 7.4 5.76 10.63
11/21/2020 9:45:00 PM 8.97 48.146 0.253 7.41 5.67 10.62
11/21/2020 10:00:00 PM 8.99 48.182 0.252 7.41 7.05 10.61
11/21/2020 10:15:00 PM 8.99 48.182 0.251 7.42 6.19 10.6
11/21/2020 10:30:00 PM 8.98 48.164 0.251 7.38 7.82 10.6
11/21/2020 10:45:00 PM 8.98 48.164 0.25 7.4 5.91 10.6
11/21/2020 11:00:00 PM 8.98 48.164 0.249 7.39 6.22 10.58
11/21/2020 11:15:00 PM 8.99 48.182 0.249 7.4 6.28 10.56
11/21/2020 11:30:00 PM 9.01 48.218 0.249 7.4 9.09 10.56
11/21/2020 11:45:00 PM 9.01 48.218 0.25 7.4 5.75 10.55
11/22/2020 12:00:00 AM 9.01 48.218 0.251 7.39 6.7 10.53
11/22/2020 12:15:00 AM 9.04 48.272 0.251 7.3 6.46 10.53
11/22/2020 12:30:00 AM 9.02 48.236 0.252 7.37 6.57 10.54
11/22/2020 12:45:00 AM 9.04 48.272 0.252 7.35 10.11 10.52
11/22/2020 1:00:00 AM 9.03 48.254 0.251 7.34 6.65 10.52
11/22/2020 1:15:00 AM 9.02 48.236 0.25 7.34 6.72 10.5
11/22/2020 1:30:00 AM 9.04 48.272 0.25 7.35 6.85 10.47
11/22/2020 1:45:00 AM 9.04 48.272 0.249 7.35 6.92 10.47
11/22/2020 2:00:00 AM 9.05 48.29 0.25 7.35 7.01 10.46
11/22/2020 2:15:00 AM 9.05 48.29 0.251 7.33 7.15 10.44
11/22/2020 2:30:00 AM 9.05 48.29 0.25 7.27 6.53 10.43
11/22/2020 2:45:00 AM 9.03 48.254 0.229 7.33 6.99 10.45
11/22/2020 3:00:00 AM 9.04 48.272 0.252 7.32 6.54 10.44
11/22/2020 3:15:00 AM 9 48.2 0.252 7.3 7.71 10.44
11/22/2020 3:30:00 AM 9 48.2 0.25 7.32 6.59 10.44
11/22/2020 3:45:00 AM 8.99 48.182 0.25 7.29 6.61 10.45
11/22/2020 4:00:00 AM 8.98 48.164 0.25 7.32 6.49 10.43
11/22/2020 4:15:00 AM 8.98 48.164 0.249 7.31 7.07 10.43
11/22/2020 4:30:00 AM 8.98 48.164 0.251 7.32 8.05 10.43
11/22/2020 4:45:00 AM 8.93 48.074 0.252 7.26 7.9 10.44
11/22/2020 5:00:00 AM 8.95 48.11 0.252 5.99 8.01 10.44
11/22/2020 5:15:00 AM 8.93 48.074 0.253 7.28 6.69 10.45
11/22/2020 5:30:00 AM 8.91 48.038 0.252 7.26 7.05 10.45
11/22/2020 5:45:00 AM 8.9 48.02 0.242 7.23 7.43 10.44
11/22/2020 6:00:00 AM 8.9 48.02 0.252 7.27 6.85 10.42
11/22/2020 6:15:00 AM 8.89 48.002 0.24 7.27 7.77 10.43
11/22/2020 6:30:00 AM 8.89 48.002 0.25 7.27 13.85 10.4
11/22/2020 6:45:00 AM 8.89 48.002 0.25 7.26 8.75 10.4
11/22/2020 7:00:00 AM 8.88 47.984 0.251 7.2 9.37 10.41
11/22/2020 7:15:00 AM 8.88 47.984 0.252 7.22 9.46 10.43
11/22/2020 7:30:00 AM 8.87 47.966 0.253 7.23 7.03 10.46
11/22/2020 7:45:00 AM 8.86 47.948 0.252 7.24 6.82 10.5
11/22/2020 8:00:00 AM 8.85 47.93 0.252 7.24 6.32 10.55
11/22/2020 8:15:00 AM 8.86 47.948 0.251 7.23 5.44 10.64
11/22/2020 8:30:00 AM 8.87 47.966 0.251 7.24 6.38 10.75
11/22/2020 8:45:00 AM 8.9 48.02 0.25 7.27 5.81 10.87
11/22/2020 9:00:00 AM 8.92 48.056 0.25 7.26 5.27 10.95
11/22/2020 9:15:00 AM 8.93 48.074 0.25 7.26 5.61 11.03
11/22/2020 9:30:00 AM 8.95 48.11 0.251 7.26 5.33 11.19
11/22/2020 9:45:00 AM 8.99 48.182 0.251 7.27 5.1 11.41
11/22/2020 10:00:00 AM 9.03 48.254 0.251 7.28 5.02 11.56
11/22/2020 10:15:00 AM 9.04 48.272 0.251 7.31 5.29 11.65
11/22/2020 10:30:00 AM 9.07 48.326 0.25 7.35 7.55 11.71
11/22/2020 10:45:00 AM 9.1 48.38 0.25 7.4 6.03 11.81
11/22/2020 11:00:00 AM 9.12 48.416 0.25 7.44 5.57 11.84
11/22/2020 11:15:00 AM 9.13 48.434 0.249 7.48 7.3 11.91
11/22/2020 11:30:00 AM 9.17 48.506 0.249 7.48 5.6 11.93
11/22/2020 11:45:00 AM 9.19 48.542 0.249 7.5 6.06 12.11
11/22/2020 12:00:00 PM 9.27 48.686 0.25 7.53 5.47 12.29
11/22/2020 12:15:00 PM 9.3 48.74 0.25 7.57 6.21 12.41
11/22/2020 12:30:00 PM 9.33 48.794 0.25 7.6 5.61 12.44
11/22/2020 12:45:00 PM 9.34 48.812 0.25 7.62 5.33 12.47
11/22/2020 1:00:00 PM 9.39 48.902 0.25 7.61 6.78 12.49
11/22/2020 1:15:00 PM 9.42 48.956 0.249 7.64 5.43 12.58
11/22/2020 1:30:00 PM 9.48 49.064 0.249 7.68 5.52 12.7
11/22/2020 1:45:00 PM 9.52 49.136 0.249 7.7 5.4 12.74
11/22/2020 2:00:00 PM 9.57 49.226 0.249 7.71 5.59 12.72
11/22/2020 2:15:00 PM 9.58 49.244 0.25 7.73 4.91 12.6
11/22/2020 2:30:00 PM 9.55 49.19 0.251 7.72 5.61 12.48
11/22/2020 2:45:00 PM 9.58 49.244 0.25 7.74 6 12.36
11/22/2020 3:00:00 PM 9.61 49.298 0.25 7.76 5.52 12.3
11/22/2020 3:15:00 PM 9.61 49.298 0.25 7.73 4.77 12.23
11/22/2020 3:30:00 PM 9.59 49.262 0.249 7.74 6 12.1
11/22/2020 3:45:00 PM 9.59 49.262 0.249 7.73 5.69 11.92
11/22/2020 4:00:00 PM 9.6 49.28 0.249 7.72 5.14 11.75
11/22/2020 4:15:00 PM 9.62 49.316 0.248 7.7 4.67 11.62
11/22/2020 4:30:00 PM 9.6 49.28 0.249 7.69 4.78 11.53
11/22/2020 4:45:00 PM 9.62 49.316 0.25 7.66 4.37 11.38
11/22/2020 5:00:00 PM 9.62 49.316 0.252 7.66 4.69 11.28
11/22/2020 5:15:00 PM 9.6 49.28 0.251 7.72 4.77 11.16
11/22/2020 5:30:00 PM 9.59 49.262 0.251 7.69 5.75 11.05
11/22/2020 5:45:00 PM 9.57 49.226 0.251 7.67 4.82 10.97
11/22/2020 6:00:00 PM 9.57 49.226 0.25 7.67 4.75 10.88
11/22/2020 6:15:00 PM 9.57 49.226 0.25 7.66 6.52 10.8
11/22/2020 6:30:00 PM 9.55 49.19 0.25 7.64 5.15 10.74
11/22/2020 6:45:00 PM 9.55 49.19 0.249 7.62 5.81 10.68
11/22/2020 7:00:00 PM 9.54 49.172 0.251 7.61 6.16 10.62
11/22/2020 7:15:00 PM 9.54 49.172 0.252 7.6 5.21 10.56
11/22/2020 7:30:00 PM 9.54 49.172 0.253 7.62 5.87 10.54
11/22/2020 7:45:00 PM 9.51 49.118 0.253 7.61 6.17 10.53
11/22/2020 8:00:00 PM 9.51 49.118 0.252 7.61 5.07 10.5
11/22/2020 8:15:00 PM 9.51 49.118 0.252 7.61 5.99 10.46
11/22/2020 8:30:00 PM 9.5 49.1 0.252 7.61 5.42 10.41
11/22/2020 8:45:00 PM 9.51 49.118 0.251 7.59 5.53 10.39
11/22/2020 9:00:00 PM 9.51 49.118 0.251 7.58 6 10.35
11/22/2020 9:15:00 PM 9.5 49.1 0.251 7.56 6.39 10.33
11/22/2020 9:30:00 PM 9.51 49.118 0.253 7.55 7.91 10.29
11/22/2020 9:45:00 PM 9.51 49.118 0.254 7.53 7.59 10.28
11/22/2020 10:00:00 PM 9.51 49.118 0.254 7.53 6.01 10.27
11/22/2020 10:15:00 PM 9.53 49.154 0.254 7.53 7.08 10.24
11/22/2020 10:30:00 PM 9.54 49.172 0.253 7.53 6.83 10.23
11/22/2020 10:45:00 PM 9.55 49.19 0.253 7.53 7.17 10.21
11/22/2020 11:00:00 PM 9.57 49.226 0.252 7.54 8.08 10.2
11/22/2020 11:15:00 PM 9.59 49.262 0.252 7.56 8.43 10.15
11/22/2020 11:30:00 PM 9.61 49.298 0.251 7.57 10.67 10.14
11/22/2020 11:45:00 PM 9.64 49.352 0.253 7.56 7.37 10.12
11/23/2020 12:00:00 AM 9.66 49.388 0.254 7.55 7.02 10.13
11/23/2020 12:15:00 AM 9.67 49.406 0.254 7.55 7.54 10.11
11/23/2020 12:30:00 AM 9.7 49.46 0.254 7.55 6.87 10.1
11/23/2020 12:45:00 AM 9.7 49.46 0.253 7.54 6.19 10.11
11/23/2020 1:00:00 AM 9.72 49.496 0.252 7.55 8.32 10.11
11/23/2020 1:15:00 AM 9.73 49.514 0.251 7.54 7.19 10.09
11/23/2020 1:30:00 AM 9.75 49.55 0.25 7.55 7.26 10.1
11/23/2020 1:45:00 AM 9.76 49.568 0.25 7.54 8.69 10.07
11/23/2020 2:00:00 AM 9.77 49.586 0.25 7.55 6.83 10.06
11/23/2020 2:15:00 AM 9.79 49.622 0.251 7.56 6.47 10.04
11/23/2020 2:30:00 AM 9.82 49.676 0.252 7.54 7.35 10.05
11/23/2020 2:45:00 AM 9.84 49.712 0.253 7.56 6.12 10.03
11/23/2020 3:00:00 AM 9.86 49.748 0.253 7.56 6.48 10.03
11/23/2020 3:15:00 AM 9.87 49.766 0.252 7.56 5.5 10.02
11/23/2020 3:30:00 AM 9.88 49.784 0.252 7.6 6.26 10.02
11/23/2020 3:45:00 AM 9.9 49.82 0.25 7.6 12.17 10.02
11/23/2020 4:00:00 AM 9.93 49.874 0.25 7.6 7.04 10
11/23/2020 4:15:00 AM 9.94 49.892 0.249 7.61 7.97 9.98
11/23/2020 4:30:00 AM 9.94 49.892 0.25 7.59 8.83 9.97
11/23/2020 4:45:00 AM 9.93 49.874 0.251 7.6 6.47 9.98
11/23/2020 5:00:00 AM 9.94 49.892 0.252 7.61 7.96 9.97
11/23/2020 5:15:00 AM 9.93 49.874 0.251 7.6 6.94 9.96
11/23/2020 5:30:00 AM 9.92 49.856 0.251 7.58 7.76 9.95
11/23/2020 5:45:00 AM 9.92 49.856 0.251 7.58 8.36 9.97
11/23/2020 6:00:00 AM 9.92 49.856 0.251 7.59 14.76 9.95
11/23/2020 6:15:00 AM 9.91 49.838 0.25 7.62 6.69 9.93
11/23/2020 6:30:00 AM 9.89 49.802 0.25 7.64 6.72 9.94
11/23/2020 6:45:00 AM 9.86 49.748 0.25 7.62 6.71 9.94
11/23/2020 7:00:00 AM 9.83 49.694 0.251 7.62 6.59 9.96
11/23/2020 7:15:00 AM 9.81 49.658 0.253 7.63 6.67 9.95
11/23/2020 7:30:00 AM 9.77 49.586 0.253 7.63 6.26 10.01
11/23/2020 7:45:00 AM 9.73 49.514 0.252 7.64 5.33 10.03
11/23/2020 8:00:00 AM 9.7 49.46 0.252 7.65 6.4 10.11
11/23/2020 8:15:00 AM 9.66 49.388 0.251 7.66 4.52 10.26
11/23/2020 8:30:00 AM 9.65 49.37 0.251 7.68 6.62 10.49
11/23/2020 8:45:00 AM 9.62 49.316 0.25 7.68 8.51 10.71
11/23/2020 9:00:00 AM 9.61 49.298 0.25 7.69 5.47 10.9
11/23/2020 9:15:00 AM 9.59 49.262 0.251 7.71 5.15 11.06
11/23/2020 9:30:00 AM 9.58 49.244 0.252 7.76 4.99 11.26
11/23/2020 9:45:00 AM 9.59 49.262 0.252 7.77 4.63 11.45
11/23/2020 10:00:00 AM 9.62 49.316 0.251 7.76 6.63 11.65
11/23/2020 10:15:00 AM 9.65 49.37 0.25 7.79 4.96 11.85
11/23/2020 10:30:00 AM 9.71 49.478 0.25 7.8 4.61 12.01
11/23/2020 10:45:00 AM 9.76 49.568 0.25 7.83 4.11 12.13
11/23/2020 11:00:00 AM 9.84 49.712 0.249 7.85 4.73 12.26
11/23/2020 11:15:00 AM 9.88 49.784 0.249 7.87 4.98 12.32
11/23/2020 11:30:00 AM 9.9 49.82 0.249 7.87 5.73 12.35
11/23/2020 11:45:00 AM 9.97 49.946 0.249 7.91 4.82 12.45
11/23/2020 12:00:00 PM 10.04 50.072 0.25 7.95 4.91 12.55
11/23/2020 12:15:00 PM 10.12 50.216 0.25 7.99 4.67 12.64
11/23/2020 12:30:00 PM 10.16 50.288 0.25 8 4.04 12.7
11/23/2020 12:45:00 PM 10.2 50.36 0.249 8.03 4.32 12.7
11/23/2020 1:00:00 PM 10.23 50.414 0.249 8.04 4.1 12.74
11/23/2020 1:15:00 PM 10.24 50.432 0.248 8.05 4.08 12.74
11/23/2020 1:30:00 PM 10.23 50.414 0.248 8.08 4.37 12.73
11/23/2020 1:45:00 PM 10.21 50.378 0.248 8.09 4.66 12.69
11/23/2020 2:00:00 PM 10.18 50.324 0.248 8.11 4.57 12.64
11/23/2020 2:15:00 PM 10.16 50.288 0.25 8.15 5.05 12.64
11/23/2020 2:30:00 PM 10.13 50.234 0.25 8.16 4.52 12.59
11/23/2020 2:45:00 PM 10.09 50.162 0.25 8.1 4.52 12.53
11/23/2020 3:00:00 PM 10.03 50.054 0.25 8.08 4.51 12.45
11/23/2020 3:15:00 PM 9.95 49.91 0.249 8.09 5.37 12.36
11/23/2020 3:30:00 PM 9.85 49.73 0.249 8.07 5.07 12.2
11/23/2020 3:45:00 PM 9.75 49.55 0.248 8.06 4.18 12.03
11/23/2020 4:00:00 PM 9.66 49.388 0.248 8.03 4.01 11.85
11/23/2020 4:15:00 PM 9.59 49.262 0.248 7.99 4.64 11.69
11/23/2020 4:30:00 PM 9.52 49.136 0.249 7.97 5.22 11.56
11/23/2020 4:45:00 PM 9.47 49.046 0.25 7.95 5.21 11.44
11/23/2020 5:00:00 PM 9.42 48.956 0.251 7.93 6.36 11.27
11/23/2020 5:15:00 PM 9.38 48.884 0.251 7.9 6.31 11.16
11/23/2020 5:30:00 PM 9.33 48.794 0.251 7.89 5.5 11.03
11/23/2020 5:45:00 PM 9.28 48.704 0.251 7.84 4.92 10.91
11/23/2020 6:00:00 PM 9.23 48.614 0.25 7.82 6.13 10.83
11/23/2020 6:15:00 PM 9.18 48.524 0.25 7.81 5.15 10.75
11/23/2020 6:30:00 PM 9.13 48.434 0.25 7.79 5.94 10.66
11/23/2020 6:45:00 PM 9.09 48.362 0.25 7.78 5.63 10.58
11/23/2020 7:00:00 PM 9.04 48.272 0.251 7.77 5.45 10.55
11/23/2020 7:15:00 PM 8.98 48.164 0.252 7.74 7.94 10.52
11/23/2020 7:30:00 PM 8.93 48.074 0.253 7.71 5.25 10.5
11/23/2020 7:45:00 PM 8.88 47.984 0.252 7.7 5.83 10.49
11/23/2020 8:00:00 PM 8.83 47.894 0.252 7.66 5.6 10.46
11/23/2020 8:15:00 PM 8.78 47.804 0.251 7.66 5.73 10.45
11/23/2020 8:30:00 PM 8.74 47.732 0.251 7.65 6.82 10.44
11/23/2020 8:45:00 PM 8.7 47.66 0.25 7.62 6.82 10.43
11/23/2020 9:00:00 PM 8.66 47.588 0.25 7.64 6.12 10.42
11/23/2020 9:15:00 PM 8.63 47.534 0.25 7.64 9.14 10.43
11/23/2020 9:30:00 PM 8.58 47.444 0.251 7.64 6.87 10.45
11/23/2020 9:45:00 PM 8.55 47.39 0.252 7.63 5.35 10.45
11/23/2020 10:00:00 PM 8.53 47.354 0.253 7.63 10.21 10.47
11/23/2020 10:15:00 PM 8.53 47.354 0.252 7.6 6.48 10.47
11/23/2020 10:30:00 PM 8.54 47.372 0.251 7.59 6.02 10.48
11/23/2020 10:45:00 PM 8.55 47.39 0.25 7.58 7.76 10.47
11/23/2020 11:00:00 PM 8.54 47.372 0.25 7.59 7.08 10.47
11/23/2020 11:15:00 PM 8.54 47.372 0.249 7.57 6.4 10.47
11/23/2020 11:30:00 PM 8.54 47.372 0.249 7.54 7.02 10.46
11/23/2020 11:45:00 PM 8.53 47.354 0.25 7.57 8.71 10.46
11/24/2020 12:00:00 AM 8.51 47.318 0.251 7.56 8.21 10.5
11/24/2020 12:15:00 AM 8.5 47.3 0.251 7.54 5.9 10.51
11/24/2020 12:30:00 AM 8.51 47.318 0.251 7.52 5.47 10.52
11/24/2020 12:45:00 AM 8.53 47.354 0.251 7.53 6.17 10.51
11/24/2020 1:00:00 AM 8.53 47.354 0.25 7.51 5.21 10.51
11/24/2020 1:15:00 AM 8.51 47.318 0.249 7.52 5.97 10.51
11/24/2020 1:30:00 AM 8.51 47.318 0.249 7.49 5.27 10.5
11/24/2020 1:45:00 AM 8.49 47.282 0.248 7.48 7.85 10.5
11/24/2020 2:00:00 AM 8.47 47.246 0.248 7.5 7.77 10.48
11/24/2020 2:15:00 AM 8.44 47.192 0.25 7.48 5.58 10.51
11/24/2020 2:30:00 AM 8.4 47.12 0.251 7.49 6.34 10.53
11/24/2020 2:45:00 AM 8.39 47.102 0.251 7.48 5.62 10.55
11/24/2020 3:00:00 AM 8.38 47.084 0.251 7.5 5.91 10.55
11/24/2020 3:15:00 AM 8.37 47.066 0.251 7.5 6.37 10.58
11/24/2020 3:30:00 AM 8.38 47.084 0.25 7.5 6.92 10.58
11/24/2020 3:45:00 AM 8.37 47.066 0.249 7.48 6.14 10.58
11/24/2020 4:00:00 AM 8.38 47.084 0.249 7.47 5.66 10.57
11/24/2020 4:15:00 AM 8.38 47.084 0.248 7.47 9.09 10.56
11/24/2020 4:30:00 AM 8.35 47.03 0.249 7.45 6.72 10.57
11/24/2020 4:45:00 AM 8.31 46.958 0.25 7.43 6.63 10.58
11/24/2020 5:00:00 AM 8.26 46.868 0.251 7.46 6.64 10.59
11/24/2020 5:15:00 AM 8.2 46.76 0.251 7.49 7.37 10.62
11/24/2020 5:30:00 AM 8.14 46.652 0.251 7.48 7.26 10.62
11/24/2020 5:45:00 AM 8.1 46.58 0.25 7.49 6.27 10.62
11/24/2020 6:00:00 AM 8.05 46.49 0.25 7.49 8.01 10.65
11/24/2020 6:15:00 AM 8 46.4 0.249 7.48 8.14 10.66
11/24/2020 6:30:00 AM 7.97 46.346 0.249 7.49 6.88 10.66
11/24/2020 6:45:00 AM 7.93 46.274 0.249 7.5 6.25 10.66
11/24/2020 7:00:00 AM 7.89 46.202 0.249 7.51 7.28 10.69
11/24/2020 7:15:00 AM 7.81 46.058 0.251 7.5 5.93 10.73
11/24/2020 7:30:00 AM 7.76 45.968 0.251 7.47 5.71 10.8
11/24/2020 7:45:00 AM 7.71 45.878 0.251 7.46 7.98 10.89
11/24/2020 8:00:00 AM 7.7 45.86 0.25 7.48 4.98 10.99
11/24/2020 8:15:00 AM 7.69 45.842 0.25 7.36 5.24 11.11
11/24/2020 8:30:00 AM 7.69 45.842 0.249 7.47 5.36 11.27
11/24/2020 8:45:00 AM 7.72 45.896 0.249 7.49 5 11.47
11/24/2020 9:00:00 AM 7.76 45.968 0.248 7.51 4.59 11.65
11/24/2020 9:15:00 AM 7.82 46.076 0.248 7.53 5.04 11.86
11/24/2020 9:30:00 AM 7.86 46.148 0.249 7.56 4.96 12.05
11/24/2020 9:45:00 AM 7.9 46.22 0.249 7.57 4.54 12.24
11/24/2020 10:00:00 AM 7.97 46.346 0.25 7.62 4.43 12.4
11/24/2020 10:15:00 AM 8.05 46.49 0.249 7.65 4.28 12.56
11/24/2020 10:30:00 AM 8.13 46.634 0.249 7.68 3.92 12.7
11/24/2020 10:45:00 AM 8.22 46.796 0.248 7.73 3.86 12.81
11/24/2020 11:00:00 AM 8.32 46.976 0.248 7.74 3.11 12.92
11/24/2020 11:15:00 AM 8.39 47.102 0.247 7.77 4.68 12.99
11/24/2020 11:30:00 AM 8.52 47.336 0.247 7.77 3.74 13.06
11/24/2020 11:45:00 AM 8.62 47.516 0.247 7.8 3.94 13.13
11/24/2020 12:00:00 PM 8.71 47.678 0.248 7.85 3.53 13.19
11/24/2020 12:15:00 PM 8.79 47.822 0.249 7.86 4.07 13.3
11/24/2020 12:30:00 PM 8.86 47.948 0.249 7.89 4.04 13.33
11/24/2020 12:45:00 PM 8.93 48.074 0.249 7.93 4.31 13.37
11/24/2020 1:00:00 PM 8.99 48.182 0.248 7.93 4.19 13.39
11/24/2020 1:15:00 PM 9.03 48.254 0.248 7.93 4.81 13.4
11/24/2020 1:30:00 PM 9.1 48.38 0.247 7.99 3.6 13.38
11/24/2020 1:45:00 PM 9.08 48.344 0.247 8.01 3.84 13.39
11/24/2020 2:00:00 PM 9.08 48.344 0.247 8.01 3.89 13.3
11/24/2020 2:15:00 PM 9.08 48.344 0.248 8.02 3.85 13.24
11/24/2020 2:30:00 PM 9.06 48.308 0.25 8.03 4.31 13.23
11/24/2020 2:45:00 PM 9.02 48.236 0.25 8.03 4.13 13.17
11/24/2020 3:00:00 PM 8.98 48.164 0.25 8.03 4.21 13.12
11/24/2020 3:15:00 PM 8.93 48.074 0.25 8.02 4.66 13
11/24/2020 3:30:00 PM 8.87 47.966 0.249 8.02 3.91 12.87
11/24/2020 3:45:00 PM 8.82 47.876 0.249 8.01 4.96 12.71
11/24/2020 4:00:00 PM 8.78 47.804 0.248 7.99 3.68 12.54
11/24/2020 4:15:00 PM 8.72 47.696 0.248 8 4.53 12.35
11/24/2020 4:30:00 PM 8.68 47.624 0.249 7.99 3.93 12.18
11/24/2020 4:45:00 PM 8.63 47.534 0.25 7.96 4.66 12.04
11/24/2020 5:00:00 PM 8.58 47.444 0.251 7.88 3.86 11.89
11/24/2020 5:15:00 PM 8.53 47.354 0.251 7.92 3.81 11.76
11/24/2020 5:30:00 PM 8.49 47.282 0.251 7.85 4.28 11.64
11/24/2020 5:45:00 PM 8.45 47.21 0.251 7.8 4.56 11.51
11/24/2020 6:00:00 PM 8.43 47.174 0.25 7.81 4.09 11.43
11/24/2020 6:15:00 PM 8.41 47.138 0.25 7.79 4.53 11.35
11/24/2020 6:30:00 PM 8.4 47.12 0.249 7.78 6.37 11.26
11/24/2020 6:45:00 PM 8.4 47.12 0.249 7.73 4.62 11.17
11/24/2020 7:00:00 PM 8.38 47.084 0.25 7.72 4.15 11.14
11/24/2020 7:15:00 PM 8.37 47.066 0.252 7.73 4.75 11.1
11/24/2020 7:30:00 PM 8.33 46.994 0.252 7.71 4.16 11.06
11/24/2020 7:45:00 PM 8.3 46.94 0.253 7.7 4.29 11.02
11/24/2020 8:00:00 PM 8.29 46.922 0.252 7.68 3.94 11
11/24/2020 8:15:00 PM 8.28 46.904 0.252 7.65 4.19 10.97
11/24/2020 8:30:00 PM 8.28 46.904 0.251 7.63 4.02 10.94
11/24/2020 8:45:00 PM 8.27 46.886 0.241 7.63 4.82 10.91
11/24/2020 9:00:00 PM 8.27 46.886 0.241 7.62 3.81 10.9
11/24/2020 9:15:00 PM 8.26 46.868 0.25 7.61 7.3 10.88
11/24/2020 9:30:00 PM 8.27 46.886 0.252 7.58 4.71 10.88
11/24/2020 9:45:00 PM 8.22 46.796 0.253 7.57 4.86 10.87
11/24/2020 10:00:00 PM 8.2 46.76 0.253 7.57 6.56 10.89
11/24/2020 10:15:00 PM 8.21 46.778 0.252 7.56 4.37 10.86
11/24/2020 10:30:00 PM 8.2 46.76 0.252 7.55 4.12 10.85
11/24/2020 10:45:00 PM 8.19 46.742 0.251 7.54 4.45 10.86
11/24/2020 11:00:00 PM 8.19 46.742 0.25 7.53 6.39 10.83
11/24/2020 11:15:00 PM 8.19 46.742 0.25 7.5 5.42 10.82
11/24/2020 11:30:00 PM 8.22 46.796 0.25 7.5 5 10.8
11/24/2020 11:45:00 PM 8.24 46.832 0.25 7.49 5.07 10.79
11/25/2020 12:00:00 AM 8.18 46.724 0.251 7.57 4.83 10.8
11/25/2020 12:15:00 AM 8.19 46.742 0.252 7.54 5.3 10.79
11/25/2020 12:30:00 AM 8.17 46.706 0.252 7.57 5.31 10.79
11/25/2020 12:45:00 AM 8.16 46.688 0.252 7.57 4.63 10.79
11/25/2020 1:00:00 AM 8.15 46.67 0.251 7.56 5.37 10.76
11/25/2020 1:15:00 AM 8.16 46.688 0.25 7.56 7.07 10.76
11/25/2020 1:30:00 AM 8.16 46.688 0.25 7.44 4.39 10.76
11/25/2020 1:45:00 AM 8.16 46.688 0.249 7.55 5.4 10.74
11/25/2020 2:00:00 AM 8.16 46.688 0.249 7.56 5.82 10.74
11/25/2020 2:15:00 AM 8.14 46.652 0.25 7.55 5.51 10.75
11/25/2020 2:30:00 AM 8.16 46.688 0.252 7.58 5.91 10.75
11/25/2020 2:45:00 AM 8.14 46.652 0.252 7.58 4.99 10.76
11/25/2020 3:00:00 AM 8.12 46.616 0.252 7.58 5.67 10.76
11/25/2020 3:15:00 AM 8.11 46.598 0.251 7.58 5.41 10.77
11/25/2020 3:30:00 AM 8.11 46.598 0.251 7.58 7.95 10.76
11/25/2020 3:45:00 AM 8.09 46.562 0.25 7.58 5.31 10.77
11/25/2020 4:00:00 AM 8.09 46.562 0.245 7.57 6.17 10.76
11/25/2020 4:15:00 AM 8.1 46.58 0.245 7.59 5.21 10.75
11/25/2020 4:30:00 AM 8.08 46.544 0.249 7.57 5.42 10.75
11/25/2020 4:45:00 AM 8.07 46.526 0.251 7.55 5.78 10.74
11/25/2020 5:00:00 AM 8.04 46.472 0.251 7.53 6.69 10.76
11/25/2020 5:15:00 AM 7.98 46.364 0.252 7.55 6.01 10.77
11/25/2020 5:30:00 AM 7.94 46.292 0.252 7.55 9.33 10.78
11/25/2020 5:45:00 AM 7.9 46.22 0.251 7.55 6.29 10.79
11/25/2020 6:00:00 AM 7.87 46.166 0.25 7.55 5.27 10.8
11/25/2020 6:15:00 AM 7.83 46.094 0.25 7.54 5.35 10.81
11/25/2020 6:30:00 AM 7.82 46.076 0.25 7.53 5.15 10.78
11/25/2020 6:45:00 AM 7.8 46.04 0.249 7.56 5.24 10.79
11/25/2020 7:00:00 AM 7.74 45.932 0.25 7.58 5.16 10.82
11/25/2020 7:15:00 AM 7.7 45.86 0.251 7.53 6.2 10.84
11/25/2020 7:30:00 AM 7.64 45.752 0.252 7.47 4.87 10.87
11/25/2020 7:45:00 AM 7.65 45.77 0.252 7.49 4.36 10.96
11/25/2020 8:00:00 AM 7.63 45.734 0.251 7.5 4.94 11.08
11/25/2020 8:15:00 AM 7.62 45.716 0.251 7.51 4.61 11.19
11/25/2020 8:30:00 AM 7.63 45.734 0.25 7.53 4.17 11.31
11/25/2020 8:45:00 AM 7.65 45.77 0.249 7.52 4.87 11.49
11/25/2020 9:00:00 AM 7.68 45.824 0.249 7.53 4.5 11.62
11/25/2020 9:15:00 AM 7.72 45.896 0.249 7.57 4.82 11.83
11/25/2020 9:30:00 AM 7.81 46.058 0.249 7.6 3.63 12.07
11/25/2020 9:45:00 AM 7.87 46.166 0.25 7.65 4.33 12.3
11/25/2020 10:00:00 AM 7.95 46.31 0.25 7.66 3.35 12.51
11/25/2020 10:15:00 AM 8.09 46.562 0.249 7.68 3.49 12.73
11/25/2020 10:30:00 AM 8.24 46.832 0.249 7.65 3.41 12.91
11/25/2020 10:45:00 AM 8.36 47.048 0.248 7.66 3.95 13.03
11/25/2020 11:00:00 AM 8.47 47.246 0.248 7.78 3.87 13.15
11/25/2020 11:15:00 AM 8.54 47.372 0.247 7.85 3.38 13.27
11/25/2020 11:30:00 AM 8.65 47.57 0.247 7.86 3.59 13.4
11/25/2020 11:45:00 AM 8.74 47.732 0.247 7.91 4.44 13.5
11/25/2020 12:00:00 PM 8.81 47.858 0.248 7.94 3.33 13.59
11/25/2020 12:15:00 PM 8.83 47.894 0.249 7.99 3.56 13.59
11/25/2020 12:30:00 PM 8.86 47.948 0.249 7.99 3.29 13.58
11/25/2020 12:45:00 PM 8.91 48.038 0.248 8.02 3.98 13.61
11/25/2020 1:00:00 PM 9 48.2 0.248 8.05 3.09 13.71
11/25/2020 1:15:00 PM 9.05 48.29 0.247 8.08 3.91 13.75
11/25/2020 1:30:00 PM 9.11 48.398 0.247 8.11 3.84 13.77
11/25/2020 1:45:00 PM 9.15 48.47 0.247 8.13 4.27 13.77
11/25/2020 2:00:00 PM 9.18 48.524 0.247 8.15 3.47 13.72
11/25/2020 2:15:00 PM 9.19 48.542 0.247 8.17 3.18 13.69
11/25/2020 2:30:00 PM 9.19 48.542 0.249 8.19 3.68 13.7
11/25/2020 2:45:00 PM 9.21 48.578 0.249 8.2 4.45 13.62
11/25/2020 3:00:00 PM 9.2 48.56 0.249 8.22 3.53 13.55
11/25/2020 3:15:00 PM 9.18 48.524 0.248 8.21 3.65 13.43
11/25/2020 3:30:00 PM 9.15 48.47 0.248 8.22 3.99 13.33
11/25/2020 3:45:00 PM 9.13 48.434 0.248 8.22 4.2 13.17
11/25/2020 4:00:00 PM 9.13 48.434 0.247 8.2 3.89 12.98
11/25/2020 4:15:00 PM 9.11 48.398 0.247 8.17 5.28 12.77
11/25/2020 4:30:00 PM 9.06 48.308 0.248 8.14 4.65 12.52
11/25/2020 4:45:00 PM 9.04 48.272 0.249 8.09 3.64 12.31
11/25/2020 5:00:00 PM 9 48.2 0.251 8.06 4.38 12.09
11/25/2020 5:15:00 PM 8.94 48.092 0.251 8.02 3.83 11.92
11/25/2020 5:30:00 PM 8.93 48.074 0.251 7.99 4.49 11.77
11/25/2020 5:45:00 PM 8.93 48.074 0.251 7.96 3.81 11.62
11/25/2020 6:00:00 PM 8.92 48.056 0.251 7.92 4.73 11.48
11/25/2020 6:15:00 PM 8.91 48.038 0.25 7.83 4.45 11.39
11/25/2020 6:30:00 PM 8.91 48.038 0.25 7.85 4.7 11.26
11/25/2020 6:45:00 PM 8.9 48.02 0.25 7.81 6.32 11.18
11/25/2020 7:00:00 PM 8.9 48.02 0.251 7.8 5.08 11.09
11/25/2020 7:15:00 PM 8.91 48.038 0.252 7.77 4.28 11.04
11/25/2020 7:30:00 PM 8.88 47.984 0.252 7.76 4.41 10.98
11/25/2020 7:45:00 PM 8.9 48.02 0.253 7.74 3.52 10.93
11/25/2020 8:00:00 PM 8.88 47.984 0.253 7.72 4.12 10.9
11/25/2020 8:15:00 PM 8.88 47.984 0.252 7.69 4.21 10.88
11/25/2020 8:30:00 PM 8.88 47.984 0.252 7.68 3.6 10.82
11/25/2020 8:45:00 PM 8.89 48.002 0.251 7.66 4.31 10.79
11/25/2020 9:00:00 PM 8.89 48.002 0.25 7.65 4.02 10.75
11/25/2020 9:15:00 PM 8.9 48.02 0.251 7.63 3.73 10.72
11/25/2020 9:30:00 PM 8.91 48.038 0.252 7.61 7.11 10.71
11/25/2020 9:45:00 PM 8.89 48.002 0.253 7.62 4.7 10.7
11/25/2020 10:00:00 PM 8.91 48.038 0.253 7.62 5.51 10.68
11/25/2020 10:15:00 PM 8.9 48.02 0.253 7.62 4.79 10.65
11/25/2020 10:30:00 PM 8.91 48.038 0.253 7.58 5.3 10.65
11/25/2020 10:45:00 PM 8.91 48.038 0.252 7.6 4.51 10.64
11/25/2020 11:00:00 PM 8.91 48.038 0.251 7.6 4.7 10.62
11/25/2020 11:15:00 PM 8.94 48.092 0.25 7.62 4.14 10.6
11/25/2020 11:30:00 PM 8.97 48.146 0.25 7.63 8.48 10.56
11/25/2020 11:45:00 PM 8.96 48.128 0.25 7.63 5.02 10.56
11/26/2020 12:00:00 AM 8.98 48.164 0.251 7.63 4.5 10.55
11/26/2020 12:15:00 AM 9 48.2 0.252 7.63 4.95 10.54
11/26/2020 12:30:00 AM 9 48.2 0.251 7.62 4.66 10.51
11/26/2020 12:45:00 AM 9.01 48.218 0.251 7.61 5.65 10.51
11/26/2020 1:00:00 AM 9.01 48.218 0.25 7.6 4.84 10.51
11/26/2020 1:15:00 AM 9.05 48.29 0.249 7.6 4.23 10.49
11/26/2020 1:30:00 AM 9.08 48.344 0.249 7.6 4.54 10.47
11/26/2020 1:45:00 AM 9.12 48.416 0.248 7.61 5.09 10.43
11/26/2020 2:00:00 AM 9.15 48.47 0.248 7.61 4.78 10.41
11/26/2020 2:15:00 AM 9.18 48.524 0.25 7.58 5.14 10.41
11/26/2020 2:30:00 AM 9.18 48.524 0.251 7.56 5.24 10.4
11/26/2020 2:45:00 AM 9.22 48.596 0.251 7.57 6.15 10.39
11/26/2020 3:00:00 AM 9.24 48.632 0.251 7.56 4.83 10.38
11/26/2020 3:15:00 AM 9.27 48.686 0.251 7.56 6.76 10.36
11/26/2020 3:30:00 AM 9.31 48.758 0.25 7.56 6.52 10.34
11/26/2020 3:45:00 AM 9.31 48.758 0.249 7.54 5.03 10.34
11/26/2020 4:00:00 AM 9.35 48.83 0.249 7.56 5.62 10.32
11/26/2020 4:15:00 AM 9.36 48.848 0.248 7.56 5.64 10.29
11/26/2020 4:30:00 AM 9.4 48.92 0.249 7.55 6.28 10.29
11/26/2020 4:45:00 AM 9.42 48.956 0.25 7.56 6.16 10.28
11/26/2020 5:00:00 AM 9.45 49.01 0.251 7.56 7.07 10.27
11/26/2020 5:15:00 AM 9.48 49.064 0.251 7.58 5.87 10.26
11/26/2020 5:30:00 AM 9.5 49.1 0.251 7.57 5.47 10.25
11/26/2020 5:45:00 AM 9.51 49.118 0.25 7.59 7 10.26
11/26/2020 6:00:00 AM 9.52 49.136 0.249 7.58 8.35 10.24
11/26/2020 6:15:00 AM 9.54 49.172 0.249 7.58 5.95 10.23
11/26/2020 6:30:00 AM 9.56 49.208 0.248 7.73 8.01 10.21
11/26/2020 6:45:00 AM 9.62 49.316 0.248 7.71 6.04 10.18
11/26/2020 7:00:00 AM 9.62 49.316 0.249 7.76 5.47 10.19
11/26/2020 7:15:00 AM 9.65 49.37 0.251 7.75 5.27 10.18
11/26/2020 7:30:00 AM 9.69 49.442 0.251 7.75 4.77 10.19
11/26/2020 7:45:00 AM 9.69 49.442 0.251 7.77 4.69 10.19
11/26/2020 8:00:00 AM 9.7 49.46 0.25 7.77 5 10.21
11/26/2020 8:15:00 AM 9.74 49.532 0.25 7.78 5.16 10.28
11/26/2020 8:30:00 AM 9.76 49.568 0.249 7.75 4.29 10.38
11/26/2020 8:45:00 AM 9.78 49.604 0.249 7.78 4.27 10.5
11/26/2020 9:00:00 AM 9.84 49.712 0.248 7.78 4.26 10.71
11/26/2020 9:15:00 AM 9.89 49.802 0.248 7.77 4.2 11.01
11/26/2020 9:30:00 AM 9.97 49.946 0.249 7.8 3.79 11.32
11/26/2020 9:45:00 AM 10.06 50.108 0.249 7.83 4.38 11.61
11/26/2020 10:00:00 AM 10.17 50.306 0.249 7.89 3.59 11.9
11/26/2020 10:15:00 AM 10.31 50.558 0.248 7.93 4.19 12.19
11/26/2020 10:30:00 AM 10.49 50.882 0.248 7.99 5.41 12.48
11/26/2020 10:45:00 AM 10.62 51.116 0.247 7.9 4.37 12.65
11/26/2020 11:00:00 AM 10.72 51.296 0.247 7.93 4.25 12.79
11/26/2020 11:15:00 AM 10.75 51.35 0.246 7.97 4.05 12.81
11/26/2020 11:30:00 AM 10.77 51.386 0.246 7.99 4.83 12.78
11/26/2020 11:45:00 AM 10.88 51.584 0.246 8.02 6.11 12.85
11/26/2020 12:00:00 PM 10.99 51.782 0.247 8.08 4.66 12.96
11/26/2020 12:15:00 PM 11.1 51.98 0.248 8.14 4.04 13.07
11/26/2020 12:30:00 PM 11.17 52.106 0.248 8.17 4.39 13.13
11/26/2020 12:45:00 PM 11.26 52.268 0.247 8.22 4.4 13.12
11/26/2020 1:00:00 PM 11.33 52.394 0.247 8.24 4.14 13.15
11/26/2020 1:15:00 PM 11.39 52.502 0.246 8.27 5.45 13.12
11/26/2020 1:30:00 PM 11.42 52.556 0.246 8.28 3.78 13.11
11/26/2020 1:45:00 PM 11.42 52.556 0.246 8.28 4.27 13.02
11/26/2020 2:00:00 PM 11.4 52.52 0.246 8.3 4.98 12.92
11/26/2020 2:15:00 PM 11.4 52.52 0.247 8.3 4.51 12.81
11/26/2020 2:30:00 PM 11.4 52.52 0.248 8.31 3.62 12.75
11/26/2020 2:45:00 PM 11.38 52.484 0.248 8.34 3.96 12.68
11/26/2020 3:00:00 PM 11.34 52.412 0.248 8.34 4.96 12.56
11/26/2020 3:15:00 PM 11.28 52.304 0.248 8.32 4.33 12.4
11/26/2020 3:30:00 PM 11.22 52.196 0.247 8.31 3.88 12.23
11/26/2020 3:45:00 PM 11.15 52.07 0.247 8.27 4.52 12.04
11/26/2020 4:00:00 PM 11.07 51.926 0.247 8.25 3.84 11.83
11/26/2020 4:15:00 PM 11 51.8 0.247 8.23 4.18 11.61
11/26/2020 4:30:00 PM 10.94 51.692 0.247 8.19 5.72 11.42
11/26/2020 4:45:00 PM 10.89 51.602 0.249 8.14 5.36 11.23
11/26/2020 5:00:00 PM 10.85 51.53 0.25 8.1 5.59 11.06
11/26/2020 5:15:00 PM 10.81 51.458 0.251 8.06 5.35 10.9
11/26/2020 5:30:00 PM 10.76 51.368 0.25 8.01 5.66 10.77
11/26/2020 5:45:00 PM 10.7 51.26 0.25 7.98 4.66 10.68
11/26/2020 6:00:00 PM 10.64 51.152 0.25 7.96 4.94 10.58
11/26/2020 6:15:00 PM 10.58 51.044 0.25 7.92 5.37 10.49
11/26/2020 6:30:00 PM 10.51 50.918 0.233 7.9 4.52 10.42
11/26/2020 6:45:00 PM 10.47 50.846 0.249 7.86 6.27 10.36
11/26/2020 7:00:00 PM 10.41 50.738 0.25 7.84 5.1 10.29
11/26/2020 7:15:00 PM 10.36 50.648 0.251 7.83 5.12 10.26
11/26/2020 7:30:00 PM 10.32 50.576 0.252 7.8 4.32 10.22
11/26/2020 7:45:00 PM 10.27 50.486 0.252 7.79 5.26 10.2
11/26/2020 8:00:00 PM 10.22 50.396 0.252 7.77 4.28 10.17
11/26/2020 8:15:00 PM 10.16 50.288 0.252 7.74 4.98 10.14
11/26/2020 8:30:00 PM 10.1 50.18 0.252 7.75 4.46 10.15
11/26/2020 8:45:00 PM 10.05 50.09 0.252 7.74 6.27 10.14
11/26/2020 9:00:00 PM 9.99 49.982 0.251 7.73 4.64 10.13
11/26/2020 9:15:00 PM 9.94 49.892 0.252 7.73 5.34 10.12
11/26/2020 9:30:00 PM 9.9 49.82 0.253 7.72 5 10.13
11/26/2020 9:45:00 PM 9.86 49.748 0.253 7.71 4.03 10.13
11/26/2020 10:00:00 PM 9.82 49.676 0.253 7.7 3.98 10.12
11/26/2020 10:15:00 PM 9.78 49.604 0.253 7.69 4.72 10.13
11/26/2020 10:30:00 PM 9.74 49.532 0.247 7.81 4.57 10.13
11/26/2020 10:45:00 PM 9.7 49.46 0.252 7.77 4.39 10.13
11/26/2020 11:00:00 PM 9.66 49.388 0.252 7.75 4.87 10.12
11/26/2020 11:15:00 PM 9.63 49.334 0.251 7.72 4.87 10.13
11/26/2020 11:30:00 PM 9.6 49.28 0.236 7.74 4.87 10.11
11/26/2020 11:45:00 PM 9.57 49.226 0.249 7.71 5.22 10.11
11/27/2020 12:00:00 AM 9.54 49.172 0.252 7.69 4.18 10.11
11/27/2020 12:15:00 AM 9.52 49.136 0.251 7.68 4.64 10.11
11/27/2020 12:30:00 AM 9.5 49.1 0.252 7.68 4.42 10.11
11/27/2020 12:45:00 AM 9.48 49.064 0.252 7.62 4.68 10.11
11/27/2020 1:00:00 AM 9.45 49.01 0.251 7.64 4.13 10.11
11/27/2020 1:15:00 AM 9.44 48.992 0.25 7.63 5.58 10.11
11/27/2020 1:30:00 AM 9.42 48.956 0.249 7.63 4.6 10.1
11/27/2020 1:45:00 AM 9.4 48.92 0.247 7.6 4.36 10.11
11/27/2020 2:00:00 AM 9.39 48.902 0.249 7.61 4.35 10.1
11/27/2020 2:15:00 AM 9.39 48.902 0.241 7.59 6.02 10.1
11/27/2020 2:30:00 AM 9.39 48.902 0.25 7.59 4.77 10.1
11/27/2020 2:45:00 AM 9.39 48.902 0.252 7.58 4.94 10.1
11/27/2020 3:00:00 AM 9.4 48.92 0.252 7.59 4.89 10.11
11/27/2020 3:15:00 AM 9.4 48.92 0.251 7.59 5.36 10.1
11/27/2020 3:30:00 AM 9.39 48.902 0.25 7.57 5.2 10.11
11/27/2020 3:45:00 AM 9.39 48.902 0.246 7.57 5.38 10.1
11/27/2020 4:00:00 AM 9.37 48.866 0.248 7.56 6.57 10.1
11/27/2020 4:15:00 AM 9.36 48.848 0.248 7.56 8.17 10.08
11/27/2020 4:30:00 AM 9.33 48.794 0.249 7.54 5.83 10.09
11/27/2020 4:45:00 AM 9.3 48.74 0.249 7.54 6.98 10.09
11/27/2020 5:00:00 AM 9.26 48.668 0.251 7.56 5.64 10.1
11/27/2020 5:15:00 AM 9.23 48.614 0.251 7.55 8.66 10.11
11/27/2020 5:30:00 AM 9.2 48.56 0.251 7.54 6.36 10.12
11/27/2020 5:45:00 AM 9.17 48.506 0.25 7.53 7.91 10.13
11/27/2020 6:00:00 AM 9.15 48.47 0.249 7.53 6.94 10.13
11/27/2020 6:15:00 AM 9.13 48.434 0.249 7.54 6.25 10.13
11/27/2020 6:30:00 AM 9.11 48.398 0.249 7.53 6.22 10.12
11/27/2020 6:45:00 AM 9.1 48.38 0.248 7.53 6.75 10.12
11/27/2020 7:00:00 AM 9.1 48.38 0.249 7.54 5.5 10.13
11/27/2020 7:15:00 AM 9.08 48.344 0.25 7.54 6.4 10.15
11/27/2020 7:30:00 AM 9.08 48.344 0.251 7.54 6.02 10.19
11/27/2020 7:45:00 AM 9.08 48.344 0.252 7.56 7.86 10.24
11/27/2020 8:00:00 AM 9.09 48.362 0.251 7.53 5.88 10.34
11/27/2020 8:15:00 AM 9.11 48.398 0.25 7.57 5.85 10.48
11/27/2020 8:30:00 AM 9.14 48.452 0.249 7.6 4.65 10.66
11/27/2020 8:45:00 AM 9.17 48.506 0.249 7.58 4.32 10.84
11/27/2020 9:00:00 AM 9.21 48.578 0.248 7.58 5.65 11.01
11/27/2020 9:15:00 AM 9.27 48.686 0.248 7.58 5.9 11.21
11/27/2020 9:30:00 AM 9.31 48.758 0.249 7.62 4.39 11.42
11/27/2020 9:45:00 AM 9.38 48.884 0.25 7.63 4.66 11.67
11/27/2020 10:00:00 AM 9.44 48.992 0.25 7.67 4.03 11.89
11/27/2020 10:15:00 AM 9.5 49.1 0.25 7.71 4.11 12.05
11/27/2020 10:30:00 AM 9.56 49.208 0.249 7.73 5.71 12.17
11/27/2020 10:45:00 AM 9.63 49.334 0.249 7.78 4.18 12.32
11/27/2020 11:00:00 AM 9.71 49.478 0.248 7.8 3.98 12.49
11/27/2020 11:15:00 AM 9.77 49.586 0.248 7.84 4.55 12.55
11/27/2020 11:30:00 AM 9.84 49.712 0.247 7.88 4.13 12.66
11/27/2020 11:45:00 AM 9.92 49.856 0.235 7.86 3.97 12.82
11/27/2020 12:00:00 PM 9.99 49.982 0.231 7.95 3.84 12.92
11/27/2020 12:15:00 PM 10.05 50.09 0.233 8.02 4.14 13.02
11/27/2020 12:30:00 PM 10.1 50.18 0.24 8.08 4.39 13.09
11/27/2020 12:45:00 PM 10.15 50.27 0.238 8.11 4.84 13.16
11/27/2020 1:00:00 PM 10.21 50.378 0.244 8.14 4.96 13.17
11/27/2020 1:15:00 PM 10.23 50.414 0.244 8.15 8.91 13.12
11/27/2020 1:30:00 PM 10.26 50.468 0.244 8.19 4.7 13.05
11/27/2020 1:45:00 PM 10.3 50.54 0.244 8.21 3.77 13.03
11/27/2020 2:00:00 PM 10.33 50.594 0.244 8.25 3.93 13.08
11/27/2020 2:15:00 PM 10.36 50.648 0.245 8.27 4.16 13.13
11/27/2020 2:30:00 PM 10.39 50.702 0.245 8.27 8.15 13.13
11/27/2020 2:45:00 PM 10.39 50.702 0.246 8.31 15.96 13.05
11/27/2020 3:00:00 PM 10.4 50.72 0.246 8.33 4.06 12.98
11/27/2020 3:15:00 PM 10.41 50.738 0.245 8.33 4.12 12.9
11/27/2020 3:30:00 PM 10.4 50.72 0.243 8.33 4.38 12.84
11/27/2020 3:45:00 PM 10.37 50.666 0.246 8.32 4.45 12.69
11/27/2020 4:00:00 PM 10.32 50.576 0.243 8.32 4.54 12.48
11/27/2020 4:15:00 PM 10.29 50.522 0.244 8.28 4.27 12.22
11/27/2020 4:30:00 PM 10.26 50.468 0.247 8.26 3.82 11.98
11/27/2020 4:45:00 PM 10.25 50.45 0.249 8.22 4.49 11.74
11/27/2020 5:00:00 PM 10.22 50.396 0.25 8.18 4.52 11.51
11/27/2020 5:15:00 PM 10.2 50.36 0.251 8.13 4.52 11.33
11/27/2020 5:30:00 PM 10.17 50.306 0.251 8.08 4.61 11.18
11/27/2020 5:45:00 PM 10.14 50.252 0.251 8.05 4.45 11.04
11/27/2020 6:00:00 PM 10.12 50.216 0.25 8.01 4.56 10.91
11/27/2020 6:15:00 PM 10.09 50.162 0.25 7.98 4.49 10.79
11/27/2020 6:30:00 PM 10.07 50.126 0.25 7.94 7.67 10.7
11/27/2020 6:45:00 PM 10.06 50.108 0.249 7.93 4.89 10.6
11/27/2020 7:00:00 PM 10.04 50.072 0.239 7.91 4.19 10.53
11/27/2020 7:15:00 PM 10.03 50.054 0.252 7.89 4.5 10.45
11/27/2020 7:30:00 PM 10.01 50.018 0.252 7.85 4.25 10.41
11/27/2020 7:45:00 PM 9.99 49.982 0.253 7.85 4.57 10.38
11/27/2020 8:00:00 PM 9.96 49.928 0.252 7.83 4.89 10.33
11/27/2020 8:15:00 PM 9.95 49.91 0.252 7.8 7.14 10.29
11/27/2020 8:30:00 PM 9.93 49.874 0.251 7.81 4.26 10.24
11/27/2020 8:45:00 PM 9.92 49.856 0.251 7.79 4.51 10.23
11/27/2020 9:00:00 PM 9.9 49.82 0.251 7.76 4.24 10.21
11/27/2020 9:15:00 PM 9.89 49.802 0.251 7.74 4.89 10.19
11/27/2020 9:30:00 PM 9.88 49.784 0.252 7.72 5.28 10.19
11/27/2020 9:45:00 PM 9.87 49.766 0.253 7.72 4.74 10.18
11/27/2020 10:00:00 PM 9.86 49.748 0.252 7.71 5.44 10.17
11/27/2020 10:15:00 PM 9.85 49.73 0.246 7.7 4.61 10.17
11/27/2020 10:30:00 PM 9.84 49.712 0.246 7.7 4.57 10.15
11/27/2020 10:45:00 PM 9.82 49.676 0.251 7.69 4.91 10.15
11/27/2020 11:00:00 PM 9.81 49.658 0.251 7.69 5.01 10.14
11/27/2020 11:15:00 PM 9.78 49.604 0.25 7.69 3.93 10.13
11/27/2020 11:30:00 PM 9.75 49.55 0.249 7.67 4.82 10.13
11/27/2020 11:45:00 PM 9.71 49.478 0.25 7.65 4.02 10.1
11/28/2020 12:00:00 AM 9.66 49.388 0.251 7.67 5.24 10.11
11/28/2020 12:15:00 AM 9.61 49.298 0.252 7.67 4.46 10.12
11/28/2020 12:30:00 AM 9.55 49.19 0.252 7.67 6.56 10.12
11/28/2020 12:45:00 AM 9.5 49.1 0.252 7.64 5.91 10.13
11/28/2020 1:00:00 AM 9.45 49.01 0.251 7.61 4.46 10.12
11/28/2020 1:15:00 AM 9.4 48.92 0.25 7.65 8.08 10.14
11/28/2020 1:30:00 AM 9.35 48.83 0.25 7.4 4.65 10.14
11/28/2020 1:45:00 AM 9.31 48.758 0.249 7.57 6.03 10.13
11/28/2020 2:00:00 AM 9.3 48.74 0.249 7.61 5.4 10.15
11/28/2020 2:15:00 AM 9.29 48.722 0.25 7.15 4.76 10.14
11/28/2020 2:30:00 AM 9.28 48.704 0.251 7.35 4.99 10.15
11/28/2020 2:45:00 AM 9.27 48.686 0.252 7.45 6.94 10.16
11/28/2020 3:00:00 AM 9.26 48.668 0.251 7.54 4.1 10.17
11/28/2020 3:15:00 AM 9.24 48.632 0.251 7.55 4.96 10.17
11/28/2020 3:30:00 AM 9.21 48.578 0.25 7.58 5.33 10.17
11/28/2020 3:45:00 AM 9.19 48.542 0.249 7.58 4.59 10.17
11/28/2020 4:00:00 AM 9.16 48.488 0.249 7.62 6.31 10.18
11/28/2020 4:15:00 AM 9.13 48.434 0.248 7.63 5.49 10.18
11/28/2020 4:30:00 AM 9.09 48.362 0.249 7.63 5.18 10.18
11/28/2020 4:45:00 AM 9.06 48.308 0.25 7.65 5.25 10.18
11/28/2020 5:00:00 AM 9.03 48.254 0.251 7.64 5.95 10.2
11/28/2020 5:15:00 AM 8.99 48.182 0.251 7.64 6.8 10.21
11/28/2020 5:30:00 AM 8.96 48.128 0.251 7.63 4.91 10.2
11/28/2020 5:45:00 AM 8.92 48.056 0.25 7.63 24.48 10.21
11/28/2020 6:00:00 AM 8.89 48.002 0.25 7.65 5.01 10.22
11/28/2020 6:15:00 AM 8.85 47.93 0.249 7.64 5.62 10.22
11/28/2020 6:30:00 AM 8.82 47.876 0.249 7.67 6.1 10.22
11/28/2020 6:45:00 AM 8.82 47.876 0.249 7.66 5.05 10.23
11/28/2020 7:00:00 AM 8.8 47.84 0.249 7.64 5.17 10.22
11/28/2020 7:15:00 AM 8.79 47.822 0.251 7.64 5.05 10.26
11/28/2020 7:30:00 AM 8.79 47.822 0.252 7.65 5.08 10.27
11/28/2020 7:45:00 AM 8.8 47.84 0.252 7.66 6.81 10.29
11/28/2020 8:00:00 AM 8.8 47.84 0.251 7.68 4.75 10.38
11/28/2020 8:15:00 AM 8.83 47.894 0.251 7.7 5.29 10.49
11/28/2020 8:30:00 AM 8.84 47.912 0.25 7.72 4.39 10.65
11/28/2020 8:45:00 AM 8.84 47.912 0.249 7.69 4.25 10.87
11/28/2020 9:00:00 AM 8.89 48.002 0.249 7.71 4.29 11.11
11/28/2020 9:15:00 AM 8.94 48.092 0.249 7.75 4.69 11.38
11/28/2020 9:30:00 AM 9.02 48.236 0.249 7.73 3.99 11.64
11/28/2020 9:45:00 AM 9.11 48.398 0.25 7.78 4.49 11.96
11/28/2020 10:00:00 AM 9.17 48.506 0.25 7.82 5.4 12.16
11/28/2020 10:15:00 AM 9.24 48.632 0.25 7.85 4.08 12.36
11/28/2020 10:30:00 AM 9.31 48.758 0.249 7.96 3.29 12.48
11/28/2020 10:45:00 AM 9.33 48.794 0.249 7.91 3.77 12.57
11/28/2020 11:00:00 AM 9.36 48.848 0.248 7.94 4.14 12.64
11/28/2020 11:15:00 AM 9.46 49.028 0.248 8.02 4.39 12.8
11/28/2020 11:30:00 AM 9.57 49.226 0.247 8.01 4.15 12.95
11/28/2020 11:45:00 AM 9.69 49.442 0.247 8.06 5.07 13.07
11/28/2020 12:00:00 PM 9.78 49.604 0.248 8.11 4.98 13.21
11/28/2020 12:15:00 PM 9.88 49.784 0.248 8.15 4.59 13.31
11/28/2020 12:30:00 PM 9.99 49.982 0.249 8.2 4.48 13.43
11/28/2020 12:45:00 PM 10.06 50.108 0.248 8.23 6.38 13.47
11/28/2020 1:00:00 PM 10.09 50.162 0.248 8.25 4.26 13.51
11/28/2020 1:15:00 PM 10.19 50.342 0.247 8.35 13.7 13.57
11/28/2020 1:30:00 PM 10.13 50.234 0.247 8.33 4.67 13.37
11/28/2020 1:45:00 PM 10.1 50.18 0.247 8.33 4.18 13.25
11/28/2020 2:00:00 PM 10.08 50.144 0.247 8.34 4.64 13.15
11/28/2020 2:15:00 PM 10.09 50.162 0.247 8.35 4.66 13.1
11/28/2020 2:30:00 PM 10.08 50.144 0.248 8.36 4.75 13.11
11/28/2020 2:45:00 PM 10.05 50.09 0.249 8.4 4.75 13.03
11/28/2020 3:00:00 PM 10.01 50.018 0.249 8.43 4.93 12.92
11/28/2020 3:15:00 PM 9.97 49.946 0.249 8.41 5 12.77
11/28/2020 3:30:00 PM 9.89 49.802 0.248 8.36 5.07 12.61
11/28/2020 3:45:00 PM 9.84 49.712 0.248 8.35 5.01 12.42
11/28/2020 4:00:00 PM 9.78 49.604 0.248 8.3 5.27 12.21
11/28/2020 4:15:00 PM 9.71 49.478 0.248 8.34 5.52 12
11/28/2020 4:30:00 PM 9.64 49.352 0.248 8.26 6.49 11.79
11/28/2020 4:45:00 PM 9.58 49.244 0.25 8.21 4.88 11.62
11/28/2020 5:00:00 PM 9.51 49.118 0.251 8.17 5.57 11.45
11/28/2020 5:15:00 PM 9.44 48.992 0.251 8.13 5.16 11.3
11/28/2020 5:30:00 PM 9.37 48.866 0.251 8.11 5.22 11.16
11/28/2020 5:45:00 PM 9.3 48.74 0.251 8.08 5.58 11.07
11/28/2020 6:00:00 PM 9.24 48.632 0.25 8.06 5.46 10.98
11/28/2020 6:15:00 PM 9.17 48.506 0.25 8.04 4.76 10.9
11/28/2020 6:30:00 PM 9.11 48.398 0.249 7.99 4.59 10.83
11/28/2020 6:45:00 PM 9.05 48.29 0.249 7.96 4.58 10.76
11/28/2020 7:00:00 PM 8.98 48.164 0.25 7.94 5.36 10.72
11/28/2020 7:15:00 PM 8.92 48.056 0.251 7.94 4.66 10.7
11/28/2020 7:30:00 PM 8.86 47.948 0.252 7.9 4.25 10.65
11/28/2020 7:45:00 PM 8.78 47.804 0.252 7.84 4.76 10.62
11/28/2020 8:00:00 PM 8.72 47.696 0.252 7.87 4.74 10.6
11/28/2020 8:15:00 PM 8.65 47.57 0.237 7.88 5.26 10.61
11/28/2020 8:30:00 PM 8.59 47.462 0.251 7.86 4.35 10.59
11/28/2020 8:45:00 PM 8.53 47.354 0.251 7.82 4.22 10.57
11/28/2020 9:00:00 PM 8.48 47.264 0.25 7.82 4.62 10.56
11/28/2020 9:15:00 PM 8.43 47.174 0.245 7.79 4.44 10.56
11/28/2020 9:30:00 PM 8.37 47.066 0.246 7.75 4.47 10.56
11/28/2020 9:45:00 PM 8.31 46.958 0.243 7.77 4.44 10.58
11/28/2020 10:00:00 PM 8.23 46.814 0.243 7.74 5.44 10.6
11/28/2020 10:15:00 PM 8.18 46.724 0.23 7.73 5.2 10.6
11/28/2020 10:30:00 PM 8.12 46.616 0.245 7.74 4.8 10.61
11/28/2020 10:45:00 PM 8.08 46.544 0.23 7.72 5.16 10.61
11/28/2020 11:00:00 PM 8.03 46.454 0.251 7.74 4.63 10.62
11/28/2020 11:15:00 PM 7.99 46.382 0.25 7.74 4.28 10.61
11/28/2020 11:30:00 PM 7.96 46.328 0.249 7.72 5.41 10.62
11/28/2020 11:45:00 PM 7.91 46.238 0.25 7.71 5.35 10.61
11/29/2020 12:00:00 AM 7.86 46.148 0.251 7.72 5.48 10.64
11/29/2020 12:15:00 AM 7.83 46.094 0.252 7.68 4.9 10.64
11/29/2020 12:30:00 AM 7.77 45.986 0.252 7.7 4.28 10.67
11/29/2020 12:45:00 AM 7.74 45.932 0.236 7.71 5.46 10.68
11/29/2020 1:00:00 AM 7.71 45.878 0.249 7.71 5 10.68
11/29/2020 1:15:00 AM 7.67 45.806 0.246 7.72 6.98 10.68
11/29/2020 1:30:00 AM 7.66 45.788 0.242 7.71 4.76 10.68
11/29/2020 1:45:00 AM 7.63 45.734 0.246 7.7 5.09 10.66
11/29/2020 2:00:00 AM 7.62 45.716 0.229 7.69 4.87 10.69
11/29/2020 2:15:00 AM 7.59 45.662 0.23 7.68 4.06 10.68
11/29/2020 2:30:00 AM 7.53 45.554 0.237 7.69 4.44 10.7
11/29/2020 2:45:00 AM 7.52 45.536 0.252 7.72 4.92 10.71
11/29/2020 3:00:00 AM 7.45 45.41 0.253 7.7 4.3 10.74
11/29/2020 3:15:00 AM 7.41 45.338 0.251 7.71 4.01 10.75
11/29/2020 3:30:00 AM 7.4 45.32 0.251 7.71 4.8 10.76
11/29/2020 3:45:00 AM 7.38 45.284 0.25 7.7 4.39 10.76
11/29/2020 4:00:00 AM 7.37 45.266 0.249 7.7 4.67 10.74
11/29/2020 4:15:00 AM 7.34 45.212 0.249 7.69 6.18 10.76
11/29/2020 4:30:00 AM 7.32 45.176 0.233 7.72 4.6 10.76
11/29/2020 4:45:00 AM 7.28 45.104 0.251 7.71 4.34 10.78
11/29/2020 5:00:00 AM 7.24 45.032 0.246 7.7 5 10.79
11/29/2020 5:15:00 AM 7.19 44.942 0.236 7.7 6.54 10.81
11/29/2020 5:30:00 AM 7.16 44.888 0.239 7.69 5.44 10.82
11/29/2020 5:45:00 AM 7.13 44.834 0.23 7.69 5.37 10.83
11/29/2020 6:00:00 AM 7.08 44.744 0.241 7.68 5.56 10.84
11/29/2020 6:15:00 AM 7.08 44.744 0.24 7.68 4.82 10.83
11/29/2020 6:30:00 AM 7.05 44.69 0.241 7.67 5.46 10.84
11/29/2020 6:45:00 AM 7.05 44.69 0.24 7.66 6.57 10.84
11/29/2020 7:00:00 AM 7.02 44.636 0.246 7.68 7.3 10.83
11/29/2020 7:15:00 AM 6.97 44.546 0.246 7.65 10.57 10.87
11/29/2020 7:30:00 AM 6.89 44.402 0.247 7.69 5.09 10.94
11/29/2020 7:45:00 AM 6.89 44.402 0.247 7.69 5.09 11.03
11/29/2020 8:00:00 AM 6.87 44.366 0.247 7.69 4.73 11.13
11/29/2020 8:15:00 AM 6.88 44.384 0.246 7.71 6.25 11.26
11/29/2020 8:30:00 AM 6.88 44.384 0.245 7.73 6.11 11.41
11/29/2020 8:45:00 AM 6.9 44.42 0.244 7.79 5.03 11.61
11/29/2020 9:00:00 AM 6.96 44.528 0.243 7.8 4.51 11.82